<?xml version='1.0' encoding='UTF-8'?><gpx version="1.1" creator="JPX - https://github.com/jenetics/jpx" xmlns="http://www.topografix.com/GPX/1/1"><trk><trkseg><trkpt lat="49.32798515659449" lon="0.4457574080098126"><ele>86.00000000000001</ele><time>2026-04-26T14:47:11Z</time></trkpt><trkpt lat="49.327988138960094" lon="0.4458725222620582"><ele>86.0</ele><time>2026-04-26T14:47:17Z</time></trkpt><trkpt lat="49.327959520815725" lon="0.44598513830966546"><ele>86.0</ele><time>2026-04-26T14:47:56Z</time></trkpt><trkpt lat="49.327951530141206" lon="0.44608663032357027"><ele>86.0</ele><time>2026-04-26T14:47:59Z</time></trkpt><trkpt lat="49.327988246538894" lon="0.44600520525210213"><ele>86.0</ele><time>2026-04-26T14:48:04Z</time></trkpt><trkpt lat="49.32798832052852" lon="0.44587269320736195"><ele>86.00000000000001</ele><time>2026-04-26T14:48:06Z</time></trkpt><trkpt lat="49.32799692410429" lon="0.44576788637828557"><ele>86.0</ele><time>2026-04-26T14:48:09Z</time></trkpt><trkpt lat="49.32798758372905" lon="0.44566168709807535"><ele>86.0</ele><time>2026-04-26T14:48:12Z</time></trkpt><trkpt lat="49.32792421382279" lon="0.4455608366206868"><ele>86.0</ele><time>2026-04-26T14:48:15Z</time></trkpt><trkpt lat="49.327864911689375" lon="0.44552524168710533"><ele>86.0</ele><time>2026-04-26T14:48:17Z</time></trkpt><trkpt lat="49.32778686606467" lon="0.4454183116842502"><ele>86.0</ele><time>2026-04-26T14:48:19Z</time></trkpt><trkpt lat="49.32770336675843" lon="0.4453651206385602"><ele>86.0</ele><time>2026-04-26T14:48:21Z</time></trkpt><trkpt lat="49.32760965795539" lon="0.4452838924637724"><ele>89.5</ele><time>2026-04-26T14:48:23Z</time></trkpt><trkpt lat="49.32755099609793" lon="0.4452180741811426"><ele>93.0</ele><time>2026-04-26T14:48:24Z</time></trkpt><trkpt lat="49.32746813091478" lon="0.4451338147553903"><ele>96.5</ele><time>2026-04-26T14:48:25Z</time></trkpt><trkpt lat="49.32737797905161" lon="0.4451067407657101"><ele>100.0</ele><time>2026-04-26T14:48:26Z</time></trkpt><trkpt lat="49.32729249821856" lon="0.44508487684954573"><ele>103.49999999999999</ele><time>2026-04-26T14:48:27Z</time></trkpt><trkpt lat="49.32720448077741" lon="0.44505582112932895"><ele>107.0</ele><time>2026-04-26T14:48:28Z</time></trkpt><trkpt lat="49.327132880249614" lon="0.4450478291385448"><ele>107.5</ele><time>2026-04-26T14:48:29Z</time></trkpt><trkpt lat="49.327022658667886" lon="0.44503009344403893"><ele>108.0</ele><time>2026-04-26T14:48:30Z</time></trkpt><trkpt lat="49.32688630714731" lon="0.44500424538112066"><ele>108.5</ele><time>2026-04-26T14:48:31Z</time></trkpt><trkpt lat="49.32672169829639" lon="0.4449795495080642"><ele>109.0</ele><time>2026-04-26T14:48:32Z</time></trkpt><trkpt lat="49.32660514256274" lon="0.44494935116243145"><ele>109.0</ele><time>2026-04-26T14:48:33Z</time></trkpt><trkpt lat="49.32647740252139" lon="0.444921238948224"><ele>109.0</ele><time>2026-04-26T14:48:34Z</time></trkpt><trkpt lat="49.32634932143232" lon="0.44491584818865276"><ele>109.0</ele><time>2026-04-26T14:48:35Z</time></trkpt><trkpt lat="49.326220136013156" lon="0.44492572647809425"><ele>109.0</ele><time>2026-04-26T14:48:36Z</time></trkpt><trkpt lat="49.3260980055869" lon="0.4448792610969721"><ele>108.25</ele><time>2026-04-26T14:48:37Z</time></trkpt><trkpt lat="49.32596742901454" lon="0.44486419411890626"><ele>107.5</ele><time>2026-04-26T14:48:38Z</time></trkpt><trkpt lat="49.32585602335256" lon="0.44484896217619646"><ele>106.75</ele><time>2026-04-26T14:48:39Z</time></trkpt><trkpt lat="49.325753247910804" lon="0.4448439501936511"><ele>106.0</ele><time>2026-04-26T14:48:40Z</time></trkpt><trkpt lat="49.32563274135566" lon="0.4448376173297095"><ele>105.6</ele><time>2026-04-26T14:48:41Z</time></trkpt><trkpt lat="49.325512152014326" lon="0.44481977120678945"><ele>105.19999999999999</ele><time>2026-04-26T14:48:42Z</time></trkpt><trkpt lat="49.32540067904164" lon="0.44480034162851134"><ele>104.80000000000001</ele><time>2026-04-26T14:48:43Z</time></trkpt><trkpt lat="49.32528833834742" lon="0.44478324971188377"><ele>104.4</ele><time>2026-04-26T14:48:44Z</time></trkpt><trkpt lat="49.32519144044846" lon="0.44475308868078134"><ele>104.0</ele><time>2026-04-26T14:48:45Z</time></trkpt><trkpt lat="49.32510841645491" lon="0.444719082265577"><ele>104.0</ele><time>2026-04-26T14:48:46Z</time></trkpt><trkpt lat="49.32499359557067" lon="0.4446588227708858"><ele>104.0</ele><time>2026-04-26T14:48:47Z</time></trkpt><trkpt lat="49.324948352056225" lon="0.4445816776979261"><ele>104.0</ele><time>2026-04-26T14:48:48Z</time></trkpt><trkpt lat="49.32487929371428" lon="0.44446622834731087"><ele>104.0</ele><time>2026-04-26T14:48:50Z</time></trkpt><trkpt lat="49.32485347447567" lon="0.4443539446275984"><ele>104.0</ele><time>2026-04-26T14:48:51Z</time></trkpt><trkpt lat="49.324825231223926" lon="0.4442315645072632"><ele>105.83333333333333</ele><time>2026-04-26T14:48:52Z</time></trkpt><trkpt lat="49.32478867026333" lon="0.4441251843096147"><ele>107.66666666666666</ele><time>2026-04-26T14:48:53Z</time></trkpt><trkpt lat="49.324753610156634" lon="0.4440402026666702"><ele>109.5</ele><time>2026-04-26T14:48:54Z</time></trkpt><trkpt lat="49.32471692043526" lon="0.44395119326382276"><ele>111.33333333333334</ele><time>2026-04-26T14:48:55Z</time></trkpt><trkpt lat="49.32467068056279" lon="0.44382067844619866"><ele>113.16666666666667</ele><time>2026-04-26T14:48:56Z</time></trkpt><trkpt lat="49.324591343961245" lon="0.44367718304010817"><ele>115.0</ele><time>2026-04-26T14:48:57Z</time></trkpt><trkpt lat="49.32452745146585" lon="0.44355598622763814"><ele>116.6</ele><time>2026-04-26T14:48:58Z</time></trkpt><trkpt lat="49.32447217615868" lon="0.4434648106658469"><ele>118.2</ele><time>2026-04-26T14:48:59Z</time></trkpt><trkpt lat="49.32442407677493" lon="0.44337739452382363"><ele>119.80000000000001</ele><time>2026-04-26T14:49:00Z</time></trkpt><trkpt lat="49.324453087941386" lon="0.44314344758245267"><ele>121.4</ele><time>2026-04-26T14:49:02Z</time></trkpt><trkpt lat="49.32439193039588" lon="0.44302817632145297"><ele>123.0</ele><time>2026-04-26T14:49:04Z</time></trkpt><trkpt lat="49.324292770636916" lon="0.44297661138503047"><ele>123.0</ele><time>2026-04-26T14:49:26Z</time></trkpt><trkpt lat="49.32427170619573" lon="0.442878411570422"><ele>123.00000000000001</ele><time>2026-04-26T14:49:28Z</time></trkpt><trkpt lat="49.3242021834622" lon="0.4427467810220041"><ele>123.00000000000001</ele><time>2026-04-26T14:49:30Z</time></trkpt><trkpt lat="49.32415685793028" lon="0.4426496463782155"><ele>123.0</ele><time>2026-04-26T14:49:31Z</time></trkpt><trkpt lat="49.324100747459354" lon="0.4425216323456719"><ele>123.0</ele><time>2026-04-26T14:49:31.999Z</time></trkpt><trkpt lat="49.324031730014106" lon="0.4423363008616553"><ele>123.0</ele><time>2026-04-26T14:49:32.999Z</time></trkpt><trkpt lat="49.32393621641682" lon="0.4421432862121953"><ele>123.0</ele><time>2026-04-26T14:49:33.999Z</time></trkpt><trkpt lat="49.323848835003716" lon="0.44195887436502773"><ele>123.0</ele><time>2026-04-26T14:49:34.999Z</time></trkpt><trkpt lat="49.323763008056545" lon="0.4417714396761986"><ele>122.25</ele><time>2026-04-26T14:49:35.999Z</time></trkpt><trkpt lat="49.323687661183584" lon="0.4415997660087087"><ele>121.5</ele><time>2026-04-26T14:49:36.999Z</time></trkpt><trkpt lat="49.32360793846676" lon="0.44142221535131543"><ele>120.75</ele><time>2026-04-26T14:49:37.999Z</time></trkpt><trkpt lat="49.32351270933095" lon="0.4412725319464949"><ele>120.0</ele><time>2026-04-26T14:49:38.999Z</time></trkpt><trkpt lat="49.32346539922556" lon="0.4411875996299178"><ele>119.0</ele><time>2026-04-26T14:49:39.999Z</time></trkpt><trkpt lat="49.32342708786381" lon="0.441075978287503"><ele>118.0</ele><time>2026-04-26T14:49:41.999Z</time></trkpt><trkpt lat="49.32352102244824" lon="0.4409511549085021"><ele>117.0</ele><time>2026-04-26T14:49:44.999Z</time></trkpt><trkpt lat="49.3236619874451" lon="0.4408812251123603"><ele>116.0</ele><time>2026-04-26T14:49:46.999Z</time></trkpt><trkpt lat="49.323773190966165" lon="0.4408541837904936"><ele>116.0</ele><time>2026-04-26T14:49:47.999Z</time></trkpt><trkpt lat="49.32388758592666" lon="0.440842327225958"><ele>116.0</ele><time>2026-04-26T14:49:48.999Z</time></trkpt><trkpt lat="49.32396593135624" lon="0.4408187119364106"><ele>116.0</ele><time>2026-04-26T14:49:49.999Z</time></trkpt><trkpt lat="49.324053644775105" lon="0.44079713853082947"><ele>116.0</ele><time>2026-04-26T14:49:50.999Z</time></trkpt><trkpt lat="49.324153766938046" lon="0.4407822837446469"><ele>116.0</ele><time>2026-04-26T14:49:51.999Z</time></trkpt><trkpt lat="49.32425610306565" lon="0.4407469430483447"><ele>115.6</ele><time>2026-04-26T14:49:52.999Z</time></trkpt><trkpt lat="49.324357484614666" lon="0.44070517349330945"><ele>115.19999999999999</ele><time>2026-04-26T14:49:53.999Z</time></trkpt><trkpt lat="49.32448182719685" lon="0.4406886102961711"><ele>114.80000000000001</ele><time>2026-04-26T14:49:54.999Z</time></trkpt><trkpt lat="49.32458458070844" lon="0.44068437893014045"><ele>114.4</ele><time>2026-04-26T14:49:55.999Z</time></trkpt><trkpt lat="49.324669340315324" lon="0.44067533319889307"><ele>114.0</ele><time>2026-04-26T14:49:56.999Z</time></trkpt><trkpt lat="49.32475351341722" lon="0.44067337270137064"><ele>114.80000000000001</ele><time>2026-04-26T14:49:58Z</time></trkpt><trkpt lat="49.324855378605434" lon="0.4406845184831709"><ele>115.60000000000001</ele><time>2026-04-26T14:50:00Z</time></trkpt><trkpt lat="49.324948319742134" lon="0.4406809943683967"><ele>116.4</ele><time>2026-04-26T14:50:02Z</time></trkpt><trkpt lat="49.32507039999525" lon="0.4406483444832426"><ele>117.2</ele><time>2026-04-26T14:50:04Z</time></trkpt><trkpt lat="49.32519844688859" lon="0.4406507140298503"><ele>118.0</ele><time>2026-04-26T14:50:06Z</time></trkpt><trkpt lat="49.325267774782766" lon="0.44065395693916753"><ele>118.0</ele><time>2026-04-26T14:50:07Z</time></trkpt><trkpt lat="49.32537249031437" lon="0.44065310453492956"><ele>118.00000000000001</ele><time>2026-04-26T14:50:09Z</time></trkpt><trkpt lat="49.32544560136035" lon="0.4406377922842778"><ele>118.00000000000001</ele><time>2026-04-26T14:50:11Z</time></trkpt><trkpt lat="49.32551649531758" lon="0.4406355796693539"><ele>118.0</ele><time>2026-04-26T14:50:13Z</time></trkpt><trkpt lat="49.3256551046594" lon="0.4406027860879877"><ele>118.0</ele><time>2026-04-26T14:50:15Z</time></trkpt><trkpt lat="49.32575506348488" lon="0.4405809724996514"><ele>117.75</ele><time>2026-04-26T14:50:16Z</time></trkpt><trkpt lat="49.32587776559952" lon="0.4405674716173412"><ele>117.5</ele><time>2026-04-26T14:50:17Z</time></trkpt><trkpt lat="49.32595157225545" lon="0.440539454179522"><ele>117.25</ele><time>2026-04-26T14:50:18Z</time></trkpt><trkpt lat="49.32606685059243" lon="0.4405211737279974"><ele>117.0</ele><time>2026-04-26T14:50:19Z</time></trkpt><trkpt lat="49.32620215609816" lon="0.440498402403466"><ele>117.0</ele><time>2026-04-26T14:50:20Z</time></trkpt><trkpt lat="49.32636782599724" lon="0.4404893362362941"><ele>117.0</ele><time>2026-04-26T14:50:21Z</time></trkpt><trkpt lat="49.326484922025486" lon="0.44050602819915435"><ele>117.0</ele><time>2026-04-26T14:50:22Z</time></trkpt><trkpt lat="49.32662366178163" lon="0.44051561061755246"><ele>117.0</ele><time>2026-04-26T14:50:23Z</time></trkpt><trkpt lat="49.32671221915164" lon="0.4404897592538135"><ele>117.19999999999999</ele><time>2026-04-26T14:50:24Z</time></trkpt><trkpt lat="49.32680899636734" lon="0.44047297971751237"><ele>117.39999999999999</ele><time>2026-04-26T14:50:25Z</time></trkpt><trkpt lat="49.32689023950803" lon="0.44044984797059744"><ele>117.60000000000001</ele><time>2026-04-26T14:50:26Z</time></trkpt><trkpt lat="49.32703720931634" lon="0.4404432641297867"><ele>117.80000000000001</ele><time>2026-04-26T14:50:28Z</time></trkpt><trkpt lat="49.32712886547404" lon="0.4404426336051043"><ele>118.0</ele><time>2026-04-26T14:50:29Z</time></trkpt><trkpt lat="49.32721371061892" lon="0.4404425360857772"><ele>117.2</ele><time>2026-04-26T14:50:30Z</time></trkpt><trkpt lat="49.32729643425396" lon="0.4404558123579728"><ele>116.4</ele><time>2026-04-26T14:50:31Z</time></trkpt><trkpt lat="49.32737461891906" lon="0.44046783616533364"><ele>115.60000000000001</ele><time>2026-04-26T14:50:32Z</time></trkpt><trkpt lat="49.32746421747132" lon="0.4404782415803551"><ele>114.80000000000001</ele><time>2026-04-26T14:50:33Z</time></trkpt><trkpt lat="49.32757667562516" lon="0.4404997687595068"><ele>114.0</ele><time>2026-04-26T14:50:34Z</time></trkpt><trkpt lat="49.32768721591859" lon="0.4405108834413114"><ele>114.0</ele><time>2026-04-26T14:50:35Z</time></trkpt><trkpt lat="49.32779061546469" lon="0.4405156545946814"><ele>114.0</ele><time>2026-04-26T14:50:36Z</time></trkpt><trkpt lat="49.32790706809228" lon="0.44054532389583884"><ele>114.0</ele><time>2026-04-26T14:50:38Z</time></trkpt><trkpt lat="49.328032139292155" lon="0.440558967069492"><ele>114.0</ele><time>2026-04-26T14:50:40Z</time></trkpt><trkpt lat="49.328100935672126" lon="0.4405565776804213"><ele>114.0</ele><time>2026-04-26T14:50:41Z</time></trkpt><trkpt lat="49.328184181032654" lon="0.4405503315801671"><ele>113.5</ele><time>2026-04-26T14:50:42Z</time></trkpt><trkpt lat="49.32828262901252" lon="0.4405209548246213"><ele>113.0</ele><time>2026-04-26T14:50:43Z</time></trkpt><trkpt lat="49.32837458566708" lon="0.44048345166679653"><ele>112.5</ele><time>2026-04-26T14:50:44Z</time></trkpt><trkpt lat="49.32845590964541" lon="0.440457428657078"><ele>112.0</ele><time>2026-04-26T14:50:45Z</time></trkpt><trkpt lat="49.32853913254052" lon="0.44042718783883644"><ele>111.5</ele><time>2026-04-26T14:50:46Z</time></trkpt><trkpt lat="49.328623719156035" lon="0.4404084308599889"><ele>111.0</ele><time>2026-04-26T14:50:47Z</time></trkpt><trkpt lat="49.32869488200213" lon="0.44039580791854094"><ele>107.6</ele><time>2026-04-26T14:50:48Z</time></trkpt><trkpt lat="49.328757054872156" lon="0.4403685244933358"><ele>104.19999999999999</ele><time>2026-04-26T14:50:49Z</time></trkpt><trkpt lat="49.32888885535947" lon="0.4403576798070568"><ele>100.80000000000001</ele><time>2026-04-26T14:50:51Z</time></trkpt><trkpt lat="49.329004078556636" lon="0.440336437489954"><ele>97.4</ele><time>2026-04-26T14:50:53Z</time></trkpt><trkpt lat="49.329084228296075" lon="0.4403243260713395"><ele>94.0</ele><time>2026-04-26T14:50:54Z</time></trkpt><trkpt lat="49.32915098129447" lon="0.4403338327411346"><ele>94.0</ele><time>2026-04-26T14:50:55Z</time></trkpt><trkpt lat="49.329224076841435" lon="0.4403109213890074"><ele>94.0</ele><time>2026-04-26T14:50:56Z</time></trkpt><trkpt lat="49.32930782670447" lon="0.440292937035161"><ele>94.0</ele><time>2026-04-26T14:50:57Z</time></trkpt><trkpt lat="49.32942802478401" lon="0.44024976663878557"><ele>94.0</ele><time>2026-04-26T14:50:59Z</time></trkpt><trkpt lat="49.32949920060434" lon="0.44022820340113294"><ele>94.0</ele><time>2026-04-26T14:51:00Z</time></trkpt><trkpt lat="49.3295755324711" lon="0.4402179062181382"><ele>94.0</ele><time>2026-04-26T14:51:01Z</time></trkpt><trkpt lat="49.32967823847465" lon="0.44019283117342367"><ele>93.2</ele><time>2026-04-26T14:51:03Z</time></trkpt><trkpt lat="49.32975204344203" lon="0.44018506425544457"><ele>92.4</ele><time>2026-04-26T14:51:04Z</time></trkpt><trkpt lat="49.32982776604214" lon="0.4401737247413607"><ele>91.6</ele><time>2026-04-26T14:51:05Z</time></trkpt><trkpt lat="49.329941682680555" lon="0.44019355733717663"><ele>90.8</ele><time>2026-04-26T14:51:07Z</time></trkpt><trkpt lat="49.3300452604655" lon="0.44019967399669396"><ele>90.0</ele><time>2026-04-26T14:51:09Z</time></trkpt><trkpt lat="49.330200072437854" lon="0.44019365250742165"><ele>90.0</ele><time>2026-04-26T14:51:13Z</time></trkpt><trkpt lat="49.33027193893399" lon="0.4401875743034618"><ele>90.0</ele><time>2026-04-26T14:51:15Z</time></trkpt><trkpt lat="49.330462013228264" lon="0.440180609446634"><ele>90.0</ele><time>2026-04-26T14:51:20Z</time></trkpt><trkpt lat="49.33066378776747" lon="0.4401837777802951"><ele>88.75</ele><time>2026-04-26T14:51:26Z</time></trkpt><trkpt lat="49.33077351457581" lon="0.44017719436402186"><ele>87.5</ele><time>2026-04-26T14:51:28Z</time></trkpt><trkpt lat="49.33086600313204" lon="0.44015775750813274"><ele>86.25</ele><time>2026-04-26T14:51:29Z</time></trkpt><trkpt lat="49.33102546495352" lon="0.44011467296134893"><ele>85.0</ele><time>2026-04-26T14:51:31Z</time></trkpt><trkpt lat="49.33113417711332" lon="0.44012355588865565"><ele>85.0</ele><time>2026-04-26T14:51:32Z</time></trkpt><trkpt lat="49.331304714323664" lon="0.4401159485242611"><ele>85.0</ele><time>2026-04-26T14:51:33Z</time></trkpt><trkpt lat="49.3314603993981" lon="0.4401185759076869"><ele>85.0</ele><time>2026-04-26T14:51:34Z</time></trkpt><trkpt lat="49.331583360228095" lon="0.44011592697887203"><ele>85.0</ele><time>2026-04-26T14:51:35Z</time></trkpt><trkpt lat="49.331684178946695" lon="0.4401067791561653"><ele>83.66666666666666</ele><time>2026-04-26T14:51:36Z</time></trkpt><trkpt lat="49.33178324171129" lon="0.44009467329981217"><ele>82.33333333333333</ele><time>2026-04-26T14:51:37Z</time></trkpt><trkpt lat="49.33187807544131" lon="0.44008749165863925"><ele>81.0</ele><time>2026-04-26T14:51:38Z</time></trkpt><trkpt lat="49.331944497639654" lon="0.44007759983443157"><ele>79.66666666666667</ele><time>2026-04-26T14:51:39Z</time></trkpt><trkpt lat="49.33200688276461" lon="0.4400513835335075"><ele>78.33333333333334</ele><time>2026-04-26T14:51:40Z</time></trkpt><trkpt lat="49.33206309881005" lon="0.4399968266386352"><ele>77.0</ele><time>2026-04-26T14:51:41Z</time></trkpt><trkpt lat="49.33214451313353" lon="0.43991313726061826"><ele>76.25</ele><time>2026-04-26T14:51:43Z</time></trkpt><trkpt lat="49.332251908266635" lon="0.43988970080246137"><ele>75.5</ele><time>2026-04-26T14:51:45Z</time></trkpt><trkpt lat="49.332395532714735" lon="0.4398799127521097"><ele>74.75</ele><time>2026-04-26T14:51:47Z</time></trkpt><trkpt lat="49.33248410642297" lon="0.43987033477727855"><ele>74.0</ele><time>2026-04-26T14:51:48Z</time></trkpt><trkpt lat="49.33260275159021" lon="0.439909091410596"><ele>74.0</ele><time>2026-04-26T14:51:49Z</time></trkpt><trkpt lat="49.33273889393982" lon="0.4399265892798921"><ele>74.0</ele><time>2026-04-26T14:51:50Z</time></trkpt><trkpt lat="49.33286659135274" lon="0.4399451270555686"><ele>74.0</ele><time>2026-04-26T14:51:51Z</time></trkpt><trkpt lat="49.33298078389391" lon="0.4399532721929028"><ele>74.0</ele><time>2026-04-26T14:51:52Z</time></trkpt><trkpt lat="49.333099081476256" lon="0.4399593449113843"><ele>73.60000000000001</ele><time>2026-04-26T14:51:53Z</time></trkpt><trkpt lat="49.333200665308496" lon="0.43996840457565667"><ele>73.2</ele><time>2026-04-26T14:51:54Z</time></trkpt><trkpt lat="49.33328669671742" lon="0.4399965220267646"><ele>72.80000000000001</ele><time>2026-04-26T14:51:55Z</time></trkpt><trkpt lat="49.33337924515665" lon="0.4400366384709401"><ele>72.4</ele><time>2026-04-26T14:51:56Z</time></trkpt><trkpt lat="49.33347906339782" lon="0.4400812280985165"><ele>72.0</ele><time>2026-04-26T14:51:57Z</time></trkpt><trkpt lat="49.333582835735385" lon="0.4401147725160554"><ele>72.0</ele><time>2026-04-26T14:51:58Z</time></trkpt><trkpt lat="49.3336672925698" lon="0.44015527345996586"><ele>72.0</ele><time>2026-04-26T14:51:59Z</time></trkpt><trkpt lat="49.33373860270696" lon="0.44020522115009453"><ele>72.0</ele><time>2026-04-26T14:52:00Z</time></trkpt><trkpt lat="49.33380550475382" lon="0.44024844800878854"><ele>72.0</ele><time>2026-04-26T14:52:01Z</time></trkpt><trkpt lat="49.33390057502688" lon="0.44031180213767923"><ele>72.0</ele><time>2026-04-26T14:52:02Z</time></trkpt><trkpt lat="49.33401976370945" lon="0.4403959415710008"><ele>70.25</ele><time>2026-04-26T14:52:03Z</time></trkpt><trkpt lat="49.334154131163366" lon="0.4404907106331863"><ele>68.5</ele><time>2026-04-26T14:52:04.001Z</time></trkpt><trkpt lat="49.33429213469376" lon="0.4405809867080688"><ele>66.75</ele><time>2026-04-26T14:52:05.001Z</time></trkpt><trkpt lat="49.33441578787988" lon="0.4406970077673752"><ele>65.0</ele><time>2026-04-26T14:52:06.001Z</time></trkpt><trkpt lat="49.33452885348338" lon="0.44079789571803546"><ele>65.0</ele><time>2026-04-26T14:52:07.001Z</time></trkpt><trkpt lat="49.334639063716885" lon="0.4408811898527414"><ele>65.0</ele><time>2026-04-26T14:52:08.001Z</time></trkpt><trkpt lat="49.33473544244488" lon="0.440973842889814"><ele>65.0</ele><time>2026-04-26T14:52:09.001Z</time></trkpt><trkpt lat="49.33482079326616" lon="0.44105605192142405"><ele>65.0</ele><time>2026-04-26T14:52:10.001Z</time></trkpt><trkpt lat="49.33489966839769" lon="0.44113047636509267"><ele>65.0</ele><time>2026-04-26T14:52:11.001Z</time></trkpt><trkpt lat="49.334974133633516" lon="0.44120440507558817"><ele>65.0</ele><time>2026-04-26T14:52:12.001Z</time></trkpt><trkpt lat="49.33502988483315" lon="0.4412819799921535"><ele>65.0</ele><time>2026-04-26T14:52:13.001Z</time></trkpt><trkpt lat="49.335085645089215" lon="0.44135183438411896"><ele>65.0</ele><time>2026-04-26T14:52:14.001Z</time></trkpt><trkpt lat="49.335138026386275" lon="0.4414209170914503"><ele>65.0</ele><time>2026-04-26T14:52:15.001Z</time></trkpt><trkpt lat="49.335200211800526" lon="0.44150362369227913"><ele>65.0</ele><time>2026-04-26T14:52:16.001Z</time></trkpt><trkpt lat="49.335268906018996" lon="0.4415796528076512"><ele>65.0</ele><time>2026-04-26T14:52:17.001Z</time></trkpt><trkpt lat="49.3353275571304" lon="0.44166739587474346"><ele>64.66666666666667</ele><time>2026-04-26T14:52:18.001Z</time></trkpt><trkpt lat="49.33538976320531" lon="0.44176077094000465"><ele>64.33333333333334</ele><time>2026-04-26T14:52:19.001Z</time></trkpt><trkpt lat="49.33545238838451" lon="0.4418569555503726"><ele>64.0</ele><time>2026-04-26T14:52:20.001Z</time></trkpt><trkpt lat="49.335500289168074" lon="0.44192996618530966"><ele>63.66666666666667</ele><time>2026-04-26T14:52:21.001Z</time></trkpt><trkpt lat="49.335568373363834" lon="0.4420489495497262"><ele>63.333333333333336</ele><time>2026-04-26T14:52:23Z</time></trkpt><trkpt lat="49.33560276716454" lon="0.4421503296769059"><ele>63.0</ele><time>2026-04-26T14:52:26Z</time></trkpt><trkpt lat="49.335490402587254" lon="0.4422083180017207"><ele>63.0</ele><time>2026-04-26T14:52:30Z</time></trkpt><trkpt lat="49.33542492901178" lon="0.4422764751600694"><ele>63.0</ele><time>2026-04-26T14:52:31Z</time></trkpt><trkpt lat="49.33536395866739" lon="0.44237559378214153"><ele>63.0</ele><time>2026-04-26T14:52:32Z</time></trkpt><trkpt lat="49.33528803705775" lon="0.44246600814873954"><ele>63.0</ele><time>2026-04-26T14:52:33Z</time></trkpt><trkpt lat="49.33520816048713" lon="0.4425799226027697"><ele>63.0</ele><time>2026-04-26T14:52:34Z</time></trkpt><trkpt lat="49.33512495899952" lon="0.44278301126325514"><ele>63.66666666666667</ele><time>2026-04-26T14:52:35Z</time></trkpt><trkpt lat="49.335007290589644" lon="0.44300814034670344"><ele>64.33333333333334</ele><time>2026-04-26T14:52:36Z</time></trkpt><trkpt lat="49.334890883179945" lon="0.4432420190733303"><ele>65.0</ele><time>2026-04-26T14:52:37Z</time></trkpt><trkpt lat="49.33476219942651" lon="0.4434341149375735"><ele>65.5</ele><time>2026-04-26T14:52:38Z</time></trkpt><trkpt lat="49.33464476579844" lon="0.44355939178539405"><ele>66.0</ele><time>2026-04-26T14:52:39Z</time></trkpt><trkpt lat="49.334534910980864" lon="0.44367227177489926"><ele>66.5</ele><time>2026-04-26T14:52:40Z</time></trkpt><trkpt lat="49.33443442325744" lon="0.4437699229338199"><ele>67.0</ele><time>2026-04-26T14:52:41Z</time></trkpt><trkpt lat="49.33431732756099" lon="0.44388318056282194"><ele>67.0</ele><time>2026-04-26T14:52:42Z</time></trkpt><trkpt lat="49.33420827013762" lon="0.4439835404143289"><ele>67.0</ele><time>2026-04-26T14:52:43Z</time></trkpt><trkpt lat="49.33410772944036" lon="0.4440802087991672"><ele>67.0</ele><time>2026-04-26T14:52:44Z</time></trkpt><trkpt lat="49.33403039219932" lon="0.4441937070984062"><ele>67.0</ele><time>2026-04-26T14:52:45Z</time></trkpt><trkpt lat="49.33394323496413" lon="0.4442574044148491"><ele>67.0</ele><time>2026-04-26T14:52:46Z</time></trkpt><trkpt lat="49.33388330458057" lon="0.4443434774581887"><ele>67.66666666666666</ele><time>2026-04-26T14:52:47Z</time></trkpt><trkpt lat="49.333821899178176" lon="0.44438168869199457"><ele>68.33333333333333</ele><time>2026-04-26T14:52:48Z</time></trkpt><trkpt lat="49.33377441799528" lon="0.44444976821047255"><ele>69.0</ele><time>2026-04-26T14:52:50Z</time></trkpt><trkpt lat="49.33371332149946" lon="0.44452437121447264"><ele>69.66666666666667</ele><time>2026-04-26T14:52:58Z</time></trkpt><trkpt lat="49.33366100533192" lon="0.4445811579764588"><ele>70.33333333333334</ele><time>2026-04-26T14:52:59Z</time></trkpt><trkpt lat="49.33360341912655" lon="0.44464314415433254"><ele>71.0</ele><time>2026-04-26T14:53:00Z</time></trkpt><trkpt lat="49.33351668692353" lon="0.4447457076102714"><ele>71.0</ele><time>2026-04-26T14:53:02Z</time></trkpt><trkpt lat="49.33369613361917" lon="0.44517669383960695"><ele>71.0</ele><time>2026-04-26T14:53:05Z</time></trkpt><trkpt lat="49.33373084723273" lon="0.4452820394771097"><ele>71.0</ele><time>2026-04-26T14:53:06Z</time></trkpt><trkpt lat="49.33377732587108" lon="0.44540628238475777"><ele>70.0</ele><time>2026-04-26T14:53:07Z</time></trkpt><trkpt lat="49.33381231512232" lon="0.44554397518477945"><ele>69.0</ele><time>2026-04-26T14:53:08Z</time></trkpt><trkpt lat="49.33384177032552" lon="0.44565960423133283"><ele>68.0</ele><time>2026-04-26T14:53:09Z</time></trkpt><trkpt lat="49.3338631187462" lon="0.4457736534687119"><ele>67.0</ele><time>2026-04-26T14:53:10Z</time></trkpt><trkpt lat="49.33388391913204" lon="0.4458689270307326"><ele>66.0</ele><time>2026-04-26T14:53:11Z</time></trkpt><trkpt lat="49.33392408971575" lon="0.4460289353507596"><ele>65.0</ele><time>2026-04-26T14:53:13Z</time></trkpt><trkpt lat="49.333966878710584" lon="0.4461352199569179"><ele>63.8</ele><time>2026-04-26T14:53:15Z</time></trkpt><trkpt lat="49.33400329391163" lon="0.44623027821056016"><ele>62.6</ele><time>2026-04-26T14:53:18Z</time></trkpt><trkpt lat="49.334044165621194" lon="0.44639073615243646"><ele>61.400000000000006</ele><time>2026-04-26T14:53:21Z</time></trkpt><trkpt lat="49.33408295077031" lon="0.4465537925873837"><ele>60.2</ele><time>2026-04-26T14:53:23Z</time></trkpt><trkpt lat="49.334124250389294" lon="0.4467283457755927"><ele>59.0</ele><time>2026-04-26T14:53:25Z</time></trkpt><trkpt lat="49.33415340495587" lon="0.4468592373648104"><ele>59.0</ele><time>2026-04-26T14:53:27Z</time></trkpt><trkpt lat="49.3342152195442" lon="0.4469728878066185"><ele>59.00000000000001</ele><time>2026-04-26T14:53:29Z</time></trkpt><trkpt lat="49.33429458445404" lon="0.4471239741888424"><ele>59.00000000000001</ele><time>2026-04-26T14:53:31Z</time></trkpt><trkpt lat="49.33433574020909" lon="0.4472186737342562"><ele>59.0</ele><time>2026-04-26T14:53:32Z</time></trkpt><trkpt lat="49.33436492499391" lon="0.44731211985361624"><ele>59.0</ele><time>2026-04-26T14:53:33Z</time></trkpt><trkpt lat="49.33441435837343" lon="0.4474545433191392"><ele>60.400000000000006</ele><time>2026-04-26T14:53:34Z</time></trkpt><trkpt lat="49.33445451093487" lon="0.44758701997223316"><ele>61.800000000000004</ele><time>2026-04-26T14:53:35Z</time></trkpt><trkpt lat="49.33448222658644" lon="0.4477291676920374"><ele>63.199999999999996</ele><time>2026-04-26T14:53:36Z</time></trkpt><trkpt lat="49.33452377441668" lon="0.44786036390322403"><ele>64.6</ele><time>2026-04-26T14:53:37Z</time></trkpt><trkpt lat="49.3345576079726" lon="0.44798795772684635"><ele>66.0</ele><time>2026-04-26T14:53:38Z</time></trkpt><trkpt lat="49.33458097436841" lon="0.4481224523416794"><ele>67.8</ele><time>2026-04-26T14:53:39Z</time></trkpt><trkpt lat="49.33462805486434" lon="0.44825465933478803"><ele>69.6</ele><time>2026-04-26T14:53:40Z</time></trkpt><trkpt lat="49.334644165943814" lon="0.4483590066996898"><ele>71.4</ele><time>2026-04-26T14:53:41Z</time></trkpt><trkpt lat="49.334656306519335" lon="0.4484666443984826"><ele>73.2</ele><time>2026-04-26T14:53:42Z</time></trkpt><trkpt lat="49.33468088385848" lon="0.4485851395984688"><ele>75.0</ele><time>2026-04-26T14:53:44Z</time></trkpt><trkpt lat="49.33476415941451" lon="0.44836908153895"><ele>76.5</ele><time>2026-04-26T14:53:47Z</time></trkpt><trkpt lat="49.334840902709225" lon="0.4482202300908664"><ele>78.0</ele><time>2026-04-26T14:53:49Z</time></trkpt><trkpt lat="49.334942289653455" lon="0.4479018859313021"><ele>79.5</ele><time>2026-04-26T14:53:52Z</time></trkpt><trkpt lat="49.33499835509019" lon="0.447811576583673"><ele>81.0</ele><time>2026-04-26T14:53:53Z</time></trkpt><trkpt lat="49.33508226105644" lon="0.4476607451247888"><ele>81.0</ele><time>2026-04-26T14:53:55Z</time></trkpt><trkpt lat="49.33517642518468" lon="0.4475069532355694"><ele>81.0</ele><time>2026-04-26T14:53:57Z</time></trkpt><trkpt lat="49.3352277779816" lon="0.4474222679501371"><ele>81.0</ele><time>2026-04-26T14:53:58Z</time></trkpt><trkpt lat="49.33527681336461" lon="0.4473420735553496"><ele>81.0</ele><time>2026-04-26T14:53:59Z</time></trkpt><trkpt lat="49.335321499604895" lon="0.4472545459080947"><ele>81.0</ele><time>2026-04-26T14:54:00Z</time></trkpt><trkpt lat="49.33536792596462" lon="0.4470723989749816"><ele>82.14285714285714</ele><time>2026-04-26T14:54:02Z</time></trkpt><trkpt lat="49.33539089504842" lon="0.4469632640647233"><ele>83.28571428571428</ele><time>2026-04-26T14:54:03Z</time></trkpt><trkpt lat="49.33541842849481" lon="0.4468733538863308"><ele>84.42857142857142</ele><time>2026-04-26T14:54:04Z</time></trkpt><trkpt lat="49.335462217340854" lon="0.44679050998881886"><ele>85.57142857142857</ele><time>2026-04-26T14:54:05Z</time></trkpt><trkpt lat="49.335511443429006" lon="0.4467157556670922"><ele>86.71428571428571</ele><time>2026-04-26T14:54:06Z</time></trkpt><trkpt lat="49.335572150560964" lon="0.44664445563455346"><ele>87.85714285714285</ele><time>2026-04-26T14:54:07Z</time></trkpt><trkpt lat="49.33563997086689" lon="0.44657780249318424"><ele>89.0</ele><time>2026-04-26T14:54:08Z</time></trkpt><trkpt lat="49.33570135804009" lon="0.44648467565909794"><ele>89.0</ele><time>2026-04-26T14:54:09Z</time></trkpt><trkpt lat="49.33576477385522" lon="0.4463772302064915"><ele>89.0</ele><time>2026-04-26T14:54:10.001Z</time></trkpt><trkpt lat="49.33584227586664" lon="0.4462951856973791"><ele>89.0</ele><time>2026-04-26T14:54:11.001Z</time></trkpt><trkpt lat="49.335893734353526" lon="0.4462312003966088"><ele>89.0</ele><time>2026-04-26T14:54:12.001Z</time></trkpt><trkpt lat="49.33595527720794" lon="0.44616401832241825"><ele>89.0</ele><time>2026-04-26T14:54:13.001Z</time></trkpt><trkpt lat="49.336027959169975" lon="0.4461093869856884"><ele>89.0</ele><time>2026-04-26T14:54:14.001Z</time></trkpt><trkpt lat="49.33609881137039" lon="0.4460300439521579"><ele>90.4</ele><time>2026-04-26T14:54:15.001Z</time></trkpt><trkpt lat="49.33618171499654" lon="0.4459271328164262"><ele>91.80000000000001</ele><time>2026-04-26T14:54:16.001Z</time></trkpt><trkpt lat="49.33625633449041" lon="0.4458358132055798"><ele>93.19999999999999</ele><time>2026-04-26T14:54:17.001Z</time></trkpt><trkpt lat="49.336346716206926" lon="0.4457785691531199"><ele>94.6</ele><time>2026-04-26T14:54:18.001Z</time></trkpt><trkpt lat="49.336443401368186" lon="0.4457276890744"><ele>96.0</ele><time>2026-04-26T14:54:19.001Z</time></trkpt><trkpt lat="49.33653339233316" lon="0.44566697200375444"><ele>96.0</ele><time>2026-04-26T14:54:20.001Z</time></trkpt><trkpt lat="49.33660269242602" lon="0.4456198927432773"><ele>96.0</ele><time>2026-04-26T14:54:21.001Z</time></trkpt><trkpt lat="49.33668577159401" lon="0.4455885150088921"><ele>96.0</ele><time>2026-04-26T14:54:22.001Z</time></trkpt><trkpt lat="49.336765446614024" lon="0.44555817868382963"><ele>96.0</ele><time>2026-04-26T14:54:23.001Z</time></trkpt><trkpt lat="49.33686641747159" lon="0.44554325628082836"><ele>96.0</ele><time>2026-04-26T14:54:24.001Z</time></trkpt><trkpt lat="49.33694055608243" lon="0.4455019297006288"><ele>96.0</ele><time>2026-04-26T14:54:26.001Z</time></trkpt><trkpt lat="49.33703094979784" lon="0.4454954999544446"><ele>96.0</ele><time>2026-04-26T14:54:28.001Z</time></trkpt><trkpt lat="49.33712283257253" lon="0.44551471142645516"><ele>96.0</ele><time>2026-04-26T14:54:30.001Z</time></trkpt><trkpt lat="49.33720926362717" lon="0.4455132068046818"><ele>96.0</ele><time>2026-04-26T14:54:32.001Z</time></trkpt><trkpt lat="49.33731564730356" lon="0.4454266504239115"><ele>96.0</ele><time>2026-04-26T14:54:36Z</time></trkpt><trkpt lat="49.3374076195526" lon="0.44543674951640244"><ele>96.0</ele><time>2026-04-26T14:54:38Z</time></trkpt><trkpt lat="49.33751221897066" lon="0.44546392923511646"><ele>98.6</ele><time>2026-04-26T14:54:39Z</time></trkpt><trkpt lat="49.33761764987605" lon="0.4455185764927158"><ele>101.19999999999999</ele><time>2026-04-26T14:54:40Z</time></trkpt><trkpt lat="49.33772318989053" lon="0.44561423515423876"><ele>103.80000000000001</ele><time>2026-04-26T14:54:41Z</time></trkpt><trkpt lat="49.33781469246901" lon="0.4456906857269138"><ele>106.4</ele><time>2026-04-26T14:54:42Z</time></trkpt><trkpt lat="49.33786542110445" lon="0.4457634595505043"><ele>109.0</ele><time>2026-04-26T14:54:43Z</time></trkpt><trkpt lat="49.33794039994296" lon="0.44583621466048007"><ele>109.00000000000001</ele><time>2026-04-26T14:54:45Z</time></trkpt><trkpt lat="49.33803696451904" lon="0.4458423868851215"><ele>109.0</ele><time>2026-04-26T14:54:47Z</time></trkpt><trkpt lat="49.33812116798984" lon="0.4458241557681542"><ele>109.0</ele><time>2026-04-26T14:54:49Z</time></trkpt><trkpt lat="49.3382246514102" lon="0.44580306638192474"><ele>109.0</ele><time>2026-04-26T14:54:51Z</time></trkpt><trkpt lat="49.3382944276708" lon="0.445780035878307"><ele>109.00000000000001</ele><time>2026-04-26T14:54:52Z</time></trkpt><trkpt lat="49.338370453680476" lon="0.4457492354345594"><ele>109.0</ele><time>2026-04-26T14:54:53Z</time></trkpt><trkpt lat="49.33843853212106" lon="0.44572264433904124"><ele>108.85714285714286</ele><time>2026-04-26T14:54:54Z</time></trkpt><trkpt lat="49.33851296748541" lon="0.4457144914987919"><ele>108.71428571428572</ele><time>2026-04-26T14:54:55Z</time></trkpt><trkpt lat="49.33859069552397" lon="0.4457095967528026"><ele>108.57142857142857</ele><time>2026-04-26T14:54:56Z</time></trkpt><trkpt lat="49.338666245140786" lon="0.44571492679820257"><ele>108.42857142857143</ele><time>2026-04-26T14:54:57Z</time></trkpt><trkpt lat="49.33873006998557" lon="0.44574779666454994"><ele>108.28571428571428</ele><time>2026-04-26T14:54:58Z</time></trkpt><trkpt lat="49.33881052075838" lon="0.4457777771659102"><ele>108.14285714285714</ele><time>2026-04-26T14:54:59Z</time></trkpt><trkpt lat="49.338875608372796" lon="0.4457817696531101"><ele>108.0</ele><time>2026-04-26T14:55:00Z</time></trkpt><trkpt lat="49.33893495409241" lon="0.44568119681946017"><ele>108.0</ele><time>2026-04-26T14:55:04Z</time></trkpt><trkpt lat="49.33904028116639" lon="0.4456566187502033"><ele>108.0</ele><time>2026-04-26T14:55:05Z</time></trkpt><trkpt lat="49.33911918418285" lon="0.44562315826121196"><ele>108.0</ele><time>2026-04-26T14:55:06Z</time></trkpt><trkpt lat="49.33927601784916" lon="0.4455345232269645"><ele>108.0</ele><time>2026-04-26T14:55:07Z</time></trkpt><trkpt lat="49.33933349340679" lon="0.44565029734778594"><ele>108.0</ele><time>2026-04-26T14:55:09Z</time></trkpt><trkpt lat="49.33937520523085" lon="0.4457279712804734"><ele>108.0</ele><time>2026-04-26T14:55:10Z</time></trkpt><trkpt lat="49.33944485489702" lon="0.4458320193736004"><ele>108.0</ele><time>2026-04-26T14:55:11Z</time></trkpt><trkpt lat="49.33951804602347" lon="0.44591577589158016"><ele>108.0</ele><time>2026-04-26T14:55:12Z</time></trkpt><trkpt lat="49.3395875668044" lon="0.44602251083496003"><ele>108.0</ele><time>2026-04-26T14:55:14Z</time></trkpt><trkpt lat="49.33959883561344" lon="0.4461524647612756"><ele>108.0</ele><time>2026-04-26T14:55:19Z</time></trkpt><trkpt lat="49.33954835493291" lon="0.44622154949143605"><ele>108.0</ele><time>2026-04-26T14:55:27Z</time></trkpt><trkpt lat="49.33950114572033" lon="0.4461430352074008"><ele>108.0</ele><time>2026-04-26T14:56:47Z</time></trkpt><trkpt lat="49.33943547848048" lon="0.4459978783527544"><ele>108.0</ele><time>2026-04-26T14:56:52Z</time></trkpt><trkpt lat="49.339392429175476" lon="0.44586380175768037"><ele>108.0</ele><time>2026-04-26T14:56:55Z</time></trkpt><trkpt lat="49.33935075126744" lon="0.4457493733456237"><ele>108.0</ele><time>2026-04-26T14:56:59Z</time></trkpt><trkpt lat="49.339311979488414" lon="0.44566248481432413"><ele>108.0</ele><time>2026-04-26T14:57:01Z</time></trkpt><trkpt lat="49.339241757655046" lon="0.4456441042258735"><ele>108.0</ele><time>2026-04-26T14:57:05Z</time></trkpt><trkpt lat="49.339176712129074" lon="0.44571067608538795"><ele>108.0</ele><time>2026-04-26T14:57:07Z</time></trkpt><trkpt lat="49.3389654063709" lon="0.4458152408324295"><ele>108.0</ele><time>2026-04-26T14:57:09Z</time></trkpt><trkpt lat="49.33890120675869" lon="0.445852639775297"><ele>108.0</ele><time>2026-04-26T14:57:10Z</time></trkpt><trkpt lat="49.338812919231124" lon="0.4458475012900568"><ele>108.5</ele><time>2026-04-26T14:57:12Z</time></trkpt><trkpt lat="49.338740491347" lon="0.4458175815016706"><ele>109.0</ele><time>2026-04-26T14:57:13Z</time></trkpt><trkpt lat="49.33867123220184" lon="0.44578837192193865"><ele>109.5</ele><time>2026-04-26T14:57:14Z</time></trkpt><trkpt lat="49.3385860530058" lon="0.44576057026401666"><ele>110.0</ele><time>2026-04-26T14:57:15Z</time></trkpt><trkpt lat="49.33848709416226" lon="0.44573116420856057"><ele>110.5</ele><time>2026-04-26T14:57:16Z</time></trkpt><trkpt lat="49.338421559924484" lon="0.44573150709201775"><ele>111.0</ele><time>2026-04-26T14:57:17Z</time></trkpt><trkpt lat="49.33832661993887" lon="0.4458111555375677"><ele>111.0</ele><time>2026-04-26T14:57:19Z</time></trkpt><trkpt lat="49.3382609899587" lon="0.44582226384074136"><ele>111.0</ele><time>2026-04-26T14:57:20Z</time></trkpt><trkpt lat="49.33816471281657" lon="0.44582152414250287"><ele>111.0</ele><time>2026-04-26T14:57:21Z</time></trkpt><trkpt lat="49.33804433087695" lon="0.44582593976505924"><ele>111.0</ele><time>2026-04-26T14:57:22Z</time></trkpt><trkpt lat="49.33793231142609" lon="0.44582360702250984"><ele>111.0</ele><time>2026-04-26T14:57:23Z</time></trkpt><trkpt lat="49.33783693345251" lon="0.4458311948205464"><ele>110.6</ele><time>2026-04-26T14:57:24Z</time></trkpt><trkpt lat="49.337775493028175" lon="0.44585226419098245"><ele>110.19999999999999</ele><time>2026-04-26T14:57:28Z</time></trkpt><trkpt lat="49.33775376762037" lon="0.4459940756675649"><ele>109.80000000000001</ele><time>2026-04-26T14:57:30Z</time></trkpt><trkpt lat="49.3376866782333" lon="0.44616249356022536"><ele>109.4</ele><time>2026-04-26T14:57:32Z</time></trkpt><trkpt lat="49.33762923974852" lon="0.4462775189023325"><ele>109.0</ele><time>2026-04-26T14:57:33Z</time></trkpt><trkpt lat="49.33758773259557" lon="0.446413989778448"><ele>110.66666666666667</ele><time>2026-04-26T14:57:34Z</time></trkpt><trkpt lat="49.337555028778944" lon="0.4465198408165288"><ele>112.33333333333334</ele><time>2026-04-26T14:57:35Z</time></trkpt><trkpt lat="49.33749148782423" lon="0.4466734413708728"><ele>114.0</ele><time>2026-04-26T14:57:37Z</time></trkpt><trkpt lat="49.33744316709287" lon="0.44675415200242896"><ele>115.66666666666666</ele><time>2026-04-26T14:57:38Z</time></trkpt><trkpt lat="49.337393040254895" lon="0.4468374307888882"><ele>117.33333333333333</ele><time>2026-04-26T14:57:39Z</time></trkpt><trkpt lat="49.33735214336856" lon="0.44695328354604086"><ele>119.0</ele><time>2026-04-26T14:57:40Z</time></trkpt><trkpt lat="49.33732530758188" lon="0.4470633311185256"><ele>118.83333333333333</ele><time>2026-04-26T14:57:41Z</time></trkpt><trkpt lat="49.33728308819913" lon="0.4471913332080738"><ele>118.66666666666666</ele><time>2026-04-26T14:57:42Z</time></trkpt><trkpt lat="49.337238487370314" lon="0.4473219860247368"><ele>118.5</ele><time>2026-04-26T14:57:43Z</time></trkpt><trkpt lat="49.337204350374925" lon="0.44743890300044237"><ele>118.33333333333334</ele><time>2026-04-26T14:57:44Z</time></trkpt><trkpt lat="49.33717585756674" lon="0.4475442557786579"><ele>118.16666666666667</ele><time>2026-04-26T14:57:45Z</time></trkpt><trkpt lat="49.33715526655681" lon="0.44764674952962896"><ele>118.0</ele><time>2026-04-26T14:57:46Z</time></trkpt><trkpt lat="49.337129723724324" lon="0.44774283142244914"><ele>118.00000000000001</ele><time>2026-04-26T14:57:47Z</time></trkpt><trkpt lat="49.3370734604045" lon="0.44788941681590433"><ele>118.0</ele><time>2026-04-26T14:57:49Z</time></trkpt><trkpt lat="49.33699614054235" lon="0.4479885870848885"><ele>118.0</ele><time>2026-04-26T14:57:51Z</time></trkpt><trkpt lat="49.33693851689426" lon="0.448027818434882"><ele>118.0</ele><time>2026-04-26T14:57:52Z</time></trkpt><trkpt lat="49.33686764706905" lon="0.4481300443938201"><ele>118.00000000000001</ele><time>2026-04-26T14:57:54Z</time></trkpt><trkpt lat="49.336855771738726" lon="0.4482285004906909"><ele>118.0</ele><time>2026-04-26T14:57:57Z</time></trkpt><trkpt lat="49.336863333574506" lon="0.44840031090480303"><ele>118.0</ele><time>2026-04-26T14:58:00Z</time></trkpt><trkpt lat="49.336911158983554" lon="0.44830995246881195"><ele>118.00000000000001</ele><time>2026-04-26T14:58:03.999Z</time></trkpt><trkpt lat="49.336871835938055" lon="0.4481653755507457"><ele>118.00000000000001</ele><time>2026-04-26T14:58:05.999Z</time></trkpt><trkpt lat="49.336888683756776" lon="0.44806413839889303"><ele>118.0</ele><time>2026-04-26T14:58:08.999Z</time></trkpt><trkpt lat="49.336925097845544" lon="0.4479660021235186"><ele>118.0</ele><time>2026-04-26T14:58:10.999Z</time></trkpt><trkpt lat="49.337009920845496" lon="0.4477239514248345"><ele>118.00000000000001</ele><time>2026-04-26T14:58:12.999Z</time></trkpt><trkpt lat="49.337043411340275" lon="0.4475857138662972"><ele>118.0</ele><time>2026-04-26T14:58:13.999Z</time></trkpt><trkpt lat="49.33708348736386" lon="0.44743200100836955"><ele>118.0</ele><time>2026-04-26T14:58:14.999Z</time></trkpt><trkpt lat="49.33712104911732" lon="0.4473089856863492"><ele>118.0</ele><time>2026-04-26T14:58:15.999Z</time></trkpt><trkpt lat="49.33716417483865" lon="0.4472062295902131"><ele>118.00000000000001</ele><time>2026-04-26T14:58:16.999Z</time></trkpt><trkpt lat="49.337209747382175" lon="0.447112349274717"><ele>118.0</ele><time>2026-04-26T14:58:17.999Z</time></trkpt><trkpt lat="49.33725941870565" lon="0.4470291839686404"><ele>118.14285714285714</ele><time>2026-04-26T14:58:19.999Z</time></trkpt><trkpt lat="49.337314230190124" lon="0.4469814535423332"><ele>118.28571428571429</ele><time>2026-04-26T14:58:25.001Z</time></trkpt><trkpt lat="49.337372897800854" lon="0.4468858692818756"><ele>118.42857142857143</ele><time>2026-04-26T14:58:28.001Z</time></trkpt><trkpt lat="49.33741061068415" lon="0.4467789752730414"><ele>118.57142857142857</ele><time>2026-04-26T14:58:31.001Z</time></trkpt><trkpt lat="49.33745559681202" lon="0.4466932265154891"><ele>118.71428571428572</ele><time>2026-04-26T14:58:35.001Z</time></trkpt><trkpt lat="49.3374037593177" lon="0.44675596177053767"><ele>118.85714285714286</ele><time>2026-04-26T14:58:38.001Z</time></trkpt><trkpt lat="49.33739592000586" lon="0.44685293594747383"><ele>119.0</ele><time>2026-04-26T14:58:41Z</time></trkpt><trkpt lat="49.337372578674405" lon="0.4469474230713249"><ele>119.0</ele><time>2026-04-26T14:58:43Z</time></trkpt><trkpt lat="49.337335815298204" lon="0.44704503270051116"><ele>119.0</ele><time>2026-04-26T14:58:45Z</time></trkpt><trkpt lat="49.337296655151974" lon="0.4471652970374887"><ele>119.0</ele><time>2026-04-26T14:58:47Z</time></trkpt><trkpt lat="49.337285884732054" lon="0.44726048701292587"><ele>119.0</ele><time>2026-04-26T14:58:49Z</time></trkpt><trkpt lat="49.337231437249734" lon="0.44741183773496557"><ele>119.0</ele><time>2026-04-26T14:58:52Z</time></trkpt><trkpt lat="49.33719585907164" lon="0.4475797213227726"><ele>118.83333333333333</ele><time>2026-04-26T14:58:54Z</time></trkpt><trkpt lat="49.33717036146786" lon="0.4476762833850463"><ele>118.66666666666666</ele><time>2026-04-26T14:58:55Z</time></trkpt><trkpt lat="49.33709416265362" lon="0.44781366411913825"><ele>118.5</ele><time>2026-04-26T14:58:57Z</time></trkpt><trkpt lat="49.337045150506654" lon="0.4478960173541508"><ele>118.33333333333334</ele><time>2026-04-26T14:58:59Z</time></trkpt><trkpt lat="49.33698894340094" lon="0.4479724863445914"><ele>118.16666666666667</ele><time>2026-04-26T14:59:01Z</time></trkpt><trkpt lat="49.33694385071661" lon="0.44806817994991954"><ele>118.0</ele><time>2026-04-26T14:59:03Z</time></trkpt><trkpt lat="49.33692755965486" lon="0.44816197646268136"><ele>118.0</ele><time>2026-04-26T14:59:04Z</time></trkpt><trkpt lat="49.3368969220001" lon="0.44830025257993944"><ele>118.00000000000001</ele><time>2026-04-26T14:59:06Z</time></trkpt><trkpt lat="49.33690437262429" lon="0.44840933328525134"><ele>118.00000000000001</ele><time>2026-04-26T14:59:09Z</time></trkpt><trkpt lat="49.336914177219505" lon="0.4482326745574618"><ele>118.0</ele><time>2026-04-26T15:02:07.999Z</time></trkpt><trkpt lat="49.33692833572385" lon="0.448074126134451"><ele>118.0</ele><time>2026-04-26T15:02:09.999Z</time></trkpt><trkpt lat="49.33699884727307" lon="0.44793497747277217"><ele>118.0</ele><time>2026-04-26T15:02:11.999Z</time></trkpt><trkpt lat="49.33706056142083" lon="0.44783382055588855"><ele>118.0</ele><time>2026-04-26T15:02:13.999Z</time></trkpt><trkpt lat="49.337053166135775" lon="0.4477000377961801"><ele>118.0</ele><time>2026-04-26T15:02:16.999Z</time></trkpt><trkpt lat="49.33725131164815" lon="0.44720484409600336"><ele>118.16666666666667</ele><time>2026-04-26T15:02:18.999Z</time></trkpt><trkpt lat="49.337300030210386" lon="0.44707359966605337"><ele>118.33333333333334</ele><time>2026-04-26T15:02:19.999Z</time></trkpt><trkpt lat="49.33733658042835" lon="0.44695636579507386"><ele>118.5</ele><time>2026-04-26T15:02:20.999Z</time></trkpt><trkpt lat="49.33736353602682" lon="0.446861194156937"><ele>118.66666666666666</ele><time>2026-04-26T15:02:21.999Z</time></trkpt><trkpt lat="49.337401165921705" lon="0.4467677663141064"><ele>118.83333333333333</ele><time>2026-04-26T15:02:22.999Z</time></trkpt><trkpt lat="49.337433071948695" lon="0.4466698410197924"><ele>119.0</ele><time>2026-04-26T15:02:23.999Z</time></trkpt><trkpt lat="49.337476051535425" lon="0.44652854375614476"><ele>118.99999999999999</ele><time>2026-04-26T15:02:25.999Z</time></trkpt><trkpt lat="49.337535375874545" lon="0.44645560297157"><ele>119.0</ele><time>2026-04-26T15:02:27.999Z</time></trkpt><trkpt lat="49.33758191201065" lon="0.4463324781816609"><ele>119.0</ele><time>2026-04-26T15:02:29.998Z</time></trkpt><trkpt lat="49.33760432257634" lon="0.44623929120128747"><ele>119.0</ele><time>2026-04-26T15:02:30.998Z</time></trkpt><trkpt lat="49.33763157395046" lon="0.4461484476090203"><ele>118.99999999999999</ele><time>2026-04-26T15:02:31.998Z</time></trkpt><trkpt lat="49.33765684525746" lon="0.4460495760433112"><ele>119.0</ele><time>2026-04-26T15:02:32.998Z</time></trkpt><trkpt lat="49.3377214376916" lon="0.44595508064060746"><ele>117.4</ele><time>2026-04-26T15:02:33.999Z</time></trkpt><trkpt lat="49.337765816890695" lon="0.44586749708387635"><ele>115.80000000000001</ele><time>2026-04-26T15:02:34.999Z</time></trkpt><trkpt lat="49.33778225508056" lon="0.44576277564706573"><ele>114.19999999999999</ele><time>2026-04-26T15:02:35.999Z</time></trkpt><trkpt lat="49.337874440917176" lon="0.4456830307296247"><ele>112.6</ele><time>2026-04-26T15:02:37.999Z</time></trkpt><trkpt lat="49.337944384203645" lon="0.4457028972851844"><ele>111.0</ele><time>2026-04-26T15:02:39.999Z</time></trkpt><trkpt lat="49.33807817694429" lon="0.4457510553715561"><ele>111.0</ele><time>2026-04-26T15:02:44.999Z</time></trkpt><trkpt lat="49.33815377174669" lon="0.44572600687111097"><ele>111.0</ele><time>2026-04-26T15:02:45.999Z</time></trkpt><trkpt lat="49.33822116045415" lon="0.44568666783599"><ele>111.0</ele><time>2026-04-26T15:02:46.999Z</time></trkpt><trkpt lat="49.33831097179821" lon="0.44567308133875366"><ele>111.0</ele><time>2026-04-26T15:02:47.999Z</time></trkpt><trkpt lat="49.338390574990115" lon="0.44566086193291093"><ele>111.0</ele><time>2026-04-26T15:02:48.999Z</time></trkpt><trkpt lat="49.33853218765784" lon="0.44568718513614974"><ele>111.0</ele><time>2026-04-26T15:02:50.999Z</time></trkpt><trkpt lat="49.33869617912213" lon="0.4456988170791348"><ele>111.0</ele><time>2026-04-26T15:02:52.999Z</time></trkpt><trkpt lat="49.33879558401148" lon="0.44575329865432506"><ele>111.0</ele><time>2026-04-26T15:02:54.999Z</time></trkpt><trkpt lat="49.33887639748282" lon="0.44575318186172114"><ele>111.0</ele><time>2026-04-26T15:02:55.999Z</time></trkpt><trkpt lat="49.33897724584322" lon="0.44569391789406093"><ele>110.5</ele><time>2026-04-26T15:02:57.999Z</time></trkpt><trkpt lat="49.3390685807923" lon="0.4456144948903394"><ele>110.0</ele><time>2026-04-26T15:02:59.999Z</time></trkpt><trkpt lat="49.33915283927025" lon="0.4455578810750106"><ele>109.5</ele><time>2026-04-26T15:03:02.999Z</time></trkpt><trkpt lat="49.33921646247162" lon="0.4455798062360242"><ele>109.0</ele><time>2026-04-26T15:03:03.999Z</time></trkpt><trkpt lat="49.339287395055024" lon="0.4456145098320412"><ele>108.5</ele><time>2026-04-26T15:03:04.999Z</time></trkpt><trkpt lat="49.33932061518069" lon="0.4457105139414416"><ele>108.0</ele><time>2026-04-26T15:03:05.999Z</time></trkpt><trkpt lat="49.33935663420061" lon="0.4458057484185097"><ele>108.0</ele><time>2026-04-26T15:03:06.999Z</time></trkpt><trkpt lat="49.33945991853311" lon="0.44592856411282505"><ele>108.0</ele><time>2026-04-26T15:03:08.999Z</time></trkpt><trkpt lat="49.33950998913011" lon="0.4461055849567861"><ele>108.0</ele><time>2026-04-26T15:03:10.999Z</time></trkpt><trkpt lat="49.33954893974348" lon="0.44589540404414246"><ele>108.0</ele><time>2026-04-26T15:03:15.999Z</time></trkpt><trkpt lat="49.33954088532893" lon="0.44572620096688875"><ele>102.66666666666667</ele><time>2026-04-26T15:03:16.999Z</time></trkpt><trkpt lat="49.339513873852866" lon="0.44545244132255785"><ele>97.33333333333334</ele><time>2026-04-26T15:03:17.999Z</time></trkpt><trkpt lat="49.339549564438485" lon="0.44515409985020815"><ele>92.0</ele><time>2026-04-26T15:03:18.999Z</time></trkpt><trkpt lat="49.339539361080845" lon="0.44485979330701503"><ele>86.66666666666667</ele><time>2026-04-26T15:03:19.999Z</time></trkpt><trkpt lat="49.3395295547491" lon="0.4446056236545341"><ele>81.33333333333333</ele><time>2026-04-26T15:03:20.999Z</time></trkpt><trkpt lat="49.33951824855914" lon="0.44436874439910345"><ele>76.0</ele><time>2026-04-26T15:03:21.999Z</time></trkpt><trkpt lat="49.339503104387" lon="0.4441194441870131"><ele>76.0</ele><time>2026-04-26T15:03:22.999Z</time></trkpt><trkpt lat="49.339484008739426" lon="0.44388218695166454"><ele>76.0</ele><time>2026-04-26T15:03:23.999Z</time></trkpt><trkpt lat="49.33946428905312" lon="0.4436629542803701"><ele>76.0</ele><time>2026-04-26T15:03:24.999Z</time></trkpt><trkpt lat="49.339443515056026" lon="0.44348145806327627"><ele>76.0</ele><time>2026-04-26T15:03:25.999Z</time></trkpt><trkpt lat="49.339421320588464" lon="0.4433143043430545"><ele>74.5</ele><time>2026-04-26T15:03:26.999Z</time></trkpt><trkpt lat="49.339398688150276" lon="0.443147572391318"><ele>73.0</ele><time>2026-04-26T15:03:27.999Z</time></trkpt><trkpt lat="49.33936382423407" lon="0.4429864089889114"><ele>71.5</ele><time>2026-04-26T15:03:28.999Z</time></trkpt><trkpt lat="49.339357220819956" lon="0.44286201812895637"><ele>70.0</ele><time>2026-04-26T15:03:29.999Z</time></trkpt><trkpt lat="49.33934074093015" lon="0.44274863526887726"><ele>68.5</ele><time>2026-04-26T15:03:31.999Z</time></trkpt><trkpt lat="49.33934861977402" lon="0.44265017586542943"><ele>67.0</ele><time>2026-04-26T15:03:33.999Z</time></trkpt><trkpt lat="49.33932627047183" lon="0.4425297278009556"><ele>64.5</ele><time>2026-04-26T15:03:39.998Z</time></trkpt><trkpt lat="49.33931097954993" lon="0.44238800791572047"><ele>62.0</ele><time>2026-04-26T15:03:41.998Z</time></trkpt><trkpt lat="49.33956397519056" lon="0.4422456477623295"><ele>59.5</ele><time>2026-04-26T15:03:42.998Z</time></trkpt><trkpt lat="49.33961992682604" lon="0.4422010961573935"><ele>57.0</ele><time>2026-04-26T15:03:43.998Z</time></trkpt><trkpt lat="49.33970821810012" lon="0.4420981044651868"><ele>56.25</ele><time>2026-04-26T15:03:45.999Z</time></trkpt><trkpt lat="49.33976624231522" lon="0.44203503094474134"><ele>55.5</ele><time>2026-04-26T15:03:46.999Z</time></trkpt><trkpt lat="49.33985233560412" lon="0.44192463143745886"><ele>54.75</ele><time>2026-04-26T15:03:47.999Z</time></trkpt><trkpt lat="49.33997171116126" lon="0.44174466445820254"><ele>54.0</ele><time>2026-04-26T15:03:48.999Z</time></trkpt><trkpt lat="49.340089641108996" lon="0.4415666213729254"><ele>54.0</ele><time>2026-04-26T15:03:49.999Z</time></trkpt><trkpt lat="49.34019862740672" lon="0.44137733492864145"><ele>54.0</ele><time>2026-04-26T15:03:50.999Z</time></trkpt><trkpt lat="49.340308699428576" lon="0.44116798990089856"><ele>54.0</ele><time>2026-04-26T15:03:51.999Z</time></trkpt><trkpt lat="49.3403997834729" lon="0.44097952928853057"><ele>52.75</ele><time>2026-04-26T15:03:52.999Z</time></trkpt><trkpt lat="49.34049085029298" lon="0.4408170668506453"><ele>51.5</ele><time>2026-04-26T15:03:53.999Z</time></trkpt><trkpt lat="49.340576121409384" lon="0.440682084240747"><ele>50.25</ele><time>2026-04-26T15:03:54.999Z</time></trkpt><trkpt lat="49.34065117232368" lon="0.4405542765354947"><ele>49.0</ele><time>2026-04-26T15:03:55.999Z</time></trkpt><trkpt lat="49.340751086016425" lon="0.4404372708120129"><ele>49.0</ele><time>2026-04-26T15:03:56.999Z</time></trkpt><trkpt lat="49.34084061770462" lon="0.4402841385050953"><ele>49.0</ele><time>2026-04-26T15:03:57.999Z</time></trkpt><trkpt lat="49.34095176234472" lon="0.4401664281935059"><ele>49.0</ele><time>2026-04-26T15:03:58.999Z</time></trkpt><trkpt lat="49.34104917602963" lon="0.4400090606791254"><ele>49.0</ele><time>2026-04-26T15:03:59.999Z</time></trkpt><trkpt lat="49.34113683055596" lon="0.4398778297236302"><ele>49.0</ele><time>2026-04-26T15:04:00.999Z</time></trkpt><trkpt lat="49.341205830854065" lon="0.43976189452583503"><ele>49.0</ele><time>2026-04-26T15:04:01.999Z</time></trkpt><trkpt lat="49.34126101399123" lon="0.43964149887640364"><ele>49.0</ele><time>2026-04-26T15:04:02.999Z</time></trkpt><trkpt lat="49.34131442213451" lon="0.4395153020562923"><ele>49.0</ele><time>2026-04-26T15:04:03.999Z</time></trkpt><trkpt lat="49.341354168126195" lon="0.4393831267191819"><ele>49.0</ele><time>2026-04-26T15:04:04.999Z</time></trkpt><trkpt lat="49.34140732087205" lon="0.43925099941989215"><ele>49.25</ele><time>2026-04-26T15:04:05.999Z</time></trkpt><trkpt lat="49.34146398031991" lon="0.43908287098587034"><ele>49.5</ele><time>2026-04-26T15:04:06.999Z</time></trkpt><trkpt lat="49.34151340998164" lon="0.43891196937328614"><ele>49.75</ele><time>2026-04-26T15:04:07.999Z</time></trkpt><trkpt lat="49.34157253737379" lon="0.43875932854014"><ele>50.0</ele><time>2026-04-26T15:04:08.999Z</time></trkpt><trkpt lat="49.34163932514046" lon="0.4386202073987581"><ele>50.0</ele><time>2026-04-26T15:04:09.999Z</time></trkpt><trkpt lat="49.34169854950608" lon="0.43849667561563815"><ele>50.0</ele><time>2026-04-26T15:04:10.999Z</time></trkpt><trkpt lat="49.341812194552425" lon="0.4383962129044599"><ele>50.0</ele><time>2026-04-26T15:04:11.999Z</time></trkpt><trkpt lat="49.341916054886525" lon="0.43828839496713656"><ele>50.0</ele><time>2026-04-26T15:04:12.999Z</time></trkpt><trkpt lat="49.341987885869145" lon="0.4381664152309833"><ele>50.0</ele><time>2026-04-26T15:04:13.999Z</time></trkpt><trkpt lat="49.34207954443807" lon="0.4380300303206437"><ele>50.0</ele><time>2026-04-26T15:04:14.999Z</time></trkpt><trkpt lat="49.34217832413376" lon="0.4378562905766584"><ele>50.0</ele><time>2026-04-26T15:04:15.999Z</time></trkpt><trkpt lat="49.34226607248108" lon="0.4376791752181569"><ele>50.0</ele><time>2026-04-26T15:04:16.999Z</time></trkpt><trkpt lat="49.34234615222181" lon="0.4375306482137637"><ele>49.833333333333336</ele><time>2026-04-26T15:04:17.999Z</time></trkpt><trkpt lat="49.342395307602715" lon="0.4373880785076159"><ele>49.66666666666667</ele><time>2026-04-26T15:04:18.999Z</time></trkpt><trkpt lat="49.34240343816643" lon="0.4372541794654416"><ele>49.5</ele><time>2026-04-26T15:04:19.999Z</time></trkpt><trkpt lat="49.34243066548436" lon="0.4371433094018552"><ele>49.33333333333333</ele><time>2026-04-26T15:04:20.999Z</time></trkpt><trkpt lat="49.34245221857496" lon="0.43704558648347486"><ele>49.166666666666664</ele><time>2026-04-26T15:04:21.999Z</time></trkpt><trkpt lat="49.342477517377" lon="0.4369475687283436"><ele>49.0</ele><time>2026-04-26T15:04:22.999Z</time></trkpt><trkpt lat="49.34248467893618" lon="0.43684901987516545"><ele>49.0</ele><time>2026-04-26T15:04:23.999Z</time></trkpt><trkpt lat="49.34252709655875" lon="0.4367661506376091"><ele>49.0</ele><time>2026-04-26T15:04:24.999Z</time></trkpt><trkpt lat="49.342597860142035" lon="0.4366550757584179"><ele>49.0</ele><time>2026-04-26T15:04:25.999Z</time></trkpt><trkpt lat="49.34263570332127" lon="0.4365099509204326"><ele>49.0</ele><time>2026-04-26T15:04:26.999Z</time></trkpt><trkpt lat="49.34264930755794" lon="0.43635704718940094"><ele>49.0</ele><time>2026-04-26T15:04:27.999Z</time></trkpt><trkpt lat="49.34267278966327" lon="0.4362377752577161"><ele>50.0</ele><time>2026-04-26T15:04:28.999Z</time></trkpt><trkpt lat="49.34273720264258" lon="0.4361407485432129"><ele>51.0</ele><time>2026-04-26T15:04:29.999Z</time></trkpt><trkpt lat="49.342771441413056" lon="0.43604720431021"><ele>52.00000000000001</ele><time>2026-04-26T15:04:30.999Z</time></trkpt><trkpt lat="49.34286372009139" lon="0.43592486718234763"><ele>53.0</ele><time>2026-04-26T15:04:32.999Z</time></trkpt><trkpt lat="49.34298259884597" lon="0.4358384479591982"><ele>54.0</ele><time>2026-04-26T15:04:34.999Z</time></trkpt><trkpt lat="49.3430886529104" lon="0.43576003514065215"><ele>54.0</ele><time>2026-04-26T15:04:36.999Z</time></trkpt><trkpt lat="49.34314744156074" lon="0.4357243728290266"><ele>54.0</ele><time>2026-04-26T15:04:37.999Z</time></trkpt><trkpt lat="49.343210104969266" lon="0.43570711213535285"><ele>54.0</ele><time>2026-04-26T15:04:38.999Z</time></trkpt><trkpt lat="49.34331460013409" lon="0.43565176777619785"><ele>54.0</ele><time>2026-04-26T15:04:41Z</time></trkpt><trkpt lat="49.34341370393131" lon="0.435577861614062"><ele>54.0</ele><time>2026-04-26T15:04:43Z</time></trkpt><trkpt lat="49.343475688127015" lon="0.4354697054054096"><ele>54.0</ele><time>2026-04-26T15:04:45Z</time></trkpt><trkpt lat="49.343552267552454" lon="0.43536323472033717"><ele>54.0</ele><time>2026-04-26T15:04:47Z</time></trkpt><trkpt lat="49.34360234864574" lon="0.435253378684677"><ele>54.0</ele><time>2026-04-26T15:04:49Z</time></trkpt><trkpt lat="49.3436786772092" lon="0.43529108762669616"><ele>54.0</ele><time>2026-04-26T15:04:53Z</time></trkpt><trkpt lat="49.3437273659345" lon="0.4353644868927129"><ele>54.0</ele><time>2026-04-26T15:04:55Z</time></trkpt><trkpt lat="49.34377488129577" lon="0.43547442540389936"><ele>54.0</ele><time>2026-04-26T15:05:16Z</time></trkpt><trkpt lat="49.34384069213308" lon="0.4355938760498984"><ele>54.0</ele><time>2026-04-26T15:05:18Z</time></trkpt><trkpt lat="49.34389476308065" lon="0.43567545569419497"><ele>58.75</ele><time>2026-04-26T15:05:19Z</time></trkpt><trkpt lat="49.34393708288164" lon="0.4357796849002388"><ele>63.5</ele><time>2026-04-26T15:05:20Z</time></trkpt><trkpt lat="49.34399354004864" lon="0.4359542446559097"><ele>68.25</ele><time>2026-04-26T15:05:21Z</time></trkpt><trkpt lat="49.34405467886184" lon="0.4361485584012695"><ele>73.0</ele><time>2026-04-26T15:05:22Z</time></trkpt><trkpt lat="49.34412975644408" lon="0.4363612990525929"><ele>74.4</ele><time>2026-04-26T15:05:23Z</time></trkpt><trkpt lat="49.344188060945434" lon="0.43655181190871234"><ele>75.8</ele><time>2026-04-26T15:05:24Z</time></trkpt><trkpt lat="49.34422811648688" lon="0.4366934861267894"><ele>77.2</ele><time>2026-04-26T15:05:25Z</time></trkpt><trkpt lat="49.3442586604974" lon="0.43678190199929495"><ele>78.6</ele><time>2026-04-26T15:05:26Z</time></trkpt><trkpt lat="49.344312631105055" lon="0.4368924188433957"><ele>80.0</ele><time>2026-04-26T15:05:28Z</time></trkpt><trkpt lat="49.344381061576705" lon="0.43702171495789377"><ele>80.0</ele><time>2026-04-26T15:05:30Z</time></trkpt><trkpt lat="49.344388069601024" lon="0.4371250563579962"><ele>80.0</ele><time>2026-04-26T15:05:32Z</time></trkpt><trkpt lat="49.34438487288837" lon="0.43729493634792027"><ele>80.0</ele><time>2026-04-26T15:05:34Z</time></trkpt><trkpt lat="49.34437875365789" lon="0.43740281925087726"><ele>80.0</ele><time>2026-04-26T15:05:35Z</time></trkpt><trkpt lat="49.344368785950635" lon="0.437507457893657"><ele>80.0</ele><time>2026-04-26T15:05:36Z</time></trkpt><trkpt lat="49.34436240363203" lon="0.43761453712434456"><ele>80.0</ele><time>2026-04-26T15:05:37Z</time></trkpt><trkpt lat="49.3443635256059" lon="0.43781115098883155"><ele>81.0</ele><time>2026-04-26T15:05:39Z</time></trkpt><trkpt lat="49.34437339061663" lon="0.43793613746409654"><ele>82.0</ele><time>2026-04-26T15:05:40Z</time></trkpt><trkpt lat="49.344366590244256" lon="0.43806455556939744"><ele>83.0</ele><time>2026-04-26T15:05:41Z</time></trkpt><trkpt lat="49.34436678173907" lon="0.43825960230612354"><ele>84.0</ele><time>2026-04-26T15:05:43Z</time></trkpt><trkpt lat="49.344367017898826" lon="0.4383611630328048"><ele>85.0</ele><time>2026-04-26T15:05:44Z</time></trkpt><trkpt lat="49.34435025980128" lon="0.4384632880936145"><ele>86.0</ele><time>2026-04-26T15:05:45Z</time></trkpt><trkpt lat="49.34433984782607" lon="0.4386045285561274"><ele>87.16666666666667</ele><time>2026-04-26T15:05:46Z</time></trkpt><trkpt lat="49.34431469876919" lon="0.4387308162401839"><ele>88.33333333333334</ele><time>2026-04-26T15:05:47Z</time></trkpt><trkpt lat="49.344308201024624" lon="0.4388310556568015"><ele>89.5</ele><time>2026-04-26T15:05:48Z</time></trkpt><trkpt lat="49.34427845629629" lon="0.43893754299016685"><ele>90.66666666666667</ele><time>2026-04-26T15:05:50Z</time></trkpt><trkpt lat="49.34425799475116" lon="0.4390817777651647"><ele>91.83333333333333</ele><time>2026-04-26T15:05:52Z</time></trkpt><trkpt lat="49.344260563622036" lon="0.4392054445538745"><ele>93.0</ele><time>2026-04-26T15:05:53.999Z</time></trkpt><trkpt lat="49.344262413269426" lon="0.43930268494358404"><ele>93.83333333333333</ele><time>2026-04-26T15:05:54.999Z</time></trkpt><trkpt lat="49.34427898654425" lon="0.43941302502183543"><ele>94.66666666666666</ele><time>2026-04-26T15:05:55.999Z</time></trkpt><trkpt lat="49.34429298440482" lon="0.4395632253976735"><ele>95.5</ele><time>2026-04-26T15:05:56.999Z</time></trkpt><trkpt lat="49.344302040576174" lon="0.4396927442926369"><ele>96.33333333333333</ele><time>2026-04-26T15:05:57.999Z</time></trkpt><trkpt lat="49.34429740839674" lon="0.43982247466293983"><ele>97.16666666666666</ele><time>2026-04-26T15:05:58.999Z</time></trkpt><trkpt lat="49.3442788802175" lon="0.4399658446113025"><ele>98.0</ele><time>2026-04-26T15:05:59.999Z</time></trkpt><trkpt lat="49.34424268012019" lon="0.4401069654720874"><ele>99.0</ele><time>2026-04-26T15:06:00.999Z</time></trkpt><trkpt lat="49.344219979427294" lon="0.44021145632628844"><ele>100.0</ele><time>2026-04-26T15:06:01.999Z</time></trkpt><trkpt lat="49.34417856750968" lon="0.44034443649144867"><ele>101.0</ele><time>2026-04-26T15:06:03.999Z</time></trkpt><trkpt lat="49.34412965097305" lon="0.4404172800803796"><ele>102.0</ele><time>2026-04-26T15:06:05.999Z</time></trkpt><trkpt lat="49.344168374450994" lon="0.4405090512014136"><ele>103.0</ele><time>2026-04-26T15:06:08.999Z</time></trkpt><trkpt lat="49.34411367024144" lon="0.44055892669824237"><ele>104.0</ele><time>2026-04-26T15:06:30.999Z</time></trkpt><trkpt lat="49.34410299665708" lon="0.44044162779700285"><ele>105.0</ele><time>2026-04-26T15:06:56Z</time></trkpt><trkpt lat="49.34411665548073" lon="0.44031475608424736"><ele>105.0</ele><time>2026-04-26T15:06:58Z</time></trkpt><trkpt lat="49.34415536928305" lon="0.44022553261373654"><ele>105.0</ele><time>2026-04-26T15:06:59Z</time></trkpt><trkpt lat="49.34418359608302" lon="0.44013900919815085"><ele>105.0</ele><time>2026-04-26T15:07:00Z</time></trkpt><trkpt lat="49.34419342157968" lon="0.4399476919740523"><ele>105.0</ele><time>2026-04-26T15:07:02Z</time></trkpt><trkpt lat="49.34418726640058" lon="0.4397866000782425"><ele>105.0</ele><time>2026-04-26T15:07:04Z</time></trkpt><trkpt lat="49.344175797183674" lon="0.43968384097529195"><ele>105.0</ele><time>2026-04-26T15:07:05Z</time></trkpt><trkpt lat="49.34416082933027" lon="0.43948931239091654"><ele>103.6</ele><time>2026-04-26T15:07:07Z</time></trkpt><trkpt lat="49.34419771812842" lon="0.4392949296286416"><ele>102.2</ele><time>2026-04-26T15:07:09Z</time></trkpt><trkpt lat="49.3442154268672" lon="0.4391115581698533"><ele>100.80000000000001</ele><time>2026-04-26T15:07:11Z</time></trkpt><trkpt lat="49.34421891033421" lon="0.4390019030183003"><ele>99.4</ele><time>2026-04-26T15:07:12Z</time></trkpt><trkpt lat="49.34421028628171" lon="0.43886421980502954"><ele>98.0</ele><time>2026-04-26T15:07:13Z</time></trkpt><trkpt lat="49.344207996239874" lon="0.4387556050395626"><ele>97.28571428571429</ele><time>2026-04-26T15:07:14Z</time></trkpt><trkpt lat="49.34421175596437" lon="0.4386297646105293"><ele>96.57142857142857</ele><time>2026-04-26T15:07:15Z</time></trkpt><trkpt lat="49.34420053058524" lon="0.4385187242284466"><ele>95.85714285714286</ele><time>2026-04-26T15:07:16Z</time></trkpt><trkpt lat="49.34421559496503" lon="0.4384126051561674"><ele>95.14285714285714</ele><time>2026-04-26T15:07:17Z</time></trkpt><trkpt lat="49.34423485708251" lon="0.438304322799674"><ele>94.42857142857143</ele><time>2026-04-26T15:07:18Z</time></trkpt><trkpt lat="49.34422360560646" lon="0.4381890255525475"><ele>93.71428571428572</ele><time>2026-04-26T15:07:19Z</time></trkpt><trkpt lat="49.34423822615542" lon="0.4380824745661681"><ele>93.0</ele><time>2026-04-26T15:07:20Z</time></trkpt><trkpt lat="49.344236332899094" lon="0.43796425264767047"><ele>91.60000000000001</ele><time>2026-04-26T15:07:21Z</time></trkpt><trkpt lat="49.34424382091249" lon="0.43783303735912243"><ele>90.2</ele><time>2026-04-26T15:07:22Z</time></trkpt><trkpt lat="49.34429361944433" lon="0.4376919831910351"><ele>88.8</ele><time>2026-04-26T15:07:23Z</time></trkpt><trkpt lat="49.344298901649445" lon="0.43756406542608733"><ele>87.4</ele><time>2026-04-26T15:07:24Z</time></trkpt><trkpt lat="49.344301314814324" lon="0.4374303105668214"><ele>86.0</ele><time>2026-04-26T15:07:25Z</time></trkpt><trkpt lat="49.34430683754444" lon="0.4372336959368735"><ele>85.0</ele><time>2026-04-26T15:07:27Z</time></trkpt><trkpt lat="49.34430087572971" lon="0.43713287531062883"><ele>84.0</ele><time>2026-04-26T15:07:28Z</time></trkpt><trkpt lat="49.34432913025692" lon="0.43701412541562284"><ele>83.0</ele><time>2026-04-26T15:07:29Z</time></trkpt><trkpt lat="49.34431340469219" lon="0.43687867315200685"><ele>82.0</ele><time>2026-04-26T15:07:30Z</time></trkpt><trkpt lat="49.34428155874897" lon="0.43678809637011196"><ele>81.0</ele><time>2026-04-26T15:07:31Z</time></trkpt><trkpt lat="49.344208688992694" lon="0.43661094381441196"><ele>80.0</ele><time>2026-04-26T15:07:33Z</time></trkpt><trkpt lat="49.344149969937284" lon="0.43650555401277685"><ele>80.0</ele><time>2026-04-26T15:07:34Z</time></trkpt><trkpt lat="49.344092487741946" lon="0.43642050919240477"><ele>80.0</ele><time>2026-04-26T15:07:35Z</time></trkpt><trkpt lat="49.34404586398119" lon="0.43630129859396827"><ele>80.0</ele><time>2026-04-26T15:07:36Z</time></trkpt><trkpt lat="49.34399326950207" lon="0.4361747730487699"><ele>80.0</ele><time>2026-04-26T15:07:37Z</time></trkpt><trkpt lat="49.343937202785945" lon="0.4360308483878297"><ele>80.0</ele><time>2026-04-26T15:07:38Z</time></trkpt><trkpt lat="49.343900730704995" lon="0.4358809770261809"><ele>74.8</ele><time>2026-04-26T15:07:39Z</time></trkpt><trkpt lat="49.343878513536104" lon="0.4357075344622235"><ele>69.6</ele><time>2026-04-26T15:07:40Z</time></trkpt><trkpt lat="49.34382828333003" lon="0.43555818655270007"><ele>64.4</ele><time>2026-04-26T15:07:41Z</time></trkpt><trkpt lat="49.34377033354019" lon="0.4354280671956265"><ele>59.2</ele><time>2026-04-26T15:07:42Z</time></trkpt><trkpt lat="49.343711307291926" lon="0.4353112434073885"><ele>54.0</ele><time>2026-04-26T15:07:43Z</time></trkpt><trkpt lat="49.34366116136925" lon="0.4352371680512411"><ele>52.800000000000004</ele><time>2026-04-26T15:07:45Z</time></trkpt><trkpt lat="49.34366305817443" lon="0.4351046922727248"><ele>51.60000000000001</ele><time>2026-04-26T15:07:49Z</time></trkpt><trkpt lat="49.34367311067322" lon="0.4350050597259558"><ele>50.4</ele><time>2026-04-26T15:07:50Z</time></trkpt><trkpt lat="49.3437245052335" lon="0.434836258349325"><ele>49.2</ele><time>2026-04-26T15:07:51Z</time></trkpt><trkpt lat="49.343745098980676" lon="0.4346754457518075"><ele>48.0</ele><time>2026-04-26T15:07:52Z</time></trkpt><trkpt lat="49.34374944373853" lon="0.4345065570883668"><ele>48.666666666666664</ele><time>2026-04-26T15:07:53Z</time></trkpt><trkpt lat="49.34376300184002" lon="0.43440282538246555"><ele>49.33333333333333</ele><time>2026-04-26T15:07:54Z</time></trkpt><trkpt lat="49.3437770829067" lon="0.4342727344132115"><ele>50.0</ele><time>2026-04-26T15:07:56Z</time></trkpt><trkpt lat="49.34385771666636" lon="0.43428878177200525"><ele>50.666666666666664</ele><time>2026-04-26T15:07:57Z</time></trkpt><trkpt lat="49.343902616928574" lon="0.4341694104496421"><ele>51.33333333333333</ele><time>2026-04-26T15:08:00Z</time></trkpt><trkpt lat="49.343938847782816" lon="0.43408512476922395"><ele>52.0</ele><time>2026-04-26T15:08:02Z</time></trkpt><trkpt lat="49.34391056846585" lon="0.4339724995856405"><ele>51.99999999999999</ele><time>2026-04-26T15:08:03Z</time></trkpt><trkpt lat="49.34396817366976" lon="0.43387453039781404"><ele>52.0</ele><time>2026-04-26T15:08:05Z</time></trkpt><trkpt lat="49.344055597350724" lon="0.43379304610455904"><ele>52.0</ele><time>2026-04-26T15:08:07Z</time></trkpt><trkpt lat="49.34413247273728" lon="0.4337300830631772"><ele>52.0</ele><time>2026-04-26T15:08:09Z</time></trkpt><trkpt lat="49.3442189149169" lon="0.4336903233937618"><ele>51.99999999999999</ele><time>2026-04-26T15:08:11Z</time></trkpt><trkpt lat="49.344285321855885" lon="0.43367262166265325"><ele>52.0</ele><time>2026-04-26T15:08:12Z</time></trkpt><trkpt lat="49.34439617949573" lon="0.43364478608199275"><ele>49.2</ele><time>2026-04-26T15:08:14Z</time></trkpt><trkpt lat="49.344463759346965" lon="0.4336161786629222"><ele>46.400000000000006</ele><time>2026-04-26T15:08:15Z</time></trkpt><trkpt lat="49.344612476920986" lon="0.4336020967899116"><ele>43.599999999999994</ele><time>2026-04-26T15:08:17Z</time></trkpt><trkpt lat="49.34468092272753" lon="0.43357417913103585"><ele>40.8</ele><time>2026-04-26T15:08:18Z</time></trkpt><trkpt lat="49.344756926104345" lon="0.4335431791483496"><ele>38.0</ele><time>2026-04-26T15:08:19.999Z</time></trkpt><trkpt lat="49.34460908674888" lon="0.43339443023097846"><ele>38.0</ele><time>2026-04-26T15:08:22.999Z</time></trkpt><trkpt lat="49.34449674699753" lon="0.4333928699868975"><ele>38.0</ele><time>2026-04-26T15:08:23.999Z</time></trkpt><trkpt lat="49.3443721493671" lon="0.4333863862480513"><ele>38.0</ele><time>2026-04-26T15:08:24.999Z</time></trkpt><trkpt lat="49.34421915664101" lon="0.43336071317274233"><ele>38.0</ele><time>2026-04-26T15:08:25.999Z</time></trkpt><trkpt lat="49.34406371498705" lon="0.4333408592956814"><ele>38.0</ele><time>2026-04-26T15:08:26.999Z</time></trkpt><trkpt lat="49.34391504410295" lon="0.43329573339325356"><ele>38.0</ele><time>2026-04-26T15:08:27.999Z</time></trkpt><trkpt lat="49.34380540233376" lon="0.43329585841800516"><ele>38.0</ele><time>2026-04-26T15:08:28.999Z</time></trkpt><trkpt lat="49.34374215128867" lon="0.4333460825740092"><ele>38.0</ele><time>2026-04-26T15:08:29.999Z</time></trkpt><trkpt lat="49.34369755366131" lon="0.4334270375911305"><ele>38.0</ele><time>2026-04-26T15:08:31.999Z</time></trkpt><trkpt lat="49.34362713609074" lon="0.4334543185191918"><ele>38.0</ele><time>2026-04-26T15:08:32.999Z</time></trkpt><trkpt lat="49.343523825101556" lon="0.43352347937827723"><ele>38.0</ele><time>2026-04-26T15:08:33.999Z</time></trkpt><trkpt lat="49.343411024555984" lon="0.4336053243365097"><ele>38.0</ele><time>2026-04-26T15:08:34.999Z</time></trkpt><trkpt lat="49.34331866070435" lon="0.4336772059302487"><ele>38.0</ele><time>2026-04-26T15:08:35.999Z</time></trkpt><trkpt lat="49.34324734290259" lon="0.4337493891185059"><ele>38.0</ele><time>2026-04-26T15:08:36.999Z</time></trkpt><trkpt lat="49.34318397105663" lon="0.4338203497865006"><ele>38.0</ele><time>2026-04-26T15:08:37.999Z</time></trkpt><trkpt lat="49.34312856653898" lon="0.43387052642921825"><ele>38.0</ele><time>2026-04-26T15:08:38.999Z</time></trkpt><trkpt lat="49.34301142795728" lon="0.43384233796765986"><ele>38.0</ele><time>2026-04-26T15:08:40.999Z</time></trkpt><trkpt lat="49.342933937342096" lon="0.43380270810805666"><ele>38.0</ele><time>2026-04-26T15:08:41.999Z</time></trkpt><trkpt lat="49.342842670259884" lon="0.4337276082034276"><ele>38.0</ele><time>2026-04-26T15:08:42.999Z</time></trkpt><trkpt lat="49.34275024415365" lon="0.4336237318759346"><ele>38.0</ele><time>2026-04-26T15:08:43.999Z</time></trkpt><trkpt lat="49.34264834341879" lon="0.4335512283689687"><ele>38.0</ele><time>2026-04-26T15:08:44.999Z</time></trkpt><trkpt lat="49.342547040698356" lon="0.4335031152909562"><ele>38.0</ele><time>2026-04-26T15:08:45.999Z</time></trkpt><trkpt lat="49.34247594683273" lon="0.43349019837214536"><ele>38.0</ele><time>2026-04-26T15:08:46.999Z</time></trkpt><trkpt lat="49.342389417633854" lon="0.4334508483943252"><ele>38.0</ele><time>2026-04-26T15:08:47.999Z</time></trkpt><trkpt lat="49.3422863949549" lon="0.4333938167619284"><ele>38.5</ele><time>2026-04-26T15:08:48.999Z</time></trkpt><trkpt lat="49.34219211828764" lon="0.4333364055837932"><ele>39.0</ele><time>2026-04-26T15:08:49.999Z</time></trkpt><trkpt lat="49.34208064683015" lon="0.4332580979757737"><ele>39.5</ele><time>2026-04-26T15:08:50.999Z</time></trkpt><trkpt lat="49.34194824351086" lon="0.43315058626340597"><ele>40.0</ele><time>2026-04-26T15:08:52Z</time></trkpt><trkpt lat="49.3418139594646" lon="0.4330401136455266"><ele>40.25</ele><time>2026-04-26T15:08:53Z</time></trkpt><trkpt lat="49.34168268124746" lon="0.43295611894241337"><ele>40.5</ele><time>2026-04-26T15:08:54Z</time></trkpt><trkpt lat="49.341566444652265" lon="0.4329012928777322"><ele>40.75</ele><time>2026-04-26T15:08:55Z</time></trkpt><trkpt lat="49.34147980241934" lon="0.43283627860565266"><ele>41.0</ele><time>2026-04-26T15:08:56Z</time></trkpt><trkpt lat="49.341398963131695" lon="0.43275024973717896"><ele>42.33333333333333</ele><time>2026-04-26T15:08:57Z</time></trkpt><trkpt lat="49.34128727550845" lon="0.4326672342875053"><ele>43.666666666666664</ele><time>2026-04-26T15:08:58Z</time></trkpt><trkpt lat="49.34114841820007" lon="0.43256101264368774"><ele>45.0</ele><time>2026-04-26T15:08:59Z</time></trkpt><trkpt lat="49.340995292524596" lon="0.4324428986083344"><ele>45.0</ele><time>2026-04-26T15:09:00Z</time></trkpt><trkpt lat="49.340835751202285" lon="0.4323089873724568"><ele>45.0</ele><time>2026-04-26T15:09:01Z</time></trkpt><trkpt lat="49.34069152941057" lon="0.4322116295569394"><ele>45.0</ele><time>2026-04-26T15:09:02Z</time></trkpt><trkpt lat="49.34057804234708" lon="0.4321359114568586"><ele>44.833333333333336</ele><time>2026-04-26T15:09:03Z</time></trkpt><trkpt lat="49.3404798803005" lon="0.43211319853759267"><ele>44.666666666666664</ele><time>2026-04-26T15:09:04Z</time></trkpt><trkpt lat="49.340395684375366" lon="0.4321093149252462"><ele>44.5</ele><time>2026-04-26T15:09:05Z</time></trkpt><trkpt lat="49.340328060199866" lon="0.43212728688159"><ele>44.33333333333333</ele><time>2026-04-26T15:09:06Z</time></trkpt><trkpt lat="49.34025534963046" lon="0.4321489418047475"><ele>44.166666666666664</ele><time>2026-04-26T15:09:07Z</time></trkpt><trkpt lat="49.34027201410624" lon="0.4319957805766004"><ele>44.0</ele><time>2026-04-26T15:09:11Z</time></trkpt><trkpt lat="49.34029283968144" lon="0.43183411281193035"><ele>44.0</ele><time>2026-04-26T15:09:12Z</time></trkpt><trkpt lat="49.34033413945468" lon="0.4317009893829615"><ele>44.0</ele><time>2026-04-26T15:09:13Z</time></trkpt><trkpt lat="49.34036166914723" lon="0.43156412323696197"><ele>44.0</ele><time>2026-04-26T15:09:14Z</time></trkpt><trkpt lat="49.34038281217636" lon="0.43141098810381157"><ele>44.0</ele><time>2026-04-26T15:09:15Z</time></trkpt><trkpt lat="49.34043343300352" lon="0.4312675436106001"><ele>44.0</ele><time>2026-04-26T15:09:16Z</time></trkpt><trkpt lat="49.34045326514384" lon="0.43110593334708036"><ele>43.6</ele><time>2026-04-26T15:09:17Z</time></trkpt><trkpt lat="49.3404853369993" lon="0.4309238329117487"><ele>43.2</ele><time>2026-04-26T15:09:18Z</time></trkpt><trkpt lat="49.34053771535974" lon="0.4307681447740827"><ele>42.800000000000004</ele><time>2026-04-26T15:09:19Z</time></trkpt><trkpt lat="49.340596026150884" lon="0.4306467104837939"><ele>42.400000000000006</ele><time>2026-04-26T15:09:20Z</time></trkpt><trkpt lat="49.340666863881914" lon="0.4305639367315564"><ele>42.0</ele><time>2026-04-26T15:09:21Z</time></trkpt><trkpt lat="49.340774034500484" lon="0.43055105624399487"><ele>42.0</ele><time>2026-04-26T15:09:22Z</time></trkpt><trkpt lat="49.34087280163288" lon="0.4306094728653883"><ele>42.0</ele><time>2026-04-26T15:09:23Z</time></trkpt><trkpt lat="49.34098830609491" lon="0.4306381829751815"><ele>42.0</ele><time>2026-04-26T15:09:24Z</time></trkpt><trkpt lat="49.34110796472624" lon="0.4306833232839592"><ele>42.0</ele><time>2026-04-26T15:09:25Z</time></trkpt><trkpt lat="49.341226833618805" lon="0.4307044866273602"><ele>42.0</ele><time>2026-04-26T15:09:26Z</time></trkpt><trkpt lat="49.341347379638165" lon="0.4307193372246277"><ele>42.0</ele><time>2026-04-26T15:09:27Z</time></trkpt><trkpt lat="49.34145147830187" lon="0.43073309082477096"><ele>42.0</ele><time>2026-04-26T15:09:28Z</time></trkpt><trkpt lat="49.34153824203443" lon="0.4307305198930293"><ele>42.0</ele><time>2026-04-26T15:09:29Z</time></trkpt><trkpt lat="49.34162145577759" lon="0.4306945711061224"><ele>42.0</ele><time>2026-04-26T15:09:30Z</time></trkpt><trkpt lat="49.341696634507635" lon="0.43064720081999996"><ele>41.8</ele><time>2026-04-26T15:09:31Z</time></trkpt><trkpt lat="49.3417479488246" lon="0.4305899378490492"><ele>41.6</ele><time>2026-04-26T15:09:32Z</time></trkpt><trkpt lat="49.34184864756487" lon="0.4304805812887342"><ele>41.4</ele><time>2026-04-26T15:09:34Z</time></trkpt><trkpt lat="49.34195063531161" lon="0.43039225787872526"><ele>41.199999999999996</ele><time>2026-04-26T15:09:35Z</time></trkpt><trkpt lat="49.34208663579867" lon="0.4303282640446963"><ele>41.0</ele><time>2026-04-26T15:09:36Z</time></trkpt><trkpt lat="49.34224269313301" lon="0.4302260156112415"><ele>42.33333333333333</ele><time>2026-04-26T15:09:37Z</time></trkpt><trkpt lat="49.34240771190884" lon="0.43011789605853107"><ele>43.666666666666664</ele><time>2026-04-26T15:09:38Z</time></trkpt><trkpt lat="49.34256245306333" lon="0.43001651035175864"><ele>45.0</ele><time>2026-04-26T15:09:39Z</time></trkpt><trkpt lat="49.342678800184835" lon="0.42994028030934167"><ele>45.0</ele><time>2026-04-26T15:09:40Z</time></trkpt><trkpt lat="49.342796861583594" lon="0.4298632446726362"><ele>45.0</ele><time>2026-04-26T15:09:41Z</time></trkpt><trkpt lat="49.342914500806884" lon="0.4297865969195043"><ele>45.0</ele><time>2026-04-26T15:09:42Z</time></trkpt><trkpt lat="49.34302952358891" lon="0.42971165392011584"><ele>45.0</ele><time>2026-04-26T15:09:43Z</time></trkpt><trkpt lat="49.34313788873338" lon="0.42964104860476615"><ele>45.4</ele><time>2026-04-26T15:09:44Z</time></trkpt><trkpt lat="49.3432378472834" lon="0.4295759206702274"><ele>45.8</ele><time>2026-04-26T15:09:45Z</time></trkpt><trkpt lat="49.34334204549086" lon="0.42950797709327"><ele>46.2</ele><time>2026-04-26T15:09:46Z</time></trkpt><trkpt lat="49.343440837529634" lon="0.4294431944991806"><ele>46.6</ele><time>2026-04-26T15:09:47Z</time></trkpt><trkpt lat="49.343528833524864" lon="0.4293854909303647"><ele>47.0</ele><time>2026-04-26T15:09:48Z</time></trkpt><trkpt lat="49.343608680312876" lon="0.42933099384823686"><ele>47.0</ele><time>2026-04-26T15:09:49Z</time></trkpt><trkpt lat="49.34368119933735" lon="0.42928165583742794"><ele>47.0</ele><time>2026-04-26T15:09:50Z</time></trkpt><trkpt lat="49.343749195689995" lon="0.4292353946236181"><ele>47.0</ele><time>2026-04-26T15:09:51Z</time></trkpt><trkpt lat="49.343838411899554" lon="0.42917469671513553"><ele>47.0</ele><time>2026-04-26T15:09:52Z</time></trkpt><trkpt lat="49.34393743968229" lon="0.4291078275749627"><ele>47.0</ele><time>2026-04-26T15:09:53Z</time></trkpt><trkpt lat="49.34402354833233" lon="0.4290511009337135"><ele>47.2</ele><time>2026-04-26T15:09:54Z</time></trkpt><trkpt lat="49.34410058233908" lon="0.4290003521902944"><ele>47.400000000000006</ele><time>2026-04-26T15:09:55Z</time></trkpt><trkpt lat="49.344189106442286" lon="0.42894203434034145"><ele>47.599999999999994</ele><time>2026-04-26T15:09:56Z</time></trkpt><trkpt lat="49.34428223128802" lon="0.4288806852651738"><ele>47.8</ele><time>2026-04-26T15:09:57Z</time></trkpt><trkpt lat="49.34436768155021" lon="0.4288232163819516"><ele>48.0</ele><time>2026-04-26T15:09:58Z</time></trkpt><trkpt lat="49.34444567887809" lon="0.4287704163265084"><ele>48.166666666666664</ele><time>2026-04-26T15:09:59Z</time></trkpt><trkpt lat="49.344509063875165" lon="0.4287016506658494"><ele>48.33333333333333</ele><time>2026-04-26T15:10:00Z</time></trkpt><trkpt lat="49.34458279242481" lon="0.4286786821472313"><ele>48.5</ele><time>2026-04-26T15:10:01Z</time></trkpt><trkpt lat="49.344637740972985" lon="0.4286223390071979"><ele>48.666666666666664</ele><time>2026-04-26T15:10:02Z</time></trkpt><trkpt lat="49.34469885080614" lon="0.42857963360708395"><ele>48.83333333333333</ele><time>2026-04-26T15:10:03Z</time></trkpt><trkpt lat="49.344792231285865" lon="0.42852782662554734"><ele>49.0</ele><time>2026-04-26T15:10:05Z</time></trkpt><trkpt lat="49.344858697013215" lon="0.4284995413213151"><ele>49.0</ele><time>2026-04-26T15:10:07Z</time></trkpt><trkpt lat="49.34495220815002" lon="0.4284413391181619"><ele>49.0</ele><time>2026-04-26T15:10:38.999Z</time></trkpt><trkpt lat="49.34505392792478" lon="0.42835253893387615"><ele>49.0</ele><time>2026-04-26T15:10:39.999Z</time></trkpt><trkpt lat="49.345165965771734" lon="0.428288955803584"><ele>49.0</ele><time>2026-04-26T15:10:40.999Z</time></trkpt><trkpt lat="49.34526289706567" lon="0.4282148869931468"><ele>49.0</ele><time>2026-04-26T15:10:41.999Z</time></trkpt><trkpt lat="49.345397784632" lon="0.4281214583933608"><ele>49.25</ele><time>2026-04-26T15:10:42.999Z</time></trkpt><trkpt lat="49.34555204097586" lon="0.42801783859027653"><ele>49.5</ele><time>2026-04-26T15:10:43.999Z</time></trkpt><trkpt lat="49.34568248630855" lon="0.42794027574224763"><ele>49.75</ele><time>2026-04-26T15:10:44.999Z</time></trkpt><trkpt lat="49.34580024052647" lon="0.4278670339566315"><ele>50.0</ele><time>2026-04-26T15:10:45.999Z</time></trkpt><trkpt lat="49.34595861830612" lon="0.4277702602866716"><ele>51.0</ele><time>2026-04-26T15:10:46.999Z</time></trkpt><trkpt lat="49.3461310516016" lon="0.427650124239719"><ele>52.0</ele><time>2026-04-26T15:10:47.999Z</time></trkpt><trkpt lat="49.34626847020117" lon="0.4275719329757173"><ele>53.0</ele><time>2026-04-26T15:10:48.999Z</time></trkpt><trkpt lat="49.34638881918223" lon="0.4274953017469145"><ele>53.0</ele><time>2026-04-26T15:10:49.999Z</time></trkpt><trkpt lat="49.34649635313279" lon="0.4274252367481373"><ele>53.0</ele><time>2026-04-26T15:10:50.999Z</time></trkpt><trkpt lat="49.346594319037145" lon="0.4273567640504208"><ele>53.0</ele><time>2026-04-26T15:10:51.999Z</time></trkpt><trkpt lat="49.34668525401227" lon="0.427289716439515"><ele>53.0</ele><time>2026-04-26T15:10:52.999Z</time></trkpt><trkpt lat="49.34682163997342" lon="0.4272061527122431"><ele>55.0</ele><time>2026-04-26T15:10:53.999Z</time></trkpt><trkpt lat="49.34700107878496" lon="0.42710624603800124"><ele>57.0</ele><time>2026-04-26T15:10:54.999Z</time></trkpt><trkpt lat="49.34716962953253" lon="0.4269975530339636"><ele>59.0</ele><time>2026-04-26T15:10:55.999Z</time></trkpt><trkpt lat="49.34730628279716" lon="0.42691525525659607"><ele>59.25</ele><time>2026-04-26T15:10:56.999Z</time></trkpt><trkpt lat="49.34741606792866" lon="0.426851231282188"><ele>59.5</ele><time>2026-04-26T15:10:58.001Z</time></trkpt><trkpt lat="49.34753613342058" lon="0.4267910435199378"><ele>59.75</ele><time>2026-04-26T15:10:59.001Z</time></trkpt><trkpt lat="49.347665406425435" lon="0.4267292319873035"><ele>60.0</ele><time>2026-04-26T15:11:00.001Z</time></trkpt><trkpt lat="49.3478004971234" lon="0.4266227552405972"><ele>60.0</ele><time>2026-04-26T15:11:01.001Z</time></trkpt><trkpt lat="49.34789272389027" lon="0.42656985431972716"><ele>60.0</ele><time>2026-04-26T15:11:02.001Z</time></trkpt><trkpt lat="49.34799535299547" lon="0.4265155171427534"><ele>60.0</ele><time>2026-04-26T15:11:03.001Z</time></trkpt><trkpt lat="49.348090320549325" lon="0.4264424231383473"><ele>60.0</ele><time>2026-04-26T15:11:04.001Z</time></trkpt><trkpt lat="49.348185837393814" lon="0.4263727248811204"><ele>60.0</ele><time>2026-04-26T15:11:05.001Z</time></trkpt><trkpt lat="49.3482645084303" lon="0.4263255726797497"><ele>60.5</ele><time>2026-04-26T15:11:06.001Z</time></trkpt><trkpt lat="49.34833419868355" lon="0.426283076264403"><ele>61.0</ele><time>2026-04-26T15:11:07.001Z</time></trkpt><trkpt lat="49.348398978405044" lon="0.4262437564913097"><ele>61.5</ele><time>2026-04-26T15:11:08.001Z</time></trkpt><trkpt lat="49.34845938716814" lon="0.42620876534666813"><ele>62.0</ele><time>2026-04-26T15:11:09.001Z</time></trkpt><trkpt lat="49.34856501975816" lon="0.42614026359814916"><ele>62.5</ele><time>2026-04-26T15:11:11.001Z</time></trkpt><trkpt lat="49.34864378171914" lon="0.4261000327045489"><ele>63.0</ele><time>2026-04-26T15:11:13.001Z</time></trkpt><trkpt lat="49.348720321272495" lon="0.42604459022209407"><ele>63.0</ele><time>2026-04-26T15:11:16.001Z</time></trkpt><trkpt lat="49.34879222967024" lon="0.4260015798650219"><ele>63.0</ele><time>2026-04-26T15:11:40Z</time></trkpt><trkpt lat="49.348699712043555" lon="0.4259920010456083"><ele>63.0</ele><time>2026-04-26T15:14:04Z</time></trkpt><trkpt lat="49.34862200735235" lon="0.42605572675147035"><ele>63.0</ele><time>2026-04-26T15:14:05Z</time></trkpt><trkpt lat="49.348532368714295" lon="0.42611761097424883"><ele>63.0</ele><time>2026-04-26T15:14:06Z</time></trkpt><trkpt lat="49.3484010756674" lon="0.42620818975648106"><ele>63.0</ele><time>2026-04-26T15:14:07Z</time></trkpt><trkpt lat="49.34824561007246" lon="0.42630764591370157"><ele>63.0</ele><time>2026-04-26T15:14:08Z</time></trkpt><trkpt lat="49.348081325308755" lon="0.4264072884628947"><ele>63.0</ele><time>2026-04-26T15:14:09Z</time></trkpt><trkpt lat="49.34789360911982" lon="0.4265090828105028"><ele>62.0</ele><time>2026-04-26T15:14:10Z</time></trkpt><trkpt lat="49.34770184751345" lon="0.4266317237795594"><ele>61.0</ele><time>2026-04-26T15:14:11Z</time></trkpt><trkpt lat="49.34750794378148" lon="0.4267449448327693"><ele>60.0</ele><time>2026-04-26T15:14:12Z</time></trkpt><trkpt lat="49.34731904726726" lon="0.42687279862353816"><ele>59.66666666666667</ele><time>2026-04-26T15:14:13Z</time></trkpt><trkpt lat="49.34713483796532" lon="0.42697102801129583"><ele>59.333333333333336</ele><time>2026-04-26T15:14:14Z</time></trkpt><trkpt lat="49.34695939246387" lon="0.4270983092902933"><ele>59.0</ele><time>2026-04-26T15:14:15Z</time></trkpt><trkpt lat="49.346783778592155" lon="0.42720262206074927"><ele>57.66666666666667</ele><time>2026-04-26T15:14:16Z</time></trkpt><trkpt lat="49.34661922526807" lon="0.4272927455731812"><ele>56.33333333333333</ele><time>2026-04-26T15:14:17Z</time></trkpt><trkpt lat="49.34645274878715" lon="0.42739654117575804"><ele>55.0</ele><time>2026-04-26T15:14:18Z</time></trkpt><trkpt lat="49.3462560876146" lon="0.42752317415346486"><ele>55.0</ele><time>2026-04-26T15:14:19Z</time></trkpt><trkpt lat="49.34602586060731" lon="0.4276679957263779"><ele>55.0</ele><time>2026-04-26T15:14:20Z</time></trkpt><trkpt lat="49.34582272916158" lon="0.4277975294685391"><ele>55.0</ele><time>2026-04-26T15:14:21Z</time></trkpt><trkpt lat="49.345641757789856" lon="0.4279207861212523"><ele>55.0</ele><time>2026-04-26T15:14:22Z</time></trkpt><trkpt lat="49.34547425461431" lon="0.428031960735958"><ele>55.0</ele><time>2026-04-26T15:14:23Z</time></trkpt><trkpt lat="49.345324890001294" lon="0.4281265767734911"><ele>53.5</ele><time>2026-04-26T15:14:24Z</time></trkpt><trkpt lat="49.345191479826156" lon="0.428219392411003"><ele>52.0</ele><time>2026-04-26T15:14:25Z</time></trkpt><trkpt lat="49.34506297416859" lon="0.4283036806427082"><ele>50.5</ele><time>2026-04-26T15:14:26Z</time></trkpt><trkpt lat="49.34494382837389" lon="0.42838665562974143"><ele>49.0</ele><time>2026-04-26T15:14:27Z</time></trkpt><trkpt lat="49.3448290599124" lon="0.4284642331448331"><ele>49.0</ele><time>2026-04-26T15:14:28Z</time></trkpt><trkpt lat="49.344722821027936" lon="0.428538485948386"><ele>49.0</ele><time>2026-04-26T15:14:29Z</time></trkpt><trkpt lat="49.34461979351352" lon="0.4286065581305406"><ele>49.0</ele><time>2026-04-26T15:14:30Z</time></trkpt><trkpt lat="49.34450147012576" lon="0.4286854606883963"><ele>49.0</ele><time>2026-04-26T15:14:31Z</time></trkpt><trkpt lat="49.34436763506074" lon="0.4287764391122441"><ele>48.75</ele><time>2026-04-26T15:14:32Z</time></trkpt><trkpt lat="49.34425420003492" lon="0.4288589983156047"><ele>48.5</ele><time>2026-04-26T15:14:33Z</time></trkpt><trkpt lat="49.34414522219088" lon="0.42892923496092306"><ele>48.25</ele><time>2026-04-26T15:14:34Z</time></trkpt><trkpt lat="49.34404691021856" lon="0.4289891705012029"><ele>48.0</ele><time>2026-04-26T15:14:35Z</time></trkpt><trkpt lat="49.34395242013656" lon="0.4290468471636218"><ele>47.8</ele><time>2026-04-26T15:14:36Z</time></trkpt><trkpt lat="49.34386114272254" lon="0.42911704344402823"><ele>47.599999999999994</ele><time>2026-04-26T15:14:37Z</time></trkpt><trkpt lat="49.34377334433851" lon="0.4291780365149142"><ele>47.400000000000006</ele><time>2026-04-26T15:14:38Z</time></trkpt><trkpt lat="49.3436913236516" lon="0.42922897973604207"><ele>47.2</ele><time>2026-04-26T15:14:39Z</time></trkpt><trkpt lat="49.34360730959726" lon="0.42928722823898885"><ele>47.0</ele><time>2026-04-26T15:14:40Z</time></trkpt><trkpt lat="49.34352406931902" lon="0.42934301868204156"><ele>47.0</ele><time>2026-04-26T15:14:41Z</time></trkpt><trkpt lat="49.34344171944294" lon="0.42939828011395115"><ele>47.0</ele><time>2026-04-26T15:14:41.999Z</time></trkpt><trkpt lat="49.34335856272893" lon="0.42945255538242383"><ele>47.0</ele><time>2026-04-26T15:14:42.999Z</time></trkpt><trkpt lat="49.34326895198028" lon="0.429510825151973"><ele>47.0</ele><time>2026-04-26T15:14:43.999Z</time></trkpt><trkpt lat="49.34316691259041" lon="0.4295773929120246"><ele>47.0</ele><time>2026-04-26T15:14:44.999Z</time></trkpt><trkpt lat="49.34305836232538" lon="0.42965310478730323"><ele>46.5</ele><time>2026-04-26T15:14:45.999Z</time></trkpt><trkpt lat="49.342926594446155" lon="0.42973830969060545"><ele>46.0</ele><time>2026-04-26T15:14:46.999Z</time></trkpt><trkpt lat="49.342815576880106" lon="0.4298072417407853"><ele>45.5</ele><time>2026-04-26T15:14:47.999Z</time></trkpt><trkpt lat="49.34270811188311" lon="0.4298718619873708"><ele>45.0</ele><time>2026-04-26T15:14:48.999Z</time></trkpt><trkpt lat="49.34260259535565" lon="0.42993859699881937"><ele>45.0</ele><time>2026-04-26T15:14:49.999Z</time></trkpt><trkpt lat="49.342473248591965" lon="0.4300238030987656"><ele>45.0</ele><time>2026-04-26T15:14:50.999Z</time></trkpt><trkpt lat="49.342331780564635" lon="0.43011702382549843"><ele>45.0</ele><time>2026-04-26T15:14:51.999Z</time></trkpt><trkpt lat="49.34220660064181" lon="0.43020155173998686"><ele>45.0</ele><time>2026-04-26T15:14:52.999Z</time></trkpt><trkpt lat="49.34209009906765" lon="0.4302741193859355"><ele>44.8</ele><time>2026-04-26T15:14:53.999Z</time></trkpt><trkpt lat="49.34198763472734" lon="0.430339207317461"><ele>44.6</ele><time>2026-04-26T15:14:54.999Z</time></trkpt><trkpt lat="49.341893775968785" lon="0.4304030157722719"><ele>44.400000000000006</ele><time>2026-04-26T15:14:55.999Z</time></trkpt><trkpt lat="49.341808333122565" lon="0.43046604619529416"><ele>44.2</ele><time>2026-04-26T15:14:56.999Z</time></trkpt><trkpt lat="49.34173265909593" lon="0.4305370166637442"><ele>44.0</ele><time>2026-04-26T15:14:57.999Z</time></trkpt><trkpt lat="49.341657442754865" lon="0.4306037944621122"><ele>43.6</ele><time>2026-04-26T15:14:58.999Z</time></trkpt><trkpt lat="49.34157980725313" lon="0.4306531943779884"><ele>43.2</ele><time>2026-04-26T15:14:59.999Z</time></trkpt><trkpt lat="49.3415018659152" lon="0.430680719908134"><ele>42.800000000000004</ele><time>2026-04-26T15:15:00.999Z</time></trkpt><trkpt lat="49.341421129056634" lon="0.43069025488400575"><ele>42.400000000000006</ele><time>2026-04-26T15:15:01.999Z</time></trkpt><trkpt lat="49.34132610730438" lon="0.4306849963922634"><ele>42.0</ele><time>2026-04-26T15:15:02.999Z</time></trkpt><trkpt lat="49.34121463519145" lon="0.43066879177665923"><ele>42.0</ele><time>2026-04-26T15:15:03.999Z</time></trkpt><trkpt lat="49.34109198790095" lon="0.43064537555326105"><ele>42.0</ele><time>2026-04-26T15:15:04.999Z</time></trkpt><trkpt lat="49.34098790502008" lon="0.43061540230579626"><ele>42.0</ele><time>2026-04-26T15:15:05.999Z</time></trkpt><trkpt lat="49.34089313155553" lon="0.4305774490743069"><ele>42.0</ele><time>2026-04-26T15:15:06.999Z</time></trkpt><trkpt lat="49.34080598764327" lon="0.43053952205712515"><ele>42.0</ele><time>2026-04-26T15:15:07.999Z</time></trkpt><trkpt lat="49.34072865261887" lon="0.4305131776957257"><ele>42.0</ele><time>2026-04-26T15:15:08.999Z</time></trkpt><trkpt lat="49.340660019452805" lon="0.4305138750815143"><ele>42.0</ele><time>2026-04-26T15:15:10.001Z</time></trkpt><trkpt lat="49.340588971200944" lon="0.43054479817194213"><ele>42.0</ele><time>2026-04-26T15:15:11.001Z</time></trkpt><trkpt lat="49.34053182483427" lon="0.4306234460121036"><ele>42.0</ele><time>2026-04-26T15:15:12.001Z</time></trkpt><trkpt lat="49.34049333567513" lon="0.43072256682060933"><ele>42.0</ele><time>2026-04-26T15:15:13.001Z</time></trkpt><trkpt lat="49.34047319751226" lon="0.43083530663329855"><ele>42.0</ele><time>2026-04-26T15:15:14.001Z</time></trkpt><trkpt lat="49.340451582613255" lon="0.43095807312364115"><ele>42.0</ele><time>2026-04-26T15:15:15.001Z</time></trkpt><trkpt lat="49.340431578857554" lon="0.43108690853372755"><ele>42.0</ele><time>2026-04-26T15:15:16.001Z</time></trkpt><trkpt lat="49.34040318753065" lon="0.43122321652421436"><ele>42.0</ele><time>2026-04-26T15:15:17.001Z</time></trkpt><trkpt lat="49.34036795168905" lon="0.43137236516598765"><ele>42.0</ele><time>2026-04-26T15:15:18.001Z</time></trkpt><trkpt lat="49.34031745657278" lon="0.43155810206680556"><ele>42.0</ele><time>2026-04-26T15:15:19.001Z</time></trkpt><trkpt lat="49.34026965651774" lon="0.4317114045290429"><ele>42.400000000000006</ele><time>2026-04-26T15:15:20.001Z</time></trkpt><trkpt lat="49.340235185563806" lon="0.43184427180490836"><ele>42.800000000000004</ele><time>2026-04-26T15:15:21.001Z</time></trkpt><trkpt lat="49.34021545348374" lon="0.431961897013334"><ele>43.2</ele><time>2026-04-26T15:15:22.001Z</time></trkpt><trkpt lat="49.340183751222355" lon="0.4320854060265147"><ele>43.6</ele><time>2026-04-26T15:15:23.001Z</time></trkpt><trkpt lat="49.34016059986872" lon="0.4322177522635879"><ele>44.0</ele><time>2026-04-26T15:15:24.001Z</time></trkpt><trkpt lat="49.340131317109105" lon="0.43238390318221737"><ele>44.6</ele><time>2026-04-26T15:15:25.001Z</time></trkpt><trkpt lat="49.3401021679744" lon="0.43257010775393945"><ele>45.2</ele><time>2026-04-26T15:15:26.001Z</time></trkpt><trkpt lat="49.340084209128456" lon="0.4327645381390452"><ele>45.800000000000004</ele><time>2026-04-26T15:15:27.001Z</time></trkpt><trkpt lat="49.34007688306268" lon="0.4329204090581213"><ele>46.400000000000006</ele><time>2026-04-26T15:15:28.001Z</time></trkpt><trkpt lat="49.340073680917456" lon="0.4330560312887155"><ele>47.0</ele><time>2026-04-26T15:15:29.001Z</time></trkpt><trkpt lat="49.3400741771794" lon="0.433230339230322"><ele>48.2</ele><time>2026-04-26T15:15:30.001Z</time></trkpt><trkpt lat="49.34007610123335" lon="0.43337983947346026"><ele>49.400000000000006</ele><time>2026-04-26T15:15:31.001Z</time></trkpt><trkpt lat="49.340068174435594" lon="0.4334993964142195"><ele>50.599999999999994</ele><time>2026-04-26T15:15:32Z</time></trkpt><trkpt lat="49.340043635647" lon="0.43366314793328514"><ele>51.8</ele><time>2026-04-26T15:15:33Z</time></trkpt><trkpt lat="49.33999881428127" lon="0.43379934456005176"><ele>53.0</ele><time>2026-04-26T15:15:34Z</time></trkpt><trkpt lat="49.339918983303214" lon="0.433947373360854"><ele>54.2</ele><time>2026-04-26T15:15:35Z</time></trkpt><trkpt lat="49.339838266314246" lon="0.43406478768261847"><ele>55.4</ele><time>2026-04-26T15:15:36Z</time></trkpt><trkpt lat="49.339773890606864" lon="0.4341488746139615"><ele>56.60000000000001</ele><time>2026-04-26T15:15:37Z</time></trkpt><trkpt lat="49.33970785445936" lon="0.4342428853962291"><ele>57.800000000000004</ele><time>2026-04-26T15:15:38Z</time></trkpt><trkpt lat="49.33964065996815" lon="0.4343582210546913"><ele>59.0</ele><time>2026-04-26T15:15:39Z</time></trkpt><trkpt lat="49.33959663645334" lon="0.43445694621866304"><ele>60.6</ele><time>2026-04-26T15:15:40Z</time></trkpt><trkpt lat="49.3395627317889" lon="0.43453871568534613"><ele>62.2</ele><time>2026-04-26T15:15:41Z</time></trkpt><trkpt lat="49.339518905033934" lon="0.4346742110543239"><ele>63.800000000000004</ele><time>2026-04-26T15:15:43Z</time></trkpt><trkpt lat="49.339413086301036" lon="0.4345674817278274"><ele>65.4</ele><time>2026-04-26T15:15:44Z</time></trkpt><trkpt lat="49.339335888007135" lon="0.43450623910282377"><ele>67.0</ele><time>2026-04-26T15:15:45Z</time></trkpt><trkpt lat="49.339229822321634" lon="0.43442843983111495"><ele>67.0</ele><time>2026-04-26T15:15:46Z</time></trkpt><trkpt lat="49.33910612954596" lon="0.43432925502944925"><ele>67.0</ele><time>2026-04-26T15:15:47Z</time></trkpt><trkpt lat="49.3389772644003" lon="0.43420658790840655"><ele>67.0</ele><time>2026-04-26T15:15:48Z</time></trkpt><trkpt lat="49.338828976894376" lon="0.4340610508220285"><ele>68.25</ele><time>2026-04-26T15:15:49Z</time></trkpt><trkpt lat="49.338700025293406" lon="0.4339448151242605"><ele>69.5</ele><time>2026-04-26T15:15:50Z</time></trkpt><trkpt lat="49.3385922606246" lon="0.43385342602920146"><ele>70.75</ele><time>2026-04-26T15:15:51Z</time></trkpt><trkpt lat="49.33849896118129" lon="0.4337999086201895"><ele>72.0</ele><time>2026-04-26T15:15:52Z</time></trkpt><trkpt lat="49.33841990783982" lon="0.4337645855264689"><ele>72.0</ele><time>2026-04-26T15:15:53Z</time></trkpt><trkpt lat="49.33835400815626" lon="0.43373592430148056"><ele>72.0</ele><time>2026-04-26T15:15:54Z</time></trkpt><trkpt lat="49.338270078015945" lon="0.4336463338104"><ele>72.0</ele><time>2026-04-26T15:15:56Z</time></trkpt><trkpt lat="49.3382899038293" lon="0.4335366575166412"><ele>72.0</ele><time>2026-04-26T15:15:57Z</time></trkpt><trkpt lat="49.33824646592779" lon="0.43336608512427993"><ele>72.0</ele><time>2026-04-26T15:15:58Z</time></trkpt><trkpt lat="49.338185278617246" lon="0.4331258139502914"><ele>73.66666666666667</ele><time>2026-04-26T15:15:59Z</time></trkpt><trkpt lat="49.33811622219161" lon="0.4328589033161842"><ele>75.33333333333334</ele><time>2026-04-26T15:16:00Z</time></trkpt><trkpt lat="49.33803131115443" lon="0.43254306916061275"><ele>77.0</ele><time>2026-04-26T15:16:01Z</time></trkpt><trkpt lat="49.33794333022411" lon="0.43223008110329164"><ele>74.66666666666667</ele><time>2026-04-26T15:16:02Z</time></trkpt><trkpt lat="49.33786452690727" lon="0.43195854486159635"><ele>72.33333333333333</ele><time>2026-04-26T15:16:03Z</time></trkpt><trkpt lat="49.337796457518046" lon="0.43172399481263757"><ele>70.0</ele><time>2026-04-26T15:16:04Z</time></trkpt><trkpt lat="49.33773597807174" lon="0.43151757068959795"><ele>70.0</ele><time>2026-04-26T15:16:05Z</time></trkpt><trkpt lat="49.33767752097319" lon="0.43131849045989806"><ele>70.0</ele><time>2026-04-26T15:16:06Z</time></trkpt><trkpt lat="49.337622352700556" lon="0.43113061059900726"><ele>70.0</ele><time>2026-04-26T15:16:07Z</time></trkpt><trkpt lat="49.33756281816449" lon="0.43092400601189434"><ele>70.0</ele><time>2026-04-26T15:16:08Z</time></trkpt><trkpt lat="49.3375011080258" lon="0.4307091067420427"><ele>67.75</ele><time>2026-04-26T15:16:09Z</time></trkpt><trkpt lat="49.33744677767942" lon="0.43051990684394503"><ele>65.5</ele><time>2026-04-26T15:16:10Z</time></trkpt><trkpt lat="49.33739482009095" lon="0.4303402315336386"><ele>63.25</ele><time>2026-04-26T15:16:11Z</time></trkpt><trkpt lat="49.33733613441971" lon="0.43013789905998"><ele>61.0</ele><time>2026-04-26T15:16:12Z</time></trkpt><trkpt lat="49.33728079883467" lon="0.4299471168277299"><ele>61.0</ele><time>2026-04-26T15:16:13Z</time></trkpt><trkpt lat="49.33722895667282" lon="0.4297777108133092"><ele>61.0</ele><time>2026-04-26T15:16:14Z</time></trkpt><trkpt lat="49.33717428310514" lon="0.4296036318091772"><ele>61.0</ele><time>2026-04-26T15:16:15Z</time></trkpt><trkpt lat="49.33711553163822" lon="0.42942099446706994"><ele>61.0</ele><time>2026-04-26T15:16:16Z</time></trkpt><trkpt lat="49.337048330722006" lon="0.42926192612815633"><ele>61.0</ele><time>2026-04-26T15:16:17Z</time></trkpt><trkpt lat="49.33699483146905" lon="0.42910076651540613"><ele>61.0</ele><time>2026-04-26T15:16:18Z</time></trkpt><trkpt lat="49.33695961102927" lon="0.428935040760136"><ele>61.0</ele><time>2026-04-26T15:16:19Z</time></trkpt><trkpt lat="49.33690240393729" lon="0.4287551710902533"><ele>61.0</ele><time>2026-04-26T15:16:20Z</time></trkpt><trkpt lat="49.3368344923071" lon="0.428530548276576"><ele>60.25</ele><time>2026-04-26T15:16:21Z</time></trkpt><trkpt lat="49.33677288400427" lon="0.42832117057366587"><ele>59.5</ele><time>2026-04-26T15:16:22Z</time></trkpt><trkpt lat="49.33671868587529" lon="0.42813561509298"><ele>58.75</ele><time>2026-04-26T15:16:23Z</time></trkpt><trkpt lat="49.33666797528348" lon="0.4279619996984529"><ele>58.0</ele><time>2026-04-26T15:16:24Z</time></trkpt><trkpt lat="49.33662041408962" lon="0.4277991665161403"><ele>57.2</ele><time>2026-04-26T15:16:25Z</time></trkpt><trkpt lat="49.336574567187775" lon="0.42764220264691144"><ele>56.4</ele><time>2026-04-26T15:16:26Z</time></trkpt><trkpt lat="49.33653121306823" lon="0.427495571005258"><ele>55.60000000000001</ele><time>2026-04-26T15:16:27Z</time></trkpt><trkpt lat="49.33648927007547" lon="0.42735577375275763"><ele>54.800000000000004</ele><time>2026-04-26T15:16:28Z</time></trkpt><trkpt lat="49.33644443084095" lon="0.4272063217032547"><ele>54.0</ele><time>2026-04-26T15:16:29Z</time></trkpt><trkpt lat="49.33638938916967" lon="0.427027603132421"><ele>54.400000000000006</ele><time>2026-04-26T15:16:30Z</time></trkpt><trkpt lat="49.33634027950497" lon="0.42686914869249054"><ele>54.800000000000004</ele><time>2026-04-26T15:16:31Z</time></trkpt><trkpt lat="49.33629374515221" lon="0.42672624516357693"><ele>55.199999999999996</ele><time>2026-04-26T15:16:32Z</time></trkpt><trkpt lat="49.33624804746106" lon="0.42659021649065393"><ele>55.599999999999994</ele><time>2026-04-26T15:16:33Z</time></trkpt><trkpt lat="49.33620648672809" lon="0.4264678270015088"><ele>56.0</ele><time>2026-04-26T15:16:34Z</time></trkpt><trkpt lat="49.33615427590762" lon="0.4263565877056272"><ele>56.0</ele><time>2026-04-26T15:16:35Z</time></trkpt><trkpt lat="49.336103473325025" lon="0.42620043782352807"><ele>55.99999999999999</ele><time>2026-04-26T15:16:36Z</time></trkpt><trkpt lat="49.3360502164606" lon="0.4260333692212669"><ele>55.99999999999999</ele><time>2026-04-26T15:16:37Z</time></trkpt><trkpt lat="49.33599983947344" lon="0.4258897489408554"><ele>56.0</ele><time>2026-04-26T15:16:38Z</time></trkpt><trkpt lat="49.33595632695989" lon="0.42575160066861717"><ele>56.0</ele><time>2026-04-26T15:16:39Z</time></trkpt><trkpt lat="49.33590527289745" lon="0.42561809621757607"><ele>56.0</ele><time>2026-04-26T15:16:40Z</time></trkpt><trkpt lat="49.33584639469962" lon="0.4254749972391158"><ele>55.99999999999999</ele><time>2026-04-26T15:16:41Z</time></trkpt><trkpt lat="49.335778780078925" lon="0.4253672489987902"><ele>55.99999999999999</ele><time>2026-04-26T15:16:42Z</time></trkpt><trkpt lat="49.335711320154985" lon="0.425274974627939"><ele>56.0</ele><time>2026-04-26T15:16:42.999Z</time></trkpt><trkpt lat="49.33564298064041" lon="0.4251960118351161"><ele>56.0</ele><time>2026-04-26T15:16:43.999Z</time></trkpt><trkpt lat="49.33558118176464" lon="0.42512657550010124"><ele>56.333333333333336</ele><time>2026-04-26T15:16:44.999Z</time></trkpt><trkpt lat="49.335508368598056" lon="0.42501362558770417"><ele>56.66666666666667</ele><time>2026-04-26T15:16:45.999Z</time></trkpt><trkpt lat="49.33542795580115" lon="0.4249612893116638"><ele>57.0</ele><time>2026-04-26T15:16:46.999Z</time></trkpt><trkpt lat="49.335361688297574" lon="0.4248908535418389"><ele>57.33333333333333</ele><time>2026-04-26T15:16:47.999Z</time></trkpt><trkpt lat="49.33530756210078" lon="0.4248304284425669"><ele>57.666666666666664</ele><time>2026-04-26T15:16:48.999Z</time></trkpt><trkpt lat="49.33525140098505" lon="0.4247369880742668"><ele>58.0</ele><time>2026-04-26T15:16:50.999Z</time></trkpt><trkpt lat="49.33519583594029" lon="0.4246887488056809"><ele>58.0</ele><time>2026-04-26T15:16:53.999Z</time></trkpt><trkpt lat="49.33513360166699" lon="0.4248190516865576"><ele>58.0</ele><time>2026-04-26T15:16:56.999Z</time></trkpt><trkpt lat="49.33509205339409" lon="0.4249201459768644"><ele>58.0</ele><time>2026-04-26T15:16:58.999Z</time></trkpt><trkpt lat="49.335044297871946" lon="0.42501825301962004"><ele>58.0</ele><time>2026-04-26T15:17:00.999Z</time></trkpt><trkpt lat="49.33496960218308" lon="0.42516194088116555"><ele>58.0</ele><time>2026-04-26T15:17:02.999Z</time></trkpt><trkpt lat="49.33491962512074" lon="0.42525840136315746"><ele>58.0</ele><time>2026-04-26T15:17:03.999Z</time></trkpt><trkpt lat="49.33485137969006" lon="0.42538103599144333"><ele>58.0</ele><time>2026-04-26T15:17:05.999Z</time></trkpt><trkpt lat="49.33478144899161" lon="0.425454129224364"><ele>58.0</ele><time>2026-04-26T15:17:07.999Z</time></trkpt><trkpt lat="49.33470112877121" lon="0.42541427303953566"><ele>58.0</ele><time>2026-04-26T15:17:09.999Z</time></trkpt><trkpt lat="49.33461774181515" lon="0.42531389376971707"><ele>58.0</ele><time>2026-04-26T15:17:11.999Z</time></trkpt><trkpt lat="49.3345234046459" lon="0.42521993775013456"><ele>58.99999999999999</ele><time>2026-04-26T15:17:13.999Z</time></trkpt><trkpt lat="49.33443718520268" lon="0.4251242994028293"><ele>60.0</ele><time>2026-04-26T15:17:16.001Z</time></trkpt><trkpt lat="49.334372925304" lon="0.4250526879522717"><ele>61.0</ele><time>2026-04-26T15:17:17.001Z</time></trkpt><trkpt lat="49.334321602661205" lon="0.42499434743556075"><ele>62.0</ele><time>2026-04-26T15:17:18.001Z</time></trkpt><trkpt lat="49.33424620032953" lon="0.42491205364487955"><ele>62.99999999999999</ele><time>2026-04-26T15:17:20.001Z</time></trkpt><trkpt lat="49.3341941407479" lon="0.4248475234738627"><ele>64.0</ele><time>2026-04-26T15:17:22.001Z</time></trkpt><trkpt lat="49.334141378205906" lon="0.4247895405166666"><ele>63.99999999999999</ele><time>2026-04-26T15:17:24.001Z</time></trkpt><trkpt lat="49.334206729245615" lon="0.4248528775798137"><ele>64.0</ele><time>2026-04-26T15:29:48.998Z</time></trkpt><trkpt lat="49.33426107593015" lon="0.4249023503433421"><ele>64.0</ele><time>2026-04-26T15:29:49.998Z</time></trkpt><trkpt lat="49.33434224636927" lon="0.4249800897766306"><ele>64.0</ele><time>2026-04-26T15:29:52Z</time></trkpt><trkpt lat="49.33439845290192" lon="0.4250448048352213"><ele>63.99999999999999</ele><time>2026-04-26T15:29:53Z</time></trkpt><trkpt lat="49.33446780143785" lon="0.4251296947529819"><ele>64.0</ele><time>2026-04-26T15:29:54Z</time></trkpt><trkpt lat="49.334517762188284" lon="0.42518965401462255"><ele>64.0</ele><time>2026-04-26T15:29:55Z</time></trkpt><trkpt lat="49.33460532840457" lon="0.4253038824147196"><ele>64.0</ele><time>2026-04-26T15:29:57Z</time></trkpt><trkpt lat="49.33471452452649" lon="0.42540187112773403"><ele>64.0</ele><time>2026-04-26T15:29:59Z</time></trkpt><trkpt lat="49.33477710354083" lon="0.4254496673609591"><ele>64.0</ele><time>2026-04-26T15:30:01Z</time></trkpt><trkpt lat="49.33484083922467" lon="0.42541943945861893"><ele>64.0</ele><time>2026-04-26T15:30:03Z</time></trkpt><trkpt lat="49.33492773096254" lon="0.4252913182472877"><ele>62.99999999999999</ele><time>2026-04-26T15:30:05Z</time></trkpt><trkpt lat="49.334982642782386" lon="0.425182463745372"><ele>62.0</ele><time>2026-04-26T15:30:07Z</time></trkpt><trkpt lat="49.33504692493091" lon="0.42505860069546153"><ele>61.0</ele><time>2026-04-26T15:30:09Z</time></trkpt><trkpt lat="49.33511970269165" lon="0.42490948170150306"><ele>60.0</ele><time>2026-04-26T15:30:11Z</time></trkpt><trkpt lat="49.335158794852006" lon="0.42482636928539347"><ele>58.99999999999999</ele><time>2026-04-26T15:30:12Z</time></trkpt><trkpt lat="49.33519916449717" lon="0.4247424514485395"><ele>58.0</ele><time>2026-04-26T15:30:14Z</time></trkpt><trkpt lat="49.33526351259176" lon="0.42473894079244595"><ele>58.0</ele><time>2026-04-26T15:30:31.999Z</time></trkpt><trkpt lat="49.33539573253704" lon="0.4248735785368577"><ele>58.0</ele><time>2026-04-26T15:30:33.999Z</time></trkpt><trkpt lat="49.33548717099693" lon="0.4249782897887306"><ele>58.0</ele><time>2026-04-26T15:30:34.999Z</time></trkpt><trkpt lat="49.33557623898625" lon="0.4251528534430713"><ele>58.0</ele><time>2026-04-26T15:30:35.999Z</time></trkpt><trkpt lat="49.335694633448014" lon="0.4252967999538787"><ele>57.5</ele><time>2026-04-26T15:30:36.999Z</time></trkpt><trkpt lat="49.33578843109692" lon="0.4254290344268664"><ele>57.0</ele><time>2026-04-26T15:30:37.999Z</time></trkpt><trkpt lat="49.33585355853528" lon="0.42554843028521505"><ele>56.5</ele><time>2026-04-26T15:30:38.999Z</time></trkpt><trkpt lat="49.33590605593823" lon="0.4256803839986847"><ele>56.0</ele><time>2026-04-26T15:30:39.999Z</time></trkpt><trkpt lat="49.33596502020796" lon="0.4258471537738865"><ele>56.00000000000001</ele><time>2026-04-26T15:30:40.999Z</time></trkpt><trkpt lat="49.336013761393254" lon="0.4259900719996173"><ele>56.0</ele><time>2026-04-26T15:30:41.999Z</time></trkpt><trkpt lat="49.336055343012525" lon="0.42611477589879115"><ele>56.0</ele><time>2026-04-26T15:30:42.999Z</time></trkpt><trkpt lat="49.33609197830078" lon="0.426229422476269"><ele>56.0</ele><time>2026-04-26T15:30:43.999Z</time></trkpt><trkpt lat="49.33612501802828" lon="0.42633281705718123"><ele>56.00000000000001</ele><time>2026-04-26T15:30:44.999Z</time></trkpt><trkpt lat="49.33615567758365" lon="0.42642860958471285"><ele>56.0</ele><time>2026-04-26T15:30:45.999Z</time></trkpt><trkpt lat="49.33619864833667" lon="0.4265551516438377"><ele>56.0</ele><time>2026-04-26T15:30:46.999Z</time></trkpt><trkpt lat="49.336268701048674" lon="0.42676349508909855"><ele>56.0</ele><time>2026-04-26T15:30:47.999Z</time></trkpt><trkpt lat="49.33636267111076" lon="0.42700149136406323"><ele>56.0</ele><time>2026-04-26T15:30:48.999Z</time></trkpt><trkpt lat="49.336430998615604" lon="0.42728356471328366"><ele>55.333333333333336</ele><time>2026-04-26T15:30:49.999Z</time></trkpt><trkpt lat="49.33650877406969" lon="0.42754279412396556"><ele>54.66666666666667</ele><time>2026-04-26T15:30:50.999Z</time></trkpt><trkpt lat="49.33657149647068" lon="0.42775644885382313"><ele>54.0</ele><time>2026-04-26T15:30:51.999Z</time></trkpt><trkpt lat="49.33662603854481" lon="0.4279431818783728"><ele>55.0</ele><time>2026-04-26T15:30:52.999Z</time></trkpt><trkpt lat="49.33667631398777" lon="0.4281153073989832"><ele>56.0</ele><time>2026-04-26T15:30:53.999Z</time></trkpt><trkpt lat="49.336723073006446" lon="0.42827539398929604"><ele>57.0</ele><time>2026-04-26T15:30:54.999Z</time></trkpt><trkpt lat="49.33677604775594" lon="0.4284567610169004"><ele>58.0</ele><time>2026-04-26T15:30:55.999Z</time></trkpt><trkpt lat="49.33684572323907" lon="0.42869085236233734"><ele>58.75</ele><time>2026-04-26T15:30:56.999Z</time></trkpt><trkpt lat="49.3369081993175" lon="0.42888972556675337"><ele>59.5</ele><time>2026-04-26T15:30:57.999Z</time></trkpt><trkpt lat="49.336963426175416" lon="0.4290633690574413"><ele>60.25</ele><time>2026-04-26T15:30:58.999Z</time></trkpt><trkpt lat="49.33702822451452" lon="0.4292090764138564"><ele>61.0</ele><time>2026-04-26T15:30:59.999Z</time></trkpt><trkpt lat="49.33707417374081" lon="0.42935926556098025"><ele>61.0</ele><time>2026-04-26T15:31:00.999Z</time></trkpt><trkpt lat="49.33712854381636" lon="0.42953854681155207"><ele>61.0</ele><time>2026-04-26T15:31:01.999Z</time></trkpt><trkpt lat="49.33719146687686" lon="0.4297495557340949"><ele>61.0</ele><time>2026-04-26T15:31:02.999Z</time></trkpt><trkpt lat="49.33724564685619" lon="0.42993501790912225"><ele>61.0</ele><time>2026-04-26T15:31:03.999Z</time></trkpt><trkpt lat="49.33729257764715" lon="0.43009337346014653"><ele>61.0</ele><time>2026-04-26T15:31:04.999Z</time></trkpt><trkpt lat="49.33734322725806" lon="0.4302668624353063"><ele>61.0</ele><time>2026-04-26T15:31:05.999Z</time></trkpt><trkpt lat="49.33739160723147" lon="0.4304336198949232"><ele>61.0</ele><time>2026-04-26T15:31:06.999Z</time></trkpt><trkpt lat="49.33743399162055" lon="0.4305785938208417"><ele>61.0</ele><time>2026-04-26T15:31:07.999Z</time></trkpt><trkpt lat="49.33747542986535" lon="0.43072923133206664"><ele>61.0</ele><time>2026-04-26T15:31:08.999Z</time></trkpt><trkpt lat="49.33753895849034" lon="0.4309478822575442"><ele>61.0</ele><time>2026-04-26T15:31:09.999Z</time></trkpt><trkpt lat="49.33762051770629" lon="0.4312309814095944"><ele>61.0</ele><time>2026-04-26T15:31:10.999Z</time></trkpt><trkpt lat="49.337705132409" lon="0.4315361911537698"><ele>64.0</ele><time>2026-04-26T15:31:11.999Z</time></trkpt><trkpt lat="49.337784587388434" lon="0.43180014747701867"><ele>67.0</ele><time>2026-04-26T15:31:12.999Z</time></trkpt><trkpt lat="49.337850464891574" lon="0.4320307284101866"><ele>70.0</ele><time>2026-04-26T15:31:13.999Z</time></trkpt><trkpt lat="49.337907480257755" lon="0.4322384756109993"><ele>68.8</ele><time>2026-04-26T15:31:14.999Z</time></trkpt><trkpt lat="49.337962652268835" lon="0.43242109809840507"><ele>67.6</ele><time>2026-04-26T15:31:15.999Z</time></trkpt><trkpt lat="49.33801270677491" lon="0.4325834077664067"><ele>66.4</ele><time>2026-04-26T15:31:16.999Z</time></trkpt><trkpt lat="49.33805053514777" lon="0.4327252632083792"><ele>65.2</ele><time>2026-04-26T15:31:17.999Z</time></trkpt><trkpt lat="49.33808127975764" lon="0.4328489955654011"><ele>64.0</ele><time>2026-04-26T15:31:18.999Z</time></trkpt><trkpt lat="49.33811116558417" lon="0.4329560398170277"><ele>65.33333333333333</ele><time>2026-04-26T15:31:19.999Z</time></trkpt><trkpt lat="49.3381415565474" lon="0.4330622106435152"><ele>66.66666666666666</ele><time>2026-04-26T15:31:20.999Z</time></trkpt><trkpt lat="49.338175966586356" lon="0.43319746160600303"><ele>68.0</ele><time>2026-04-26T15:31:21.999Z</time></trkpt><trkpt lat="49.338211106601875" lon="0.4333019409137696"><ele>69.33333333333333</ele><time>2026-04-26T15:31:22.999Z</time></trkpt><trkpt lat="49.33823205745321" lon="0.43340310050570807"><ele>70.66666666666667</ele><time>2026-04-26T15:31:23.999Z</time></trkpt><trkpt lat="49.33825584294009" lon="0.4335139087172196"><ele>72.0</ele><time>2026-04-26T15:31:24.999Z</time></trkpt><trkpt lat="49.33828383358925" lon="0.4336801035539413"><ele>72.0</ele><time>2026-04-26T15:31:26.999Z</time></trkpt><trkpt lat="49.338312625528" lon="0.4337885584620948"><ele>72.0</ele><time>2026-04-26T15:31:28.999Z</time></trkpt><trkpt lat="49.33842924612424" lon="0.43380444860122686"><ele>72.0</ele><time>2026-04-26T15:31:31.999Z</time></trkpt><trkpt lat="49.33851303202252" lon="0.43384247828502337"><ele>72.0</ele><time>2026-04-26T15:31:33.998Z</time></trkpt><trkpt lat="49.33859134774005" lon="0.43390581284210195"><ele>72.0</ele><time>2026-04-26T15:31:35.998Z</time></trkpt><trkpt lat="49.3386815540215" lon="0.4339718557096505"><ele>72.16666666666667</ele><time>2026-04-26T15:31:37.998Z</time></trkpt><trkpt lat="49.338782966108866" lon="0.4340698873087887"><ele>72.33333333333333</ele><time>2026-04-26T15:31:39.998Z</time></trkpt><trkpt lat="49.338861762439265" lon="0.43413474538392993"><ele>72.5</ele><time>2026-04-26T15:31:40.998Z</time></trkpt><trkpt lat="49.338929945568005" lon="0.4342025252480473"><ele>72.66666666666666</ele><time>2026-04-26T15:31:41.998Z</time></trkpt><trkpt lat="49.3389930427227" lon="0.43426507404466624"><ele>72.83333333333333</ele><time>2026-04-26T15:31:42.998Z</time></trkpt><trkpt lat="49.33905682459942" lon="0.4343237053603605"><ele>73.0</ele><time>2026-04-26T15:31:43.998Z</time></trkpt><trkpt lat="49.33911942357347" lon="0.43438060001926726"><ele>72.0</ele><time>2026-04-26T15:31:44.998Z</time></trkpt><trkpt lat="49.339178304430476" lon="0.43444004000152114"><ele>71.0</ele><time>2026-04-26T15:31:45.998Z</time></trkpt><trkpt lat="49.33923835612955" lon="0.43449373851168815"><ele>70.0</ele><time>2026-04-26T15:31:46.998Z</time></trkpt><trkpt lat="49.33934419847703" lon="0.4345770981492038"><ele>69.0</ele><time>2026-04-26T15:31:48.998Z</time></trkpt><trkpt lat="49.3394534946946" lon="0.4346444658014135"><ele>68.0</ele><time>2026-04-26T15:31:50.998Z</time></trkpt><trkpt lat="49.339520307339455" lon="0.4347148871560694"><ele>68.0</ele><time>2026-04-26T15:31:52.998Z</time></trkpt><trkpt lat="49.33951621784554" lon="0.4348165116591792"><ele>68.0</ele><time>2026-04-26T15:33:23.999Z</time></trkpt><trkpt lat="49.33950976639068" lon="0.4349581789344898"><ele>68.0</ele><time>2026-04-26T15:33:25.999Z</time></trkpt><trkpt lat="49.33950792880553" lon="0.435137626851724"><ele>68.0</ele><time>2026-04-26T15:33:27.999Z</time></trkpt><trkpt lat="49.33947501885065" lon="0.43525329418936465"><ele>68.0</ele><time>2026-04-26T15:33:28.999Z</time></trkpt><trkpt lat="49.339478744661825" lon="0.4353701885290478"><ele>68.0</ele><time>2026-04-26T15:33:29.999Z</time></trkpt><trkpt lat="49.339443923807146" lon="0.43552106477132574"><ele>67.16666666666667</ele><time>2026-04-26T15:33:30.999Z</time></trkpt><trkpt lat="49.33943473349198" lon="0.43566998186923145"><ele>66.33333333333334</ele><time>2026-04-26T15:33:31.999Z</time></trkpt><trkpt lat="49.33940837369439" lon="0.43579601509069016"><ele>65.5</ele><time>2026-04-26T15:33:32.999Z</time></trkpt><trkpt lat="49.33937710174888" lon="0.4359084756751419"><ele>64.66666666666667</ele><time>2026-04-26T15:33:33.999Z</time></trkpt><trkpt lat="49.33933727103458" lon="0.4360259934370662"><ele>63.833333333333336</ele><time>2026-04-26T15:33:34.998Z</time></trkpt><trkpt lat="49.33929232321075" lon="0.4361378825790407"><ele>63.0</ele><time>2026-04-26T15:33:35.998Z</time></trkpt><trkpt lat="49.33925063008771" lon="0.4362580620357986"><ele>62.4</ele><time>2026-04-26T15:33:36.998Z</time></trkpt><trkpt lat="49.33919524464066" lon="0.43637649206606904"><ele>61.8</ele><time>2026-04-26T15:33:37.998Z</time></trkpt><trkpt lat="49.33914041429549" lon="0.43650213314313624"><ele>61.2</ele><time>2026-04-26T15:33:38.998Z</time></trkpt><trkpt lat="49.339074959047046" lon="0.4366872948171322"><ele>60.6</ele><time>2026-04-26T15:33:39.998Z</time></trkpt><trkpt lat="49.3390252370599" lon="0.43685036910195335"><ele>60.0</ele><time>2026-04-26T15:33:40.998Z</time></trkpt><trkpt lat="49.338976955641286" lon="0.43701959409354413"><ele>59.25</ele><time>2026-04-26T15:33:41.998Z</time></trkpt><trkpt lat="49.33891808924164" lon="0.43724493665675845"><ele>58.5</ele><time>2026-04-26T15:33:42.998Z</time></trkpt><trkpt lat="49.338861355481015" lon="0.43744043070258126"><ele>57.75</ele><time>2026-04-26T15:33:43.998Z</time></trkpt><trkpt lat="49.338814999089536" lon="0.4376091898578917"><ele>57.0</ele><time>2026-04-26T15:33:44.998Z</time></trkpt><trkpt lat="49.338778704738615" lon="0.43775818420715923"><ele>58.2</ele><time>2026-04-26T15:33:45.998Z</time></trkpt><trkpt lat="49.33873258229218" lon="0.4378967929378927"><ele>59.400000000000006</ele><time>2026-04-26T15:33:46.998Z</time></trkpt><trkpt lat="49.33867578178143" lon="0.4380114800853416"><ele>60.599999999999994</ele><time>2026-04-26T15:33:47.998Z</time></trkpt><trkpt lat="49.338618450093016" lon="0.4381242925840298"><ele>61.8</ele><time>2026-04-26T15:33:48.998Z</time></trkpt><trkpt lat="49.338563466137174" lon="0.4382243925725539"><ele>63.0</ele><time>2026-04-26T15:33:49.998Z</time></trkpt><trkpt lat="49.338502193364086" lon="0.4383074619308709"><ele>63.0</ele><time>2026-04-26T15:33:50.998Z</time></trkpt><trkpt lat="49.338446448892846" lon="0.4383961403501109"><ele>63.0</ele><time>2026-04-26T15:33:51.998Z</time></trkpt><trkpt lat="49.33840244231188" lon="0.43848242702732787"><ele>63.0</ele><time>2026-04-26T15:33:52.998Z</time></trkpt><trkpt lat="49.33835651486819" lon="0.4385702535961248"><ele>63.0</ele><time>2026-04-26T15:33:53.998Z</time></trkpt><trkpt lat="49.33830154790426" lon="0.43864571080194514"><ele>63.0</ele><time>2026-04-26T15:33:54.998Z</time></trkpt><trkpt lat="49.33825201905854" lon="0.43872523604850144"><ele>63.0</ele><time>2026-04-26T15:33:55.998Z</time></trkpt><trkpt lat="49.33820442008804" lon="0.4388170157516389"><ele>63.0</ele><time>2026-04-26T15:33:56.998Z</time></trkpt><trkpt lat="49.338143749162036" lon="0.438939855039161"><ele>63.0</ele><time>2026-04-26T15:33:57.998Z</time></trkpt><trkpt lat="49.33806080667802" lon="0.43902757815988375"><ele>63.0</ele><time>2026-04-26T15:33:58.998Z</time></trkpt><trkpt lat="49.33800649773479" lon="0.4391277300715791"><ele>63.0</ele><time>2026-04-26T15:33:59.998Z</time></trkpt><trkpt lat="49.337964700529724" lon="0.43921294842928155"><ele>63.0</ele><time>2026-04-26T15:34:00.998Z</time></trkpt><trkpt lat="49.337919673199686" lon="0.43931061874927146"><ele>63.0</ele><time>2026-04-26T15:34:01.998Z</time></trkpt><trkpt lat="49.33787610528668" lon="0.4394045446254881"><ele>63.0</ele><time>2026-04-26T15:34:02.998Z</time></trkpt><trkpt lat="49.33783895483359" lon="0.4394832453338207"><ele>62.5</ele><time>2026-04-26T15:34:04Z</time></trkpt><trkpt lat="49.337919351116135" lon="0.4396681400527321"><ele>62.0</ele><time>2026-04-26T15:34:07Z</time></trkpt><trkpt lat="49.33798456164433" lon="0.4397405262294515"><ele>61.5</ele><time>2026-04-26T15:34:10Z</time></trkpt><trkpt lat="49.33803685641882" lon="0.4397959413939257"><ele>61.0</ele><time>2026-04-26T15:34:12Z</time></trkpt><trkpt lat="49.338095007641094" lon="0.43985594951883383"><ele>60.5</ele><time>2026-04-26T15:34:15Z</time></trkpt><trkpt lat="49.33815854434702" lon="0.4399339547533535"><ele>60.0</ele><time>2026-04-26T15:34:18Z</time></trkpt><trkpt lat="49.338225793672095" lon="0.4400022065677767"><ele>58.8</ele><time>2026-04-26T15:34:21Z</time></trkpt><trkpt lat="49.338294876110844" lon="0.44008281660917237"><ele>57.6</ele><time>2026-04-26T15:34:24Z</time></trkpt><trkpt lat="49.33838562070839" lon="0.440199648023893"><ele>56.400000000000006</ele><time>2026-04-26T15:34:26Z</time></trkpt><trkpt lat="49.33842887074266" lon="0.44034595485014727"><ele>55.2</ele><time>2026-04-26T15:34:28Z</time></trkpt><trkpt lat="49.33849886779412" lon="0.4404789545909381"><ele>54.0</ele><time>2026-04-26T15:34:30Z</time></trkpt><trkpt lat="49.33852825663571" lon="0.4405676495697457"><ele>54.0</ele><time>2026-04-26T15:34:31Z</time></trkpt><trkpt lat="49.33855807097367" lon="0.4406632760237337"><ele>54.0</ele><time>2026-04-26T15:34:32Z</time></trkpt><trkpt lat="49.33859110559484" lon="0.44076131047177275"><ele>54.0</ele><time>2026-04-26T15:34:33Z</time></trkpt><trkpt lat="49.338625233652834" lon="0.4408693045644138"><ele>54.0</ele><time>2026-04-26T15:34:34Z</time></trkpt><trkpt lat="49.3386595971256" lon="0.44098772985091056"><ele>54.0</ele><time>2026-04-26T15:34:35Z</time></trkpt><trkpt lat="49.33868993864193" lon="0.44111419720788886"><ele>54.0</ele><time>2026-04-26T15:34:35.999Z</time></trkpt><trkpt lat="49.338728237700934" lon="0.4412429508705334"><ele>53.6</ele><time>2026-04-26T15:34:36.999Z</time></trkpt><trkpt lat="49.33877011554377" lon="0.44137693934667"><ele>53.2</ele><time>2026-04-26T15:34:37.999Z</time></trkpt><trkpt lat="49.338827334531594" lon="0.4415036206113073"><ele>52.800000000000004</ele><time>2026-04-26T15:34:38.999Z</time></trkpt><trkpt lat="49.338885523296426" lon="0.44162904225492317"><ele>52.400000000000006</ele><time>2026-04-26T15:34:39.999Z</time></trkpt><trkpt lat="49.33895488729832" lon="0.44176140234331934"><ele>52.0</ele><time>2026-04-26T15:34:40.999Z</time></trkpt><trkpt lat="49.33905863394038" lon="0.4419259329876926"><ele>51.0</ele><time>2026-04-26T15:34:41.999Z</time></trkpt><trkpt lat="49.33914568550516" lon="0.4421123654169204"><ele>50.0</ele><time>2026-04-26T15:34:42.999Z</time></trkpt><trkpt lat="49.33920312536053" lon="0.4422796001996595"><ele>49.0</ele><time>2026-04-26T15:34:43.999Z</time></trkpt><trkpt lat="49.33924063023375" lon="0.44242369117792957"><ele>48.0</ele><time>2026-04-26T15:34:44.999Z</time></trkpt><trkpt lat="49.339263803947034" lon="0.442550441959919"><ele>49.8</ele><time>2026-04-26T15:34:45.999Z</time></trkpt><trkpt lat="49.339291062928005" lon="0.44268773354540486"><ele>51.599999999999994</ele><time>2026-04-26T15:34:46.999Z</time></trkpt><trkpt lat="49.33931230440499" lon="0.442801758662476"><ele>53.400000000000006</ele><time>2026-04-26T15:34:47.999Z</time></trkpt><trkpt lat="49.33933741294325" lon="0.4429550789458861"><ele>55.2</ele><time>2026-04-26T15:34:48.999Z</time></trkpt><trkpt lat="49.339381412421254" lon="0.44315440812665263"><ele>57.0</ele><time>2026-04-26T15:34:49.999Z</time></trkpt><trkpt lat="49.339395436007734" lon="0.4433750333337822"><ele>59.5</ele><time>2026-04-26T15:34:50.999Z</time></trkpt><trkpt lat="49.33943813194206" lon="0.4436092332195976"><ele>62.0</ele><time>2026-04-26T15:34:51.999Z</time></trkpt><trkpt lat="49.3394486213548" lon="0.44386211360196637"><ele>64.5</ele><time>2026-04-26T15:34:52.999Z</time></trkpt><trkpt lat="49.33946256122996" lon="0.4440302074657921"><ele>67.0</ele><time>2026-04-26T15:34:53.999Z</time></trkpt><trkpt lat="49.33947450172076" lon="0.44419328814327835"><ele>68.8</ele><time>2026-04-26T15:34:54.999Z</time></trkpt><trkpt lat="49.339484744411514" lon="0.44436601993412733"><ele>70.6</ele><time>2026-04-26T15:34:55.999Z</time></trkpt><trkpt lat="49.33949320595845" lon="0.4445339440177529"><ele>72.39999999999999</ele><time>2026-04-26T15:34:56.999Z</time></trkpt><trkpt lat="49.339498940250586" lon="0.44467590362688436"><ele>74.2</ele><time>2026-04-26T15:34:57.999Z</time></trkpt><trkpt lat="49.33950550410412" lon="0.4448460308556785"><ele>76.0</ele><time>2026-04-26T15:34:58.999Z</time></trkpt><trkpt lat="49.33951164394413" lon="0.4450156714793109"><ele>79.19999999999999</ele><time>2026-04-26T15:34:59.999Z</time></trkpt><trkpt lat="49.33951629217814" lon="0.4451552697344382"><ele>82.39999999999999</ele><time>2026-04-26T15:35:00.999Z</time></trkpt><trkpt lat="49.339519594016444" lon="0.4452544326314704"><ele>85.6</ele><time>2026-04-26T15:35:01.999Z</time></trkpt><trkpt lat="49.33952567033345" lon="0.4454369202685069"><ele>88.8</ele><time>2026-04-26T15:35:03.999Z</time></trkpt><trkpt lat="49.33952921255801" lon="0.4455543030761549"><ele>92.0</ele><time>2026-04-26T15:35:04.999Z</time></trkpt><trkpt lat="49.33953394704881" lon="0.44572661851068257"><ele>96.0</ele><time>2026-04-26T15:35:05.999Z</time></trkpt><trkpt lat="49.33953908722771" lon="0.4459136990374532"><ele>100.0</ele><time>2026-04-26T15:35:06.999Z</time></trkpt><trkpt lat="49.33954319308658" lon="0.4460631356689422"><ele>104.0</ele><time>2026-04-26T15:35:07.999Z</time></trkpt><trkpt lat="49.33956394551809" lon="0.446231295260569"><ele>108.0</ele><time>2026-04-26T15:35:08.999Z</time></trkpt><trkpt lat="49.33955455446095" lon="0.44647044811741887"><ele>108.75</ele><time>2026-04-26T15:35:09.999Z</time></trkpt><trkpt lat="49.33956393332302" lon="0.44673734012174204"><ele>109.5</ele><time>2026-04-26T15:35:10.999Z</time></trkpt><trkpt lat="49.33957227105139" lon="0.44696880536508254"><ele>110.25</ele><time>2026-04-26T15:35:11.999Z</time></trkpt><trkpt lat="49.33957823891012" lon="0.44715487571414547"><ele>111.0</ele><time>2026-04-26T15:35:12.999Z</time></trkpt><trkpt lat="49.33958114490519" lon="0.4473220537442348"><ele>111.0</ele><time>2026-04-26T15:35:13.999Z</time></trkpt><trkpt lat="49.339579820147506" lon="0.4475055059948561"><ele>111.0</ele><time>2026-04-26T15:35:14.999Z</time></trkpt><trkpt lat="49.339573776923324" lon="0.44766712968158484"><ele>111.0</ele><time>2026-04-26T15:35:15.999Z</time></trkpt><trkpt lat="49.339563967281414" lon="0.447786999747427"><ele>111.0</ele><time>2026-04-26T15:35:16.999Z</time></trkpt><trkpt lat="49.33954735982841" lon="0.44795292004248405"><ele>111.0</ele><time>2026-04-26T15:35:18.999Z</time></trkpt><trkpt lat="49.33952652798218" lon="0.44812060859577074"><ele>111.6</ele><time>2026-04-26T15:35:19.999Z</time></trkpt><trkpt lat="49.339509144076345" lon="0.44822362495732543"><ele>112.19999999999999</ele><time>2026-04-26T15:35:20.999Z</time></trkpt><trkpt lat="49.339478157228605" lon="0.44840145535118686"><ele>112.80000000000001</ele><time>2026-04-26T15:35:22.999Z</time></trkpt><trkpt lat="49.33947407203081" lon="0.44851238127766585"><ele>113.4</ele><time>2026-04-26T15:35:24.999Z</time></trkpt><trkpt lat="49.33960704973833" lon="0.44844383503392016"><ele>114.0</ele><time>2026-04-26T15:35:27.999Z</time></trkpt><trkpt lat="49.33963770076873" lon="0.44834218631367584"><ele>114.0</ele><time>2026-04-26T15:35:28.999Z</time></trkpt><trkpt lat="49.33969492829902" lon="0.4482069150814727"><ele>114.0</ele><time>2026-04-26T15:35:29.999Z</time></trkpt><trkpt lat="49.33975060961571" lon="0.4480725427416727"><ele>114.0</ele><time>2026-04-26T15:35:30.999Z</time></trkpt><trkpt lat="49.33981518420141" lon="0.4479142862819612"><ele>114.0</ele><time>2026-04-26T15:35:31.999Z</time></trkpt><trkpt lat="49.33988209029934" lon="0.44776644226296564"><ele>114.0</ele><time>2026-04-26T15:35:32.999Z</time></trkpt><trkpt lat="49.339951460881636" lon="0.4476285457010692"><ele>114.16666666666667</ele><time>2026-04-26T15:35:33.999Z</time></trkpt><trkpt lat="49.34001419378447" lon="0.44749267828766354"><ele>114.33333333333334</ele><time>2026-04-26T15:35:34.999Z</time></trkpt><trkpt lat="49.34007170627864" lon="0.44738361029764734"><ele>114.5</ele><time>2026-04-26T15:35:35.999Z</time></trkpt><trkpt lat="49.340120256824605" lon="0.4472783778197777"><ele>114.66666666666667</ele><time>2026-04-26T15:35:36.999Z</time></trkpt><trkpt lat="49.34016913945686" lon="0.44718044084585973"><ele>114.83333333333334</ele><time>2026-04-26T15:35:37.999Z</time></trkpt><trkpt lat="49.340216076748014" lon="0.4470740172869863"><ele>115.0</ele><time>2026-04-26T15:35:38.999Z</time></trkpt><trkpt lat="49.34025726000265" lon="0.446934574303779"><ele>115.0</ele><time>2026-04-26T15:35:39.999Z</time></trkpt><trkpt lat="49.34032115107323" lon="0.4468048169788998"><ele>115.0</ele><time>2026-04-26T15:35:40.999Z</time></trkpt><trkpt lat="49.34037077050561" lon="0.44666185927049207"><ele>115.0</ele><time>2026-04-26T15:35:41.999Z</time></trkpt><trkpt lat="49.340411787144006" lon="0.4465379597917887"><ele>115.0</ele><time>2026-04-26T15:35:42.998Z</time></trkpt><trkpt lat="49.340452136313765" lon="0.44641148844927947"><ele>115.0</ele><time>2026-04-26T15:35:43.998Z</time></trkpt><trkpt lat="49.3405099684656" lon="0.4462184148499141"><ele>115.33333333333334</ele><time>2026-04-26T15:35:45.998Z</time></trkpt><trkpt lat="49.34053776476343" lon="0.4461198780958099"><ele>115.66666666666667</ele><time>2026-04-26T15:35:46.998Z</time></trkpt><trkpt lat="49.3405606467022" lon="0.4460122303285333"><ele>116.0</ele><time>2026-04-26T15:35:47.998Z</time></trkpt><trkpt lat="49.34059158454047" lon="0.4459040483971565"><ele>116.33333333333334</ele><time>2026-04-26T15:35:48.998Z</time></trkpt><trkpt lat="49.340628489154625" lon="0.445765781888295"><ele>116.66666666666667</ele><time>2026-04-26T15:35:49.998Z</time></trkpt><trkpt lat="49.34068741123495" lon="0.44561155313022893"><ele>117.0</ele><time>2026-04-26T15:35:50.998Z</time></trkpt><trkpt lat="49.34074773448461" lon="0.44547727034854334"><ele>116.19999999999999</ele><time>2026-04-26T15:35:51.998Z</time></trkpt><trkpt lat="49.34079783859534" lon="0.44536243515343815"><ele>115.39999999999999</ele><time>2026-04-26T15:35:52.998Z</time></trkpt><trkpt lat="49.34084275335118" lon="0.4452574977133178"><ele>114.60000000000001</ele><time>2026-04-26T15:35:53.998Z</time></trkpt><trkpt lat="49.34090408479134" lon="0.4451257737840018"><ele>113.80000000000001</ele><time>2026-04-26T15:35:54.998Z</time></trkpt><trkpt lat="49.34097506311852" lon="0.44500453942316187"><ele>113.0</ele><time>2026-04-26T15:35:55.998Z</time></trkpt><trkpt lat="49.34101126084394" lon="0.4448714033290189"><ele>112.99999999999999</ele><time>2026-04-26T15:35:56.998Z</time></trkpt><trkpt lat="49.341057422883125" lon="0.4447551107854178"><ele>113.0</ele><time>2026-04-26T15:35:57.998Z</time></trkpt><trkpt lat="49.34111023202278" lon="0.4446588978076855"><ele>113.0</ele><time>2026-04-26T15:35:58.998Z</time></trkpt><trkpt lat="49.341131409237" lon="0.4445504901934831"><ele>113.0</ele><time>2026-04-26T15:35:59.998Z</time></trkpt><trkpt lat="49.341169551571376" lon="0.4444546143506735"><ele>112.99999999999999</ele><time>2026-04-26T15:36:00.998Z</time></trkpt><trkpt lat="49.34122392740971" lon="0.4443631897595653"><ele>113.0</ele><time>2026-04-26T15:36:01.998Z</time></trkpt><trkpt lat="49.34126805132386" lon="0.4442593559508382"><ele>113.2</ele><time>2026-04-26T15:36:02.998Z</time></trkpt><trkpt lat="49.341314720431996" lon="0.4441548875307912"><ele>113.4</ele><time>2026-04-26T15:36:03.998Z</time></trkpt><trkpt lat="49.34136752857853" lon="0.44403841621713586"><ele>113.60000000000001</ele><time>2026-04-26T15:36:04.998Z</time></trkpt><trkpt lat="49.34142844673847" lon="0.4439122079387213"><ele>113.80000000000001</ele><time>2026-04-26T15:36:05.998Z</time></trkpt><trkpt lat="49.34148784332169" lon="0.4437947548841638"><ele>114.0</ele><time>2026-04-26T15:36:06.998Z</time></trkpt><trkpt lat="49.34155083062247" lon="0.4436656477134629"><ele>113.6</ele><time>2026-04-26T15:36:07.998Z</time></trkpt><trkpt lat="49.34161149489509" lon="0.44352916795071645"><ele>113.2</ele><time>2026-04-26T15:36:08.998Z</time></trkpt><trkpt lat="49.34166434510688" lon="0.4433994101849716"><ele>112.79999999999998</ele><time>2026-04-26T15:36:10Z</time></trkpt><trkpt lat="49.34170111933135" lon="0.4432660122037579"><ele>112.39999999999999</ele><time>2026-04-26T15:36:11Z</time></trkpt><trkpt lat="49.34174369176388" lon="0.4431579676669222"><ele>112.0</ele><time>2026-04-26T15:36:12Z</time></trkpt><trkpt lat="49.34179119509751" lon="0.44305120581783913"><ele>111.8</ele><time>2026-04-26T15:36:13Z</time></trkpt><trkpt lat="49.34184909227768" lon="0.44293205043180817"><ele>111.6</ele><time>2026-04-26T15:36:14Z</time></trkpt><trkpt lat="49.34192135400452" lon="0.44281597921865856"><ele>111.39999999999999</ele><time>2026-04-26T15:36:15Z</time></trkpt><trkpt lat="49.34197397788471" lon="0.4427040346802167"><ele>111.19999999999999</ele><time>2026-04-26T15:36:16Z</time></trkpt><trkpt lat="49.34201686265226" lon="0.4426129226237252"><ele>111.0</ele><time>2026-04-26T15:36:17Z</time></trkpt><trkpt lat="49.34206743526936" lon="0.44250431823470426"><ele>111.0</ele><time>2026-04-26T15:36:18Z</time></trkpt><trkpt lat="49.34211674825122" lon="0.4423934558681977"><ele>111.0</ele><time>2026-04-26T15:36:19Z</time></trkpt><trkpt lat="49.3421687513898" lon="0.4422570681108987"><ele>111.0</ele><time>2026-04-26T15:36:20Z</time></trkpt><trkpt lat="49.342219129587995" lon="0.4421150191226108"><ele>111.0</ele><time>2026-04-26T15:36:21Z</time></trkpt><trkpt lat="49.342267638665504" lon="0.44199369436134406"><ele>111.0</ele><time>2026-04-26T15:36:22Z</time></trkpt><trkpt lat="49.34232328440351" lon="0.44188894610197843"><ele>111.66666666666667</ele><time>2026-04-26T15:36:23Z</time></trkpt><trkpt lat="49.34238052194159" lon="0.44181473703274327"><ele>112.33333333333334</ele><time>2026-04-26T15:36:24Z</time></trkpt><trkpt lat="49.34243887578021" lon="0.441773834917588"><ele>113.0</ele><time>2026-04-26T15:36:25Z</time></trkpt><trkpt lat="49.34255780661023" lon="0.44183476692371826"><ele>113.66666666666667</ele><time>2026-04-26T15:36:27Z</time></trkpt><trkpt lat="49.34262249914316" lon="0.4418723338012523"><ele>114.33333333333334</ele><time>2026-04-26T15:36:28Z</time></trkpt><trkpt lat="49.34269043170305" lon="0.4419153811622875"><ele>115.0</ele><time>2026-04-26T15:36:29Z</time></trkpt><trkpt lat="49.342764803184984" lon="0.44196141621737606"><ele>115.0</ele><time>2026-04-26T15:36:30Z</time></trkpt><trkpt lat="49.34286034906311" lon="0.44201313927956865"><ele>115.0</ele><time>2026-04-26T15:36:31Z</time></trkpt><trkpt lat="49.34296663657859" lon="0.44206588631785515"><ele>115.0</ele><time>2026-04-26T15:36:32Z</time></trkpt><trkpt lat="49.34311702994538" lon="0.4421141206477865"><ele>115.0</ele><time>2026-04-26T15:36:33Z</time></trkpt><trkpt lat="49.34324106044898" lon="0.44220155171839076"><ele>114.66666666666667</ele><time>2026-04-26T15:36:34Z</time></trkpt><trkpt lat="49.343370888933606" lon="0.44227659992388896"><ele>114.33333333333334</ele><time>2026-04-26T15:36:35Z</time></trkpt><trkpt lat="49.34355886030444" lon="0.4423794367005986"><ele>114.0</ele><time>2026-04-26T15:36:36Z</time></trkpt><trkpt lat="49.343747994987865" lon="0.4424543555008946"><ele>114.75</ele><time>2026-04-26T15:36:37Z</time></trkpt><trkpt lat="49.34390638569704" lon="0.4425130698685615"><ele>115.5</ele><time>2026-04-26T15:36:37.999Z</time></trkpt><trkpt lat="49.34404595532855" lon="0.4426005342234305"><ele>116.25</ele><time>2026-04-26T15:36:38.999Z</time></trkpt><trkpt lat="49.344147321452034" lon="0.4426519862005131"><ele>117.0</ele><time>2026-04-26T15:36:39.999Z</time></trkpt><trkpt lat="49.34421215747421" lon="0.44268530208838663"><ele>117.0</ele><time>2026-04-26T15:36:40.999Z</time></trkpt><trkpt lat="49.34428346595491" lon="0.44269570815090264"><ele>116.99999999999999</ele><time>2026-04-26T15:36:41.999Z</time></trkpt><trkpt lat="49.34438733984769" lon="0.44277531953413213"><ele>116.99999999999999</ele><time>2026-04-26T15:36:43.999Z</time></trkpt><trkpt lat="49.344472205239434" lon="0.44279269044475916"><ele>117.0</ele><time>2026-04-26T15:36:45.999Z</time></trkpt><trkpt lat="49.34439883309443" lon="0.4427803693219458"><ele>117.0</ele><time>2026-04-26T15:36:51.999Z</time></trkpt><trkpt lat="49.34429450534981" lon="0.4426992691034051"><ele>117.0</ele><time>2026-04-26T15:36:53.999Z</time></trkpt><trkpt lat="49.34422305050059" lon="0.4426547196879867"><ele>117.0</ele><time>2026-04-26T15:36:54.999Z</time></trkpt><trkpt lat="49.34415787260521" lon="0.4426129310977085"><ele>117.0</ele><time>2026-04-26T15:36:55.999Z</time></trkpt><trkpt lat="49.34408473160022" lon="0.4425729348288627"><ele>117.0</ele><time>2026-04-26T15:36:56.999Z</time></trkpt><trkpt lat="49.343984729417464" lon="0.4425170936038891"><ele>117.0</ele><time>2026-04-26T15:36:57.999Z</time></trkpt><trkpt lat="49.343898694984375" lon="0.4424808438900808"><ele>117.0</ele><time>2026-04-26T15:36:58.999Z</time></trkpt><trkpt lat="49.34382616715722" lon="0.4424201792896755"><ele>116.5</ele><time>2026-04-26T15:36:59.999Z</time></trkpt><trkpt lat="49.34373884902652" lon="0.4423959772749222"><ele>116.0</ele><time>2026-04-26T15:37:00.999Z</time></trkpt><trkpt lat="49.34366360140268" lon="0.4423580758713346"><ele>115.5</ele><time>2026-04-26T15:37:01.999Z</time></trkpt><trkpt lat="49.34360553225768" lon="0.4423102927477404"><ele>115.0</ele><time>2026-04-26T15:37:03.999Z</time></trkpt><trkpt lat="49.34362391607595" lon="0.4421049141733702"><ele>114.5</ele><time>2026-04-26T15:37:06.999Z</time></trkpt><trkpt lat="49.34363977641708" lon="0.44200649791816676"><ele>114.0</ele><time>2026-04-26T15:37:07.999Z</time></trkpt><trkpt lat="49.34366541080935" lon="0.4419157570771503"><ele>114.0</ele><time>2026-04-26T15:37:08.999Z</time></trkpt><trkpt lat="49.343692115069324" lon="0.44174838230788815"><ele>114.0</ele><time>2026-04-26T15:37:10.999Z</time></trkpt><trkpt lat="49.34372082470073" lon="0.44160343586402645"><ele>114.0</ele><time>2026-04-26T15:37:12.999Z</time></trkpt><trkpt lat="49.3437181255603" lon="0.44148050288383855"><ele>114.0</ele><time>2026-04-26T15:37:14.999Z</time></trkpt><trkpt lat="49.34376413854825" lon="0.44133111464511204"><ele>114.0</ele><time>2026-04-26T15:37:16.999Z</time></trkpt><trkpt lat="49.34378129076585" lon="0.4412040708879784"><ele>113.4</ele><time>2026-04-26T15:37:18.999Z</time></trkpt><trkpt lat="49.34381756929525" lon="0.44107915277382864"><ele>112.80000000000001</ele><time>2026-04-26T15:37:20.999Z</time></trkpt><trkpt lat="49.34388610700653" lon="0.4409736818407439"><ele>112.19999999999999</ele><time>2026-04-26T15:37:22.999Z</time></trkpt><trkpt lat="49.34392053949527" lon="0.44082142768497995"><ele>111.6</ele><time>2026-04-26T15:37:25.999Z</time></trkpt><trkpt lat="49.343967500009015" lon="0.44066602283135187"><ele>111.0</ele><time>2026-04-26T15:37:27.999Z</time></trkpt><trkpt lat="49.34404629460114" lon="0.44054374574223437"><ele>109.8</ele><time>2026-04-26T15:37:29.999Z</time></trkpt><trkpt lat="49.34408207767733" lon="0.4403867215204698"><ele>108.6</ele><time>2026-04-26T15:37:31.999Z</time></trkpt><trkpt lat="49.34412015069119" lon="0.44023367743298003"><ele>107.4</ele><time>2026-04-26T15:37:33.999Z</time></trkpt><trkpt lat="49.34417703949106" lon="0.4400956245313676"><ele>106.2</ele><time>2026-04-26T15:37:35.999Z</time></trkpt><trkpt lat="49.34419038240515" lon="0.43990122340292676"><ele>105.0</ele><time>2026-04-26T15:37:37.999Z</time></trkpt><trkpt lat="49.34425371916357" lon="0.4397771720109918"><ele>103.6</ele><time>2026-04-26T15:37:39.999Z</time></trkpt><trkpt lat="49.34427056432176" lon="0.43960420411152457"><ele>102.2</ele><time>2026-04-26T15:37:41.999Z</time></trkpt><trkpt lat="49.3442312358949" lon="0.4394923391083016"><ele>100.80000000000001</ele><time>2026-04-26T15:37:43.999Z</time></trkpt><trkpt lat="49.34428555464023" lon="0.43934365540285647"><ele>99.4</ele><time>2026-04-26T15:37:46.998Z</time></trkpt><trkpt lat="49.34430027581453" lon="0.4391351809873317"><ele>98.0</ele><time>2026-04-26T15:37:48.998Z</time></trkpt><trkpt lat="49.34431851414363" lon="0.43902564157803103"><ele>98.0</ele><time>2026-04-26T15:37:49.998Z</time></trkpt><trkpt lat="49.34432043981115" lon="0.4388576251603622"><ele>98.0</ele><time>2026-04-26T15:37:51.998Z</time></trkpt><trkpt lat="49.344331880302114" lon="0.4387074748116774"><ele>98.0</ele><time>2026-04-26T15:37:53.998Z</time></trkpt><trkpt lat="49.344345614902046" lon="0.4385395592988089"><ele>98.0</ele><time>2026-04-26T15:37:55.998Z</time></trkpt><trkpt lat="49.34434977376699" lon="0.43838781646025476"><ele>98.0</ele><time>2026-04-26T15:37:57.998Z</time></trkpt><trkpt lat="49.34442249796334" lon="0.43824902059700527"><ele>97.16666666666666</ele><time>2026-04-26T15:37:59.998Z</time></trkpt><trkpt lat="49.34441546267132" lon="0.4381526728053417"><ele>96.33333333333333</ele><time>2026-04-26T15:38:00.998Z</time></trkpt><trkpt lat="49.34439213207876" lon="0.4379995752365992"><ele>95.5</ele><time>2026-04-26T15:38:01.998Z</time></trkpt><trkpt lat="49.34437722022539" lon="0.4378253565632796"><ele>94.66666666666666</ele><time>2026-04-26T15:38:03.998Z</time></trkpt><trkpt lat="49.344403626895556" lon="0.4377336034797231"><ele>93.83333333333333</ele><time>2026-04-26T15:38:04.998Z</time></trkpt><trkpt lat="49.3444187638422" lon="0.4376189558619005"><ele>93.0</ele><time>2026-04-26T15:38:05.998Z</time></trkpt><trkpt lat="49.344428458238596" lon="0.43751738638455195"><ele>91.60000000000001</ele><time>2026-04-26T15:38:06.998Z</time></trkpt><trkpt lat="49.34444284835003" lon="0.43736464873165043"><ele>90.2</ele><time>2026-04-26T15:38:08.998Z</time></trkpt><trkpt lat="49.34445256212041" lon="0.437191652642979"><ele>88.8</ele><time>2026-04-26T15:38:11.998Z</time></trkpt><trkpt lat="49.34442355234692" lon="0.4371053194103075"><ele>87.4</ele><time>2026-04-26T15:38:12.998Z</time></trkpt><trkpt lat="49.34438173431517" lon="0.4369586610829042"><ele>86.0</ele><time>2026-04-26T15:38:14.998Z</time></trkpt><trkpt lat="49.34433146126828" lon="0.4368265684025569"><ele>85.0</ele><time>2026-04-26T15:38:17Z</time></trkpt><trkpt lat="49.34428670980335" lon="0.43671077672610414"><ele>84.0</ele><time>2026-04-26T15:38:19Z</time></trkpt><trkpt lat="49.34425114728545" lon="0.43659888555335113"><ele>83.0</ele><time>2026-04-26T15:38:21Z</time></trkpt><trkpt lat="49.34420864918568" lon="0.43650949473074785"><ele>82.0</ele><time>2026-04-26T15:38:22Z</time></trkpt><trkpt lat="49.344186132028085" lon="0.4364159345456246"><ele>81.0</ele><time>2026-04-26T15:38:24Z</time></trkpt><trkpt lat="49.34412321005391" lon="0.4362450467427671"><ele>80.0</ele><time>2026-04-26T15:38:26Z</time></trkpt><trkpt lat="49.34404241470059" lon="0.4360911256943738"><ele>78.83333333333334</ele><time>2026-04-26T15:38:27Z</time></trkpt><trkpt lat="49.34400178254965" lon="0.43601208317217083"><ele>77.66666666666667</ele><time>2026-04-26T15:38:28Z</time></trkpt><trkpt lat="49.343960630477035" lon="0.4359309204026929"><ele>76.5</ele><time>2026-04-26T15:38:29Z</time></trkpt><trkpt lat="49.343926388454314" lon="0.43583755624480547"><ele>75.33333333333333</ele><time>2026-04-26T15:38:30Z</time></trkpt><trkpt lat="49.343856310335404" lon="0.4356953289584253"><ele>74.16666666666666</ele><time>2026-04-26T15:38:31Z</time></trkpt><trkpt lat="49.34381796427085" lon="0.4355882991875981"><ele>73.0</ele><time>2026-04-26T15:38:32Z</time></trkpt><trkpt lat="49.34377868839722" lon="0.43549837732977126"><ele>68.0</ele><time>2026-04-26T15:38:33Z</time></trkpt><trkpt lat="49.34373792191106" lon="0.43541787689627537"><ele>63.0</ele><time>2026-04-26T15:38:34Z</time></trkpt><trkpt lat="49.34368256834697" lon="0.43532936684546053"><ele>58.0</ele><time>2026-04-26T15:38:36Z</time></trkpt><trkpt lat="49.34365761452593" lon="0.43521414352353005"><ele>53.0</ele><time>2026-04-26T15:38:39Z</time></trkpt><trkpt lat="49.343660261379625" lon="0.43499494107163716"><ele>48.0</ele><time>2026-04-26T15:38:41Z</time></trkpt><trkpt lat="49.34365758886882" lon="0.4348642800075707"><ele>48.0</ele><time>2026-04-26T15:38:42Z</time></trkpt><trkpt lat="49.343662255773964" lon="0.43473010555737895"><ele>48.0</ele><time>2026-04-26T15:38:43Z</time></trkpt><trkpt lat="49.34369689864314" lon="0.434624686584675"><ele>48.0</ele><time>2026-04-26T15:38:43.999Z</time></trkpt><trkpt lat="49.34369593593402" lon="0.43452498224446245"><ele>48.0</ele><time>2026-04-26T15:38:44.999Z</time></trkpt><trkpt lat="49.34373841949625" lon="0.4343411703223936"><ele>48.0</ele><time>2026-04-26T15:38:46.999Z</time></trkpt><trkpt lat="49.343843220435595" lon="0.4343271576353979"><ele>48.666666666666664</ele><time>2026-04-26T15:38:47.999Z</time></trkpt><trkpt lat="49.343874942413535" lon="0.434242986692261"><ele>49.33333333333333</ele><time>2026-04-26T15:38:48.999Z</time></trkpt><trkpt lat="49.343914542399745" lon="0.43413770725623024"><ele>50.0</ele><time>2026-04-26T15:38:49.999Z</time></trkpt><trkpt lat="49.34398582013717" lon="0.4339959350674329"><ele>50.666666666666664</ele><time>2026-04-26T15:38:51.999Z</time></trkpt><trkpt lat="49.34403454901922" lon="0.43393191283426147"><ele>51.33333333333333</ele><time>2026-04-26T15:38:52.999Z</time></trkpt><trkpt lat="49.344141022914584" lon="0.4338349939431315"><ele>52.0</ele><time>2026-04-26T15:38:54.999Z</time></trkpt><trkpt lat="49.34424612956757" lon="0.4337635619176299"><ele>49.2</ele><time>2026-04-26T15:38:56.999Z</time></trkpt><trkpt lat="49.34436383585764" lon="0.43370496786496004"><ele>46.400000000000006</ele><time>2026-04-26T15:38:57.999Z</time></trkpt><trkpt lat="49.344443854640986" lon="0.43367096604691785"><ele>43.599999999999994</ele><time>2026-04-26T15:38:58.999Z</time></trkpt><trkpt lat="49.34451889593054" lon="0.4336402661252404"><ele>40.8</ele><time>2026-04-26T15:38:59.999Z</time></trkpt><trkpt lat="49.34459947086685" lon="0.43360740144208093"><ele>38.0</ele><time>2026-04-26T15:39:00.999Z</time></trkpt><trkpt lat="49.34469825496554" lon="0.4335514292102725"><ele>38.0</ele><time>2026-04-26T15:39:02.999Z</time></trkpt><trkpt lat="49.34476580389358" lon="0.4335395579357017"><ele>38.0</ele><time>2026-04-26T15:39:04.999Z</time></trkpt><trkpt lat="49.34464688760869" lon="0.43339610715100707"><ele>38.0</ele><time>2026-04-26T15:39:07.999Z</time></trkpt><trkpt lat="49.34454462315597" lon="0.43338487162532013"><ele>38.0</ele><time>2026-04-26T15:39:08.999Z</time></trkpt><trkpt lat="49.34446606424439" lon="0.43338167569492975"><ele>38.0</ele><time>2026-04-26T15:39:09.999Z</time></trkpt><trkpt lat="49.34439277185686" lon="0.43337623425690763"><ele>38.0</ele><time>2026-04-26T15:39:10.999Z</time></trkpt><trkpt lat="49.344316265980666" lon="0.4333698150105512"><ele>38.0</ele><time>2026-04-26T15:39:11.999Z</time></trkpt><trkpt lat="49.34423728115373" lon="0.4333624426694474"><ele>38.0</ele><time>2026-04-26T15:39:12.999Z</time></trkpt><trkpt lat="49.344133449456216" lon="0.4333464522286231"><ele>38.0</ele><time>2026-04-26T15:39:13.999Z</time></trkpt><trkpt lat="49.34402092848688" lon="0.43331596173282605"><ele>38.0</ele><time>2026-04-26T15:39:14.999Z</time></trkpt><trkpt lat="49.34391770824644" lon="0.43330068421152607"><ele>38.0</ele><time>2026-04-26T15:39:15.999Z</time></trkpt><trkpt lat="49.343835223348464" lon="0.4333049179125224"><ele>38.0</ele><time>2026-04-26T15:39:16.999Z</time></trkpt><trkpt lat="49.34377162846126" lon="0.4333420731630753"><ele>38.0</ele><time>2026-04-26T15:39:17.999Z</time></trkpt><trkpt lat="49.34367208754499" lon="0.4334144431508042"><ele>38.0</ele><time>2026-04-26T15:39:19.999Z</time></trkpt><trkpt lat="49.343586419418656" lon="0.4334572924311379"><ele>38.0</ele><time>2026-04-26T15:39:21.999Z</time></trkpt><trkpt lat="49.343464299465744" lon="0.4335494056158893"><ele>38.0</ele><time>2026-04-26T15:39:23.999Z</time></trkpt><trkpt lat="49.34339972868267" lon="0.43360698496556177"><ele>38.0</ele><time>2026-04-26T15:39:24.999Z</time></trkpt><trkpt lat="49.343332965234346" lon="0.4336671246927359"><ele>38.0</ele><time>2026-04-26T15:39:25.999Z</time></trkpt><trkpt lat="49.34326197582327" lon="0.43374147134915314"><ele>38.0</ele><time>2026-04-26T15:39:26.999Z</time></trkpt><trkpt lat="49.34320314106104" lon="0.43379681195088554"><ele>38.0</ele><time>2026-04-26T15:39:27.999Z</time></trkpt><trkpt lat="49.34311042307823" lon="0.43386894599610676"><ele>38.0</ele><time>2026-04-26T15:39:29.999Z</time></trkpt><trkpt lat="49.343023728798904" lon="0.433861520124544"><ele>38.0</ele><time>2026-04-26T15:39:31.999Z</time></trkpt><trkpt lat="49.342922052187355" lon="0.43380985293406454"><ele>38.0</ele><time>2026-04-26T15:39:33.999Z</time></trkpt><trkpt lat="49.34282206940592" lon="0.43372420048184224"><ele>38.0</ele><time>2026-04-26T15:39:35.999Z</time></trkpt><trkpt lat="49.34277764337462" lon="0.4336529448140888"><ele>38.0</ele><time>2026-04-26T15:39:36.999Z</time></trkpt><trkpt lat="49.342710910013814" lon="0.43361432990178933"><ele>38.0</ele><time>2026-04-26T15:39:37.999Z</time></trkpt><trkpt lat="49.3426621129631" lon="0.4335524531482526"><ele>38.0</ele><time>2026-04-26T15:39:38.999Z</time></trkpt><trkpt lat="49.3425732284517" lon="0.4335014612245417"><ele>38.0</ele><time>2026-04-26T15:39:40.999Z</time></trkpt><trkpt lat="49.342503971853354" lon="0.43350358136990536"><ele>38.0</ele><time>2026-04-26T15:39:41.999Z</time></trkpt><trkpt lat="49.34237990056532" lon="0.43344578843839343"><ele>38.0</ele><time>2026-04-26T15:39:43.999Z</time></trkpt><trkpt lat="49.342291896144715" lon="0.4333970681584575"><ele>38.0</ele><time>2026-04-26T15:39:44.999Z</time></trkpt><trkpt lat="49.34217580104815" lon="0.433325709366476"><ele>38.0</ele><time>2026-04-26T15:39:45.999Z</time></trkpt><trkpt lat="49.34206832838502" lon="0.4332482872896126"><ele>38.4</ele><time>2026-04-26T15:39:46.999Z</time></trkpt><trkpt lat="49.34197190210283" lon="0.43317004984693397"><ele>38.8</ele><time>2026-04-26T15:39:47.999Z</time></trkpt><trkpt lat="49.34189309862749" lon="0.4331052197637776"><ele>39.2</ele><time>2026-04-26T15:39:48.999Z</time></trkpt><trkpt lat="49.34181032172353" lon="0.43303712117715487"><ele>39.6</ele><time>2026-04-26T15:39:49.998Z</time></trkpt><trkpt lat="49.34170469555596" lon="0.43296868019738605"><ele>40.0</ele><time>2026-04-26T15:39:50.998Z</time></trkpt><trkpt lat="49.34161314282946" lon="0.432935284293691"><ele>40.16666666666667</ele><time>2026-04-26T15:39:51.998Z</time></trkpt><trkpt lat="49.34153855600741" lon="0.4328753067444779"><ele>40.333333333333336</ele><time>2026-04-26T15:39:52.998Z</time></trkpt><trkpt lat="49.34147709039121" lon="0.4328171838423102"><ele>40.5</ele><time>2026-04-26T15:39:53.998Z</time></trkpt><trkpt lat="49.34140524445675" lon="0.43275489246795823"><ele>40.666666666666664</ele><time>2026-04-26T15:39:54.998Z</time></trkpt><trkpt lat="49.34133222393632" lon="0.4327009229828148"><ele>40.83333333333333</ele><time>2026-04-26T15:39:55.998Z</time></trkpt><trkpt lat="49.34124162191265" lon="0.43263231079649894"><ele>41.0</ele><time>2026-04-26T15:39:56.998Z</time></trkpt><trkpt lat="49.34113939264596" lon="0.43255410851083"><ele>41.8</ele><time>2026-04-26T15:39:57.998Z</time></trkpt><trkpt lat="49.34103691159734" lon="0.4324753649474137"><ele>42.599999999999994</ele><time>2026-04-26T15:39:58.998Z</time></trkpt><trkpt lat="49.34093834422914" lon="0.43242376001407595"><ele>43.4</ele><time>2026-04-26T15:39:59.998Z</time></trkpt><trkpt lat="49.340850494451765" lon="0.4323372996518573"><ele>44.2</ele><time>2026-04-26T15:40:00.998Z</time></trkpt><trkpt lat="49.34075349496047" lon="0.43225157361007965"><ele>45.0</ele><time>2026-04-26T15:40:01.998Z</time></trkpt><trkpt lat="49.340665052901784" lon="0.43218209079758846"><ele>44.833333333333336</ele><time>2026-04-26T15:40:02.998Z</time></trkpt><trkpt lat="49.34058874344671" lon="0.4321372626131223"><ele>44.666666666666664</ele><time>2026-04-26T15:40:03.998Z</time></trkpt><trkpt lat="49.34051305425026" lon="0.43211622580456527"><ele>44.5</ele><time>2026-04-26T15:40:04.998Z</time></trkpt><trkpt lat="49.340426473929426" lon="0.4321034027789327"><ele>44.33333333333333</ele><time>2026-04-26T15:40:05.998Z</time></trkpt><trkpt lat="49.34034703827042" lon="0.43210768082680495"><ele>44.166666666666664</ele><time>2026-04-26T15:40:06.998Z</time></trkpt><trkpt lat="49.34024431212994" lon="0.4321592098473423"><ele>44.0</ele><time>2026-04-26T15:40:08.998Z</time></trkpt><trkpt lat="49.34027117708654" lon="0.4319995746991513"><ele>44.0</ele><time>2026-04-26T15:40:13.998Z</time></trkpt><trkpt lat="49.340299481740736" lon="0.4318687609378644"><ele>44.0</ele><time>2026-04-26T15:40:14.998Z</time></trkpt><trkpt lat="49.340327097200905" lon="0.4317350793660415"><ele>44.0</ele><time>2026-04-26T15:40:15.998Z</time></trkpt><trkpt lat="49.34035931214022" lon="0.43157586301585954"><ele>44.0</ele><time>2026-04-26T15:40:16.998Z</time></trkpt><trkpt lat="49.34039108184524" lon="0.4314101375640341"><ele>44.0</ele><time>2026-04-26T15:40:17.998Z</time></trkpt><trkpt lat="49.34041832726703" lon="0.4312587605000808"><ele>43.666666666666664</ele><time>2026-04-26T15:40:18.998Z</time></trkpt><trkpt lat="49.34044342913609" lon="0.4311282226216622"><ele>43.33333333333333</ele><time>2026-04-26T15:40:19.998Z</time></trkpt><trkpt lat="49.34047119347665" lon="0.431004066477803"><ele>43.0</ele><time>2026-04-26T15:40:20.998Z</time></trkpt><trkpt lat="49.34050227714097" lon="0.43089767987552313"><ele>42.666666666666664</ele><time>2026-04-26T15:40:22Z</time></trkpt><trkpt lat="49.3405350900176" lon="0.4307849360062401"><ele>42.333333333333336</ele><time>2026-04-26T15:40:23Z</time></trkpt><trkpt lat="49.34056543814663" lon="0.43068836279556666"><ele>42.0</ele><time>2026-04-26T15:40:24Z</time></trkpt><trkpt lat="49.34061827755305" lon="0.4305877460919325"><ele>42.0</ele><time>2026-04-26T15:40:25Z</time></trkpt><trkpt lat="49.3406858410647" lon="0.43053019543790244"><ele>42.0</ele><time>2026-04-26T15:40:26Z</time></trkpt><trkpt lat="49.34075505805605" lon="0.4305097130982722"><ele>42.0</ele><time>2026-04-26T15:40:27Z</time></trkpt><trkpt lat="49.34084660646623" lon="0.4305924515443354"><ele>42.0</ele><time>2026-04-26T15:40:28Z</time></trkpt><trkpt lat="49.34101178524591" lon="0.4306315745456797"><ele>42.0</ele><time>2026-04-26T15:40:29Z</time></trkpt><trkpt lat="49.34114525261319" lon="0.4306798308791503"><ele>42.0</ele><time>2026-04-26T15:40:30Z</time></trkpt><trkpt lat="49.34124560178216" lon="0.4307021301056738"><ele>42.0</ele><time>2026-04-26T15:40:31Z</time></trkpt><trkpt lat="49.34135813178429" lon="0.43071706015997946"><ele>42.0</ele><time>2026-04-26T15:40:32Z</time></trkpt><trkpt lat="49.34143934581009" lon="0.430737934594998"><ele>42.0</ele><time>2026-04-26T15:40:33Z</time></trkpt><trkpt lat="49.34153514188386" lon="0.43073049076604875"><ele>42.0</ele><time>2026-04-26T15:40:34Z</time></trkpt><trkpt lat="49.34163420948476" lon="0.43069861934137477"><ele>41.75</ele><time>2026-04-26T15:40:35Z</time></trkpt><trkpt lat="49.341747710438035" lon="0.4305956462692873"><ele>41.5</ele><time>2026-04-26T15:40:36Z</time></trkpt><trkpt lat="49.34185556832438" lon="0.4304935453367766"><ele>41.25</ele><time>2026-04-26T15:40:37Z</time></trkpt><trkpt lat="49.34196536249058" lon="0.43038427239086313"><ele>41.0</ele><time>2026-04-26T15:40:38Z</time></trkpt><trkpt lat="49.3420982476744" lon="0.43029567369392263"><ele>42.33333333333333</ele><time>2026-04-26T15:40:39Z</time></trkpt><trkpt lat="49.34225292113105" lon="0.43021931412990355"><ele>43.666666666666664</ele><time>2026-04-26T15:40:40Z</time></trkpt><trkpt lat="49.34240134208188" lon="0.4301220692095423"><ele>45.0</ele><time>2026-04-26T15:40:41Z</time></trkpt><trkpt lat="49.34254751387576" lon="0.4300262984376603"><ele>45.0</ele><time>2026-04-26T15:40:42Z</time></trkpt><trkpt lat="49.34268983610362" lon="0.4299330493981809"><ele>45.0</ele><time>2026-04-26T15:40:43Z</time></trkpt><trkpt lat="49.34281864085838" lon="0.4298490543101562"><ele>45.0</ele><time>2026-04-26T15:40:44Z</time></trkpt><trkpt lat="49.34293353473332" lon="0.4297741952005182"><ele>45.0</ele><time>2026-04-26T15:40:45Z</time></trkpt><trkpt lat="49.343023791182326" lon="0.4297153887014095"><ele>44.833333333333336</ele><time>2026-04-26T15:40:46Z</time></trkpt><trkpt lat="49.34309212238738" lon="0.4296708676059432"><ele>44.666666666666664</ele><time>2026-04-26T15:40:46.999Z</time></trkpt><trkpt lat="49.343157925171255" lon="0.4296116417819886"><ele>44.5</ele><time>2026-04-26T15:40:47.999Z</time></trkpt><trkpt lat="49.34322224862545" lon="0.4295712805375155"><ele>44.33333333333333</ele><time>2026-04-26T15:40:48.999Z</time></trkpt><trkpt lat="49.34328880271906" lon="0.4295278414246004"><ele>44.166666666666664</ele><time>2026-04-26T15:40:49.999Z</time></trkpt><trkpt lat="49.34336232634676" lon="0.429479247062814"><ele>44.0</ele><time>2026-04-26T15:40:50.999Z</time></trkpt><trkpt lat="49.34343553620725" lon="0.42943251691562184"><ele>44.5</ele><time>2026-04-26T15:40:51.999Z</time></trkpt><trkpt lat="49.34350300039901" lon="0.42938468937211033"><ele>45.0</ele><time>2026-04-26T15:40:52.999Z</time></trkpt><trkpt lat="49.343570983369354" lon="0.4293353633824204"><ele>45.5</ele><time>2026-04-26T15:40:53.999Z</time></trkpt><trkpt lat="49.343640347137324" lon="0.42929085093814134"><ele>46.0</ele><time>2026-04-26T15:40:54.999Z</time></trkpt><trkpt lat="49.34370926848912" lon="0.4292441780198888"><ele>46.5</ele><time>2026-04-26T15:40:55.999Z</time></trkpt><trkpt lat="49.34377729726177" lon="0.42919468193596877"><ele>47.0</ele><time>2026-04-26T15:40:56.999Z</time></trkpt><trkpt lat="49.343847791466985" lon="0.4291468884410775"><ele>47.2</ele><time>2026-04-26T15:40:57.999Z</time></trkpt><trkpt lat="49.34391570800902" lon="0.4291030605462766"><ele>47.400000000000006</ele><time>2026-04-26T15:40:58.999Z</time></trkpt><trkpt lat="49.343984771901916" lon="0.42905871688123487"><ele>47.599999999999994</ele><time>2026-04-26T15:40:59.999Z</time></trkpt><trkpt lat="49.34409788302178" lon="0.42898271846356284"><ele>47.8</ele><time>2026-04-26T15:41:01.999Z</time></trkpt><trkpt lat="49.34421485340216" lon="0.4289005017189594"><ele>48.0</ele><time>2026-04-26T15:41:03.999Z</time></trkpt><trkpt lat="49.34427671830752" lon="0.4288600913736985"><ele>47.99999999999999</ele><time>2026-04-26T15:41:04.999Z</time></trkpt><trkpt lat="49.34433603480699" lon="0.42882098694277304"><ele>48.0</ele><time>2026-04-26T15:41:05.999Z</time></trkpt><trkpt lat="49.34439384762832" lon="0.4287827270248164"><ele>48.0</ele><time>2026-04-26T15:41:06.999Z</time></trkpt><trkpt lat="49.34445201000412" lon="0.42873937671805074"><ele>48.0</ele><time>2026-04-26T15:41:07.999Z</time></trkpt><trkpt lat="49.34451988874639" lon="0.4287205922368917"><ele>48.0</ele><time>2026-04-26T15:41:08.999Z</time></trkpt><trkpt lat="49.34458145991398" lon="0.42867956962688814"><ele>47.99999999999999</ele><time>2026-04-26T15:41:09.999Z</time></trkpt><trkpt lat="49.344641932072705" lon="0.42863927931299334"><ele>48.0</ele><time>2026-04-26T15:41:10.999Z</time></trkpt><trkpt lat="49.34470045241774" lon="0.4286014976796395"><ele>48.166666666666664</ele><time>2026-04-26T15:41:11.999Z</time></trkpt><trkpt lat="49.344795171726226" lon="0.4285405009135046"><ele>48.33333333333333</ele><time>2026-04-26T15:41:13.999Z</time></trkpt><trkpt lat="49.34486048244044" lon="0.42850106898154394"><ele>48.5</ele><time>2026-04-26T15:41:15.999Z</time></trkpt><trkpt lat="49.344824251034034" lon="0.42860378911009944"><ele>48.666666666666664</ele><time>2026-04-26T15:41:20.999Z</time></trkpt><trkpt lat="49.344845940557875" lon="0.42870451816566063"><ele>48.83333333333333</ele><time>2026-04-26T15:41:23.999Z</time></trkpt><trkpt lat="49.344867825931075" lon="0.4288061568514006"><ele>49.0</ele><time>2026-04-26T15:41:28.999Z</time></trkpt><trkpt lat="49.34500256465273" lon="0.4287653680783292"><ele>49.0</ele><time>2026-04-26T15:41:29.999Z</time></trkpt><trkpt lat="49.344983888796904" lon="0.42886515122185986"><ele>46.0</ele><time>2026-04-26T15:41:34.999Z</time></trkpt><trkpt lat="49.34499971716232" lon="0.4287705258819351"><ele>49.0</ele><time>2026-04-26T15:42:05.998Z</time></trkpt><trkpt lat="49.345076818711235" lon="0.42874323724537444"><ele>49.0</ele><time>2026-04-26T15:42:47.999Z</time></trkpt></trkseg></trk></gpx>